<?xml version="1.0" encoding="UTF-8" standalone="no" ?>
<gpx xmlns="http://www.topografix.com/GPX/1/1" xmlns:xsi="http://www.w3.org/2001/XMLSchema-instance" xsi:schemaLocation="http://www.topografix.com/GPX/1/1 http://www.topografix.com/GPX/1/1/gpx.xsd" version="1.1" creator="VisuGPX - https://www.visugpx.com">
  <metadata>
    <name>Ampiac - Agnac - Ruols - Castan</name>
    <desc><![CDATA[Ampiac - Agnac - Ruols - Castan
15 km]]></desc>
  </metadata>
  <trk>
    <name><![CDATA[21 mars 2013 16:40:43]]></name>
    <cmt><![CDATA[21 mars 2013 16:40:43]]></cmt>
    <trkseg>
      <trkpt lat="44.34175" lon="2.49461">
        <ele>614</ele>
        <time>2013-03-21T15:40:44Z</time>
      </trkpt>
      <trkpt lat="44.34163" lon="2.49474">
        <ele>587</ele>
        <time>2013-03-21T15:40:49Z</time>
      </trkpt>
      <trkpt lat="44.34112" lon="2.49487">
        <ele>515</ele>
        <time>2013-03-21T15:41:24Z</time>
      </trkpt>
      <trkpt lat="44.34103" lon="2.49494">
        <ele>513</ele>
        <time>2013-03-21T15:41:29Z</time>
      </trkpt>
      <trkpt lat="44.34098" lon="2.49494">
        <ele>510</ele>
        <time>2013-03-21T15:41:33Z</time>
      </trkpt>
      <trkpt lat="44.34091" lon="2.49497">
        <ele>509</ele>
        <time>2013-03-21T15:41:38Z</time>
      </trkpt>
      <trkpt lat="44.34083" lon="2.495">
        <ele>508</ele>
        <time>2013-03-21T15:41:42Z</time>
      </trkpt>
      <trkpt lat="44.34079" lon="2.49502">
        <ele>508</ele>
        <time>2013-03-21T15:41:45Z</time>
      </trkpt>
      <trkpt lat="44.34074" lon="2.49505">
        <ele>508</ele>
        <time>2013-03-21T15:41:48Z</time>
      </trkpt>
      <trkpt lat="44.34066" lon="2.49509">
        <ele>508</ele>
        <time>2013-03-21T15:41:53Z</time>
      </trkpt>
      <trkpt lat="44.3406" lon="2.49512">
        <ele>507</ele>
        <time>2013-03-21T15:41:56Z</time>
      </trkpt>
      <trkpt lat="44.34056" lon="2.49514">
        <ele>507</ele>
        <time>2013-03-21T15:41:59Z</time>
      </trkpt>
      <trkpt lat="44.3405" lon="2.49517">
        <ele>508</ele>
        <time>2013-03-21T15:42:03Z</time>
      </trkpt>
      <trkpt lat="44.34041" lon="2.4952">
        <ele>507</ele>
        <time>2013-03-21T15:42:09Z</time>
      </trkpt>
      <trkpt lat="44.34032" lon="2.49524">
        <ele>506</ele>
        <time>2013-03-21T15:42:14Z</time>
      </trkpt>
      <trkpt lat="44.34025" lon="2.49533">
        <ele>503</ele>
        <time>2013-03-21T15:42:20Z</time>
      </trkpt>
      <trkpt lat="44.34017" lon="2.4954">
        <ele>501</ele>
        <time>2013-03-21T15:42:27Z</time>
      </trkpt>
      <trkpt lat="44.34009" lon="2.49548">
        <ele>500</ele>
        <time>2013-03-21T15:42:33Z</time>
      </trkpt>
      <trkpt lat="44.34005" lon="2.49552">
        <ele>500</ele>
        <time>2013-03-21T15:42:36Z</time>
      </trkpt>
      <trkpt lat="44.33999" lon="2.49558">
        <ele>499</ele>
        <time>2013-03-21T15:42:40Z</time>
      </trkpt>
      <trkpt lat="44.33994" lon="2.49562">
        <ele>499</ele>
        <time>2013-03-21T15:42:43Z</time>
      </trkpt>
      <trkpt lat="44.3399" lon="2.49568">
        <ele>499</ele>
        <time>2013-03-21T15:42:46Z</time>
      </trkpt>
      <trkpt lat="44.33986" lon="2.49573">
        <ele>499</ele>
        <time>2013-03-21T15:42:49Z</time>
      </trkpt>
      <trkpt lat="44.33984" lon="2.4958">
        <ele>499</ele>
        <time>2013-03-21T15:42:52Z</time>
      </trkpt>
      <trkpt lat="44.3398" lon="2.49587">
        <ele>498</ele>
        <time>2013-03-21T15:42:56Z</time>
      </trkpt>
      <trkpt lat="44.33978" lon="2.49594">
        <ele>498</ele>
        <time>2013-03-21T15:42:59Z</time>
      </trkpt>
      <trkpt lat="44.33975" lon="2.496">
        <ele>497</ele>
        <time>2013-03-21T15:43:02Z</time>
      </trkpt>
      <trkpt lat="44.33971" lon="2.49606">
        <ele>498</ele>
        <time>2013-03-21T15:43:06Z</time>
      </trkpt>
      <trkpt lat="44.33968" lon="2.49612">
        <ele>498</ele>
        <time>2013-03-21T15:43:09Z</time>
      </trkpt>
      <trkpt lat="44.33966" lon="2.49618">
        <ele>498</ele>
        <time>2013-03-21T15:43:12Z</time>
      </trkpt>
      <trkpt lat="44.33964" lon="2.49625">
        <ele>497</ele>
        <time>2013-03-21T15:43:15Z</time>
      </trkpt>
      <trkpt lat="44.33962" lon="2.49633">
        <ele>497</ele>
        <time>2013-03-21T15:43:18Z</time>
      </trkpt>
      <trkpt lat="44.33961" lon="2.49641">
        <ele>497</ele>
        <time>2013-03-21T15:43:21Z</time>
      </trkpt>
      <trkpt lat="44.3396" lon="2.49647">
        <ele>498</ele>
        <time>2013-03-21T15:43:24Z</time>
      </trkpt>
      <trkpt lat="44.3396" lon="2.4966">
        <ele>499</ele>
        <time>2013-03-21T15:43:30Z</time>
      </trkpt>
      <trkpt lat="44.3396" lon="2.49671">
        <ele>499</ele>
        <time>2013-03-21T15:43:35Z</time>
      </trkpt>
      <trkpt lat="44.33963" lon="2.49682">
        <ele>500</ele>
        <time>2013-03-21T15:43:41Z</time>
      </trkpt>
      <trkpt lat="44.33965" lon="2.49689">
        <ele>499</ele>
        <time>2013-03-21T15:43:44Z</time>
      </trkpt>
      <trkpt lat="44.33971" lon="2.49701">
        <ele>498</ele>
        <time>2013-03-21T15:43:50Z</time>
      </trkpt>
      <trkpt lat="44.33976" lon="2.49713">
        <ele>495</ele>
        <time>2013-03-21T15:43:58Z</time>
      </trkpt>
      <trkpt lat="44.3398" lon="2.49726">
        <ele>494</ele>
        <time>2013-03-21T15:44:04Z</time>
      </trkpt>
      <trkpt lat="44.33985" lon="2.49738">
        <ele>490</ele>
        <time>2013-03-21T15:44:12Z</time>
      </trkpt>
      <trkpt lat="44.33987" lon="2.49752">
        <ele>490</ele>
        <time>2013-03-21T15:44:18Z</time>
      </trkpt>
      <trkpt lat="44.33994" lon="2.49761">
        <ele>491</ele>
        <time>2013-03-21T15:44:24Z</time>
      </trkpt>
      <trkpt lat="44.34004" lon="2.49766">
        <ele>492</ele>
        <time>2013-03-21T15:44:31Z</time>
      </trkpt>
      <trkpt lat="44.34009" lon="2.49769">
        <ele>493</ele>
        <time>2013-03-21T15:44:34Z</time>
      </trkpt>
      <trkpt lat="44.34014" lon="2.49773">
        <ele>494</ele>
        <time>2013-03-21T15:44:37Z</time>
      </trkpt>
      <trkpt lat="44.34018" lon="2.49778">
        <ele>495</ele>
        <time>2013-03-21T15:44:40Z</time>
      </trkpt>
      <trkpt lat="44.34022" lon="2.49783">
        <ele>496</ele>
        <time>2013-03-21T15:44:44Z</time>
      </trkpt>
      <trkpt lat="44.34025" lon="2.49788">
        <ele>496</ele>
        <time>2013-03-21T15:44:48Z</time>
      </trkpt>
      <trkpt lat="44.34027" lon="2.49794">
        <ele>496</ele>
        <time>2013-03-21T15:44:51Z</time>
      </trkpt>
      <trkpt lat="44.34031" lon="2.49798">
        <ele>496</ele>
        <time>2013-03-21T15:44:54Z</time>
      </trkpt>
      <trkpt lat="44.34035" lon="2.49802">
        <ele>496</ele>
        <time>2013-03-21T15:44:58Z</time>
      </trkpt>
      <trkpt lat="44.34044" lon="2.49806">
        <ele>496</ele>
        <time>2013-03-21T15:45:08Z</time>
      </trkpt>
      <trkpt lat="44.34052" lon="2.49801">
        <ele>495</ele>
        <time>2013-03-21T15:45:16Z</time>
      </trkpt>
      <trkpt lat="44.3406" lon="2.49796">
        <ele>492</ele>
        <time>2013-03-21T15:45:27Z</time>
      </trkpt>
      <trkpt lat="44.34064" lon="2.49799">
        <ele>487</ele>
        <time>2013-03-21T15:46:08Z</time>
      </trkpt>
      <trkpt lat="44.34058" lon="2.49808">
        <ele>494</ele>
        <time>2013-03-21T15:46:27Z</time>
      </trkpt>
      <trkpt lat="44.34057" lon="2.49824">
        <ele>500</ele>
        <time>2013-03-21T15:46:39Z</time>
      </trkpt>
      <trkpt lat="44.34052" lon="2.49836">
        <ele>502</ele>
        <time>2013-03-21T15:46:47Z</time>
      </trkpt>
      <trkpt lat="44.34055" lon="2.49849">
        <ele>504</ele>
        <time>2013-03-21T15:46:58Z</time>
      </trkpt>
      <trkpt lat="44.34059" lon="2.49863">
        <ele>508</ele>
        <time>2013-03-21T15:47:07Z</time>
      </trkpt>
      <trkpt lat="44.34064" lon="2.49862">
        <ele>510</ele>
        <time>2013-03-21T15:47:12Z</time>
      </trkpt>
      <trkpt lat="44.34066" lon="2.49863">
        <ele>514</ele>
        <time>2013-03-21T15:47:28Z</time>
      </trkpt>
      <trkpt lat="44.3407" lon="2.49859">
        <ele>515</ele>
        <time>2013-03-21T15:47:31Z</time>
      </trkpt>
      <trkpt lat="44.34073" lon="2.49852">
        <ele>515</ele>
        <time>2013-03-21T15:47:36Z</time>
      </trkpt>
      <trkpt lat="44.34078" lon="2.49849">
        <ele>515</ele>
        <time>2013-03-21T15:47:44Z</time>
      </trkpt>
      <trkpt lat="44.34083" lon="2.49846">
        <ele>519</ele>
        <time>2013-03-21T15:47:52Z</time>
      </trkpt>
      <trkpt lat="44.34087" lon="2.49846">
        <ele>519</ele>
        <time>2013-03-21T15:47:55Z</time>
      </trkpt>
      <trkpt lat="44.34093" lon="2.49848">
        <ele>519</ele>
        <time>2013-03-21T15:48:00Z</time>
      </trkpt>
      <trkpt lat="44.34101" lon="2.49852">
        <ele>519</ele>
        <time>2013-03-21T15:48:08Z</time>
      </trkpt>
      <trkpt lat="44.34108" lon="2.49856">
        <ele>522</ele>
        <time>2013-03-21T15:48:15Z</time>
      </trkpt>
      <trkpt lat="44.34113" lon="2.49863">
        <ele>524</ele>
        <time>2013-03-21T15:48:21Z</time>
      </trkpt>
      <trkpt lat="44.34118" lon="2.49866">
        <ele>525</ele>
        <time>2013-03-21T15:48:25Z</time>
      </trkpt>
      <trkpt lat="44.34122" lon="2.49871">
        <ele>527</ele>
        <time>2013-03-21T15:48:32Z</time>
      </trkpt>
      <trkpt lat="44.34123" lon="2.49879">
        <ele>527</ele>
        <time>2013-03-21T15:48:37Z</time>
      </trkpt>
      <trkpt lat="44.34121" lon="2.49885">
        <ele>529</ele>
        <time>2013-03-21T15:48:41Z</time>
      </trkpt>
      <trkpt lat="44.34122" lon="2.49892">
        <ele>530</ele>
        <time>2013-03-21T15:48:45Z</time>
      </trkpt>
      <trkpt lat="44.3412" lon="2.49898">
        <ele>530</ele>
        <time>2013-03-21T15:48:50Z</time>
      </trkpt>
      <trkpt lat="44.34118" lon="2.49904">
        <ele>530</ele>
        <time>2013-03-21T15:48:54Z</time>
      </trkpt>
      <trkpt lat="44.34117" lon="2.49911">
        <ele>532</ele>
        <time>2013-03-21T15:48:58Z</time>
      </trkpt>
      <trkpt lat="44.34117" lon="2.49918">
        <ele>533</ele>
        <time>2013-03-21T15:49:03Z</time>
      </trkpt>
      <trkpt lat="44.34117" lon="2.49925">
        <ele>534</ele>
        <time>2013-03-21T15:49:08Z</time>
      </trkpt>
      <trkpt lat="44.34119" lon="2.49932">
        <ele>535</ele>
        <time>2013-03-21T15:49:12Z</time>
      </trkpt>
      <trkpt lat="44.34121" lon="2.49938">
        <ele>536</ele>
        <time>2013-03-21T15:49:17Z</time>
      </trkpt>
      <trkpt lat="44.34123" lon="2.49947">
        <ele>537</ele>
        <time>2013-03-21T15:49:22Z</time>
      </trkpt>
      <trkpt lat="44.34124" lon="2.49955">
        <ele>538</ele>
        <time>2013-03-21T15:49:26Z</time>
      </trkpt>
      <trkpt lat="44.34127" lon="2.49971">
        <ele>540</ele>
        <time>2013-03-21T15:49:35Z</time>
      </trkpt>
      <trkpt lat="44.34129" lon="2.49977">
        <ele>541</ele>
        <time>2013-03-21T15:49:39Z</time>
      </trkpt>
      <trkpt lat="44.34132" lon="2.49983">
        <ele>541</ele>
        <time>2013-03-21T15:49:43Z</time>
      </trkpt>
      <trkpt lat="44.34139" lon="2.49991">
        <ele>541</ele>
        <time>2013-03-21T15:49:53Z</time>
      </trkpt>
      <trkpt lat="44.34144" lon="2.49995">
        <ele>542</ele>
        <time>2013-03-21T15:49:59Z</time>
      </trkpt>
      <trkpt lat="44.3415" lon="2.49999">
        <ele>543</ele>
        <time>2013-03-21T15:50:04Z</time>
      </trkpt>
      <trkpt lat="44.34154" lon="2.50002">
        <ele>543</ele>
        <time>2013-03-21T15:50:07Z</time>
      </trkpt>
      <trkpt lat="44.34158" lon="2.50006">
        <ele>543</ele>
        <time>2013-03-21T15:50:10Z</time>
      </trkpt>
      <trkpt lat="44.34165" lon="2.50014">
        <ele>543</ele>
        <time>2013-03-21T15:50:16Z</time>
      </trkpt>
      <trkpt lat="44.34169" lon="2.50018">
        <ele>543</ele>
        <time>2013-03-21T15:50:20Z</time>
      </trkpt>
      <trkpt lat="44.34176" lon="2.50027">
        <ele>545</ele>
        <time>2013-03-21T15:50:27Z</time>
      </trkpt>
      <trkpt lat="44.34184" lon="2.50034">
        <ele>544</ele>
        <time>2013-03-21T15:50:35Z</time>
      </trkpt>
      <trkpt lat="44.34193" lon="2.50037">
        <ele>543</ele>
        <time>2013-03-21T15:50:43Z</time>
      </trkpt>
      <trkpt lat="44.34203" lon="2.50039">
        <ele>543</ele>
        <time>2013-03-21T15:50:51Z</time>
      </trkpt>
      <trkpt lat="44.34209" lon="2.50042">
        <ele>547</ele>
        <time>2013-03-21T15:50:57Z</time>
      </trkpt>
      <trkpt lat="44.34214" lon="2.50045">
        <ele>549</ele>
        <time>2013-03-21T15:51:00Z</time>
      </trkpt>
      <trkpt lat="44.34218" lon="2.5005">
        <ele>549</ele>
        <time>2013-03-21T15:51:03Z</time>
      </trkpt>
      <trkpt lat="44.34222" lon="2.50055">
        <ele>550</ele>
        <time>2013-03-21T15:51:06Z</time>
      </trkpt>
      <trkpt lat="44.34224" lon="2.50061">
        <ele>551</ele>
        <time>2013-03-21T15:51:10Z</time>
      </trkpt>
      <trkpt lat="44.34225" lon="2.50069">
        <ele>551</ele>
        <time>2013-03-21T15:51:14Z</time>
      </trkpt>
      <trkpt lat="44.34228" lon="2.50082">
        <ele>551</ele>
        <time>2013-03-21T15:51:23Z</time>
      </trkpt>
      <trkpt lat="44.34233" lon="2.50095">
        <ele>550</ele>
        <time>2013-03-21T15:51:33Z</time>
      </trkpt>
      <trkpt lat="44.34238" lon="2.50105">
        <ele>549</ele>
        <time>2013-03-21T15:51:41Z</time>
      </trkpt>
      <trkpt lat="44.34242" lon="2.50119">
        <ele>548</ele>
        <time>2013-03-21T15:51:47Z</time>
      </trkpt>
      <trkpt lat="44.3425" lon="2.50127">
        <ele>550</ele>
        <time>2013-03-21T15:51:53Z</time>
      </trkpt>
      <trkpt lat="44.34256" lon="2.5014">
        <ele>552</ele>
        <time>2013-03-21T15:52:00Z</time>
      </trkpt>
      <trkpt lat="44.3426" lon="2.50153">
        <ele>554</ele>
        <time>2013-03-21T15:52:07Z</time>
      </trkpt>
      <trkpt lat="44.3427" lon="2.5016">
        <ele>553</ele>
        <time>2013-03-21T15:52:12Z</time>
      </trkpt>
      <trkpt lat="44.34279" lon="2.50168">
        <ele>552</ele>
        <time>2013-03-21T15:52:16Z</time>
      </trkpt>
      <trkpt lat="44.34286" lon="2.50179">
        <ele>552</ele>
        <time>2013-03-21T15:52:19Z</time>
      </trkpt>
      <trkpt lat="44.34293" lon="2.50189">
        <ele>551</ele>
        <time>2013-03-21T15:52:22Z</time>
      </trkpt>
      <trkpt lat="44.34301" lon="2.50197">
        <ele>550</ele>
        <time>2013-03-21T15:52:25Z</time>
      </trkpt>
      <trkpt lat="44.3431" lon="2.50202">
        <ele>549</ele>
        <time>2013-03-21T15:52:28Z</time>
      </trkpt>
      <trkpt lat="44.34319" lon="2.50205">
        <ele>548</ele>
        <time>2013-03-21T15:52:31Z</time>
      </trkpt>
      <trkpt lat="44.34329" lon="2.50211">
        <ele>547</ele>
        <time>2013-03-21T15:52:34Z</time>
      </trkpt>
      <trkpt lat="44.3434" lon="2.5022">
        <ele>546</ele>
        <time>2013-03-21T15:52:37Z</time>
      </trkpt>
      <trkpt lat="44.34349" lon="2.50227">
        <ele>545</ele>
        <time>2013-03-21T15:52:40Z</time>
      </trkpt>
      <trkpt lat="44.34357" lon="2.50232">
        <ele>545</ele>
        <time>2013-03-21T15:52:43Z</time>
      </trkpt>
      <trkpt lat="44.34368" lon="2.50239">
        <ele>545</ele>
        <time>2013-03-21T15:52:46Z</time>
      </trkpt>
      <trkpt lat="44.34393" lon="2.50248">
        <ele>545</ele>
        <time>2013-03-21T15:52:52Z</time>
      </trkpt>
      <trkpt lat="44.34404" lon="2.50258">
        <ele>545</ele>
        <time>2013-03-21T15:52:55Z</time>
      </trkpt>
      <trkpt lat="44.34424" lon="2.50286">
        <ele>545</ele>
        <time>2013-03-21T15:53:03Z</time>
      </trkpt>
      <trkpt lat="44.34439" lon="2.50321">
        <ele>544</ele>
        <time>2013-03-21T15:53:13Z</time>
      </trkpt>
      <trkpt lat="44.34459" lon="2.50347">
        <ele>544</ele>
        <time>2013-03-21T15:53:22Z</time>
      </trkpt>
      <trkpt lat="44.34483" lon="2.50369">
        <ele>543</ele>
        <time>2013-03-21T15:53:29Z</time>
      </trkpt>
      <trkpt lat="44.34491" lon="2.50379">
        <ele>542</ele>
        <time>2013-03-21T15:53:32Z</time>
      </trkpt>
      <trkpt lat="44.34499" lon="2.50387">
        <ele>540</ele>
        <time>2013-03-21T15:53:35Z</time>
      </trkpt>
      <trkpt lat="44.34506" lon="2.50398">
        <ele>539</ele>
        <time>2013-03-21T15:53:38Z</time>
      </trkpt>
      <trkpt lat="44.34511" lon="2.50411">
        <ele>538</ele>
        <time>2013-03-21T15:53:41Z</time>
      </trkpt>
      <trkpt lat="44.34518" lon="2.50423">
        <ele>538</ele>
        <time>2013-03-21T15:53:44Z</time>
      </trkpt>
      <trkpt lat="44.34526" lon="2.50438">
        <ele>538</ele>
        <time>2013-03-21T15:53:47Z</time>
      </trkpt>
      <trkpt lat="44.34532" lon="2.50451">
        <ele>539</ele>
        <time>2013-03-21T15:53:50Z</time>
      </trkpt>
      <trkpt lat="44.34537" lon="2.50463">
        <ele>541</ele>
        <time>2013-03-21T15:53:53Z</time>
      </trkpt>
      <trkpt lat="44.34547" lon="2.50472">
        <ele>543</ele>
        <time>2013-03-21T15:53:56Z</time>
      </trkpt>
      <trkpt lat="44.34557" lon="2.50482">
        <ele>545</ele>
        <time>2013-03-21T15:53:59Z</time>
      </trkpt>
      <trkpt lat="44.34566" lon="2.50492">
        <ele>548</ele>
        <time>2013-03-21T15:54:02Z</time>
      </trkpt>
      <trkpt lat="44.34574" lon="2.50505">
        <ele>552</ele>
        <time>2013-03-21T15:54:05Z</time>
      </trkpt>
      <trkpt lat="44.3458" lon="2.50516">
        <ele>555</ele>
        <time>2013-03-21T15:54:08Z</time>
      </trkpt>
      <trkpt lat="44.34584" lon="2.50531">
        <ele>556</ele>
        <time>2013-03-21T15:54:12Z</time>
      </trkpt>
      <trkpt lat="44.34589" lon="2.50545">
        <ele>557</ele>
        <time>2013-03-21T15:54:16Z</time>
      </trkpt>
      <trkpt lat="44.34594" lon="2.50557">
        <ele>557</ele>
        <time>2013-03-21T15:54:20Z</time>
      </trkpt>
      <trkpt lat="44.34594" lon="2.50572">
        <ele>556</ele>
        <time>2013-03-21T15:54:24Z</time>
      </trkpt>
      <trkpt lat="44.34594" lon="2.50586">
        <ele>556</ele>
        <time>2013-03-21T15:54:27Z</time>
      </trkpt>
      <trkpt lat="44.34595" lon="2.50604">
        <ele>555</ele>
        <time>2013-03-21T15:54:30Z</time>
      </trkpt>
      <trkpt lat="44.34596" lon="2.50622">
        <ele>553</ele>
        <time>2013-03-21T15:54:33Z</time>
      </trkpt>
      <trkpt lat="44.34598" lon="2.5064">
        <ele>552</ele>
        <time>2013-03-21T15:54:36Z</time>
      </trkpt>
      <trkpt lat="44.34599" lon="2.50655">
        <ele>551</ele>
        <time>2013-03-21T15:54:39Z</time>
      </trkpt>
      <trkpt lat="44.3461" lon="2.50694">
        <ele>551</ele>
        <time>2013-03-21T15:54:47Z</time>
      </trkpt>
      <trkpt lat="44.34618" lon="2.50706">
        <ele>550</ele>
        <time>2013-03-21T15:54:50Z</time>
      </trkpt>
      <trkpt lat="44.34625" lon="2.50717">
        <ele>551</ele>
        <time>2013-03-21T15:54:52Z</time>
      </trkpt>
      <trkpt lat="44.34631" lon="2.50731">
        <ele>553</ele>
        <time>2013-03-21T15:54:55Z</time>
      </trkpt>
      <trkpt lat="44.34637" lon="2.50745">
        <ele>556</ele>
        <time>2013-03-21T15:54:58Z</time>
      </trkpt>
      <trkpt lat="44.3464" lon="2.50757">
        <ele>557</ele>
        <time>2013-03-21T15:55:00Z</time>
      </trkpt>
      <trkpt lat="44.34643" lon="2.50774">
        <ele>559</ele>
        <time>2013-03-21T15:55:03Z</time>
      </trkpt>
      <trkpt lat="44.34649" lon="2.50788">
        <ele>560</ele>
        <time>2013-03-21T15:55:06Z</time>
      </trkpt>
      <trkpt lat="44.34652" lon="2.50803">
        <ele>562</ele>
        <time>2013-03-21T15:55:10Z</time>
      </trkpt>
      <trkpt lat="44.34654" lon="2.50817">
        <ele>563</ele>
        <time>2013-03-21T15:55:15Z</time>
      </trkpt>
      <trkpt lat="44.34661" lon="2.50809">
        <ele>560</ele>
        <time>2013-03-21T15:55:50Z</time>
      </trkpt>
      <trkpt lat="44.34666" lon="2.50797">
        <ele>561</ele>
        <time>2013-03-21T15:55:55Z</time>
      </trkpt>
      <trkpt lat="44.3467" lon="2.50785">
        <ele>563</ele>
        <time>2013-03-21T15:56:01Z</time>
      </trkpt>
      <trkpt lat="44.3467" lon="2.50772">
        <ele>562</ele>
        <time>2013-03-21T15:56:07Z</time>
      </trkpt>
      <trkpt lat="44.34669" lon="2.50759">
        <ele>565</ele>
        <time>2013-03-21T15:56:13Z</time>
      </trkpt>
      <trkpt lat="44.34673" lon="2.50745">
        <ele>566</ele>
        <time>2013-03-21T15:56:19Z</time>
      </trkpt>
      <trkpt lat="44.3467" lon="2.50731">
        <ele>568</ele>
        <time>2013-03-21T15:56:26Z</time>
      </trkpt>
      <trkpt lat="44.34667" lon="2.50717">
        <ele>569</ele>
        <time>2013-03-21T15:56:32Z</time>
      </trkpt>
      <trkpt lat="44.34667" lon="2.50704">
        <ele>571</ele>
        <time>2013-03-21T15:56:40Z</time>
      </trkpt>
      <trkpt lat="44.34668" lon="2.50691">
        <ele>570</ele>
        <time>2013-03-21T15:56:46Z</time>
      </trkpt>
      <trkpt lat="44.34665" lon="2.50677">
        <ele>569</ele>
        <time>2013-03-21T15:56:52Z</time>
      </trkpt>
      <trkpt lat="44.34663" lon="2.50664">
        <ele>567</ele>
        <time>2013-03-21T15:56:58Z</time>
      </trkpt>
      <trkpt lat="44.34664" lon="2.50649">
        <ele>565</ele>
        <time>2013-03-21T15:57:05Z</time>
      </trkpt>
      <trkpt lat="44.34664" lon="2.50635">
        <ele>562</ele>
        <time>2013-03-21T15:57:12Z</time>
      </trkpt>
      <trkpt lat="44.34678" lon="2.50643">
        <ele>558</ele>
        <time>2013-03-21T15:57:25Z</time>
      </trkpt>
      <trkpt lat="44.34688" lon="2.50653">
        <ele>556</ele>
        <time>2013-03-21T15:57:30Z</time>
      </trkpt>
      <trkpt lat="44.34697" lon="2.50662">
        <ele>553</ele>
        <time>2013-03-21T15:57:35Z</time>
      </trkpt>
      <trkpt lat="44.34702" lon="2.50672">
        <ele>551</ele>
        <time>2013-03-21T15:57:39Z</time>
      </trkpt>
      <trkpt lat="44.3471" lon="2.50679">
        <ele>549</ele>
        <time>2013-03-21T15:57:43Z</time>
      </trkpt>
      <trkpt lat="44.34717" lon="2.50689">
        <ele>547</ele>
        <time>2013-03-21T15:57:49Z</time>
      </trkpt>
      <trkpt lat="44.34724" lon="2.50703">
        <ele>548</ele>
        <time>2013-03-21T15:57:53Z</time>
      </trkpt>
      <trkpt lat="44.34726" lon="2.50721">
        <ele>548</ele>
        <time>2013-03-21T15:57:56Z</time>
      </trkpt>
      <trkpt lat="44.34727" lon="2.50739">
        <ele>549</ele>
        <time>2013-03-21T15:57:59Z</time>
      </trkpt>
      <trkpt lat="44.34727" lon="2.50752">
        <ele>549</ele>
        <time>2013-03-21T15:58:02Z</time>
      </trkpt>
      <trkpt lat="44.34733" lon="2.50763">
        <ele>549</ele>
        <time>2013-03-21T15:58:04Z</time>
      </trkpt>
      <trkpt lat="44.34737" lon="2.50776">
        <ele>549</ele>
        <time>2013-03-21T15:58:06Z</time>
      </trkpt>
      <trkpt lat="44.34741" lon="2.50787">
        <ele>549</ele>
        <time>2013-03-21T15:58:08Z</time>
      </trkpt>
      <trkpt lat="44.34747" lon="2.50802">
        <ele>549</ele>
        <time>2013-03-21T15:58:11Z</time>
      </trkpt>
      <trkpt lat="44.34753" lon="2.50815">
        <ele>550</ele>
        <time>2013-03-21T15:58:14Z</time>
      </trkpt>
      <trkpt lat="44.3476" lon="2.50828">
        <ele>550</ele>
        <time>2013-03-21T15:58:17Z</time>
      </trkpt>
      <trkpt lat="44.34769" lon="2.50836">
        <ele>551</ele>
        <time>2013-03-21T15:58:19Z</time>
      </trkpt>
      <trkpt lat="44.34778" lon="2.50845">
        <ele>551</ele>
        <time>2013-03-21T15:58:22Z</time>
      </trkpt>
      <trkpt lat="44.34801" lon="2.50871">
        <ele>551</ele>
        <time>2013-03-21T15:58:31Z</time>
      </trkpt>
      <trkpt lat="44.34807" lon="2.50884">
        <ele>551</ele>
        <time>2013-03-21T15:58:35Z</time>
      </trkpt>
      <trkpt lat="44.34812" lon="2.50895">
        <ele>552</ele>
        <time>2013-03-21T15:58:38Z</time>
      </trkpt>
      <trkpt lat="44.34817" lon="2.50905">
        <ele>552</ele>
        <time>2013-03-21T15:58:42Z</time>
      </trkpt>
      <trkpt lat="44.34818" lon="2.5092">
        <ele>552</ele>
        <time>2013-03-21T15:58:45Z</time>
      </trkpt>
      <trkpt lat="44.34824" lon="2.50934">
        <ele>552</ele>
        <time>2013-03-21T15:58:49Z</time>
      </trkpt>
      <trkpt lat="44.34829" lon="2.50946">
        <ele>552</ele>
        <time>2013-03-21T15:58:52Z</time>
      </trkpt>
      <trkpt lat="44.34834" lon="2.50959">
        <ele>552</ele>
        <time>2013-03-21T15:58:55Z</time>
      </trkpt>
      <trkpt lat="44.34839" lon="2.50973">
        <ele>552</ele>
        <time>2013-03-21T15:58:58Z</time>
      </trkpt>
      <trkpt lat="44.34844" lon="2.50987">
        <ele>552</ele>
        <time>2013-03-21T15:59:01Z</time>
      </trkpt>
      <trkpt lat="44.34848" lon="2.51002">
        <ele>552</ele>
        <time>2013-03-21T15:59:04Z</time>
      </trkpt>
      <trkpt lat="44.34855" lon="2.51017">
        <ele>552</ele>
        <time>2013-03-21T15:59:07Z</time>
      </trkpt>
      <trkpt lat="44.34872" lon="2.51053">
        <ele>552</ele>
        <time>2013-03-21T15:59:15Z</time>
      </trkpt>
      <trkpt lat="44.34887" lon="2.51089">
        <ele>552</ele>
        <time>2013-03-21T15:59:23Z</time>
      </trkpt>
      <trkpt lat="44.3491" lon="2.51111">
        <ele>552</ele>
        <time>2013-03-21T15:59:35Z</time>
      </trkpt>
      <trkpt lat="44.34936" lon="2.51126">
        <ele>552</ele>
        <time>2013-03-21T15:59:42Z</time>
      </trkpt>
      <trkpt lat="44.34963" lon="2.51134">
        <ele>551</ele>
        <time>2013-03-21T15:59:49Z</time>
      </trkpt>
      <trkpt lat="44.34983" lon="2.51137">
        <ele>550</ele>
        <time>2013-03-21T15:59:57Z</time>
      </trkpt>
      <trkpt lat="44.34991" lon="2.51146">
        <ele>549</ele>
        <time>2013-03-21T16:00:04Z</time>
      </trkpt>
      <trkpt lat="44.34998" lon="2.51159">
        <ele>549</ele>
        <time>2013-03-21T16:00:11Z</time>
      </trkpt>
      <trkpt lat="44.34999" lon="2.51174">
        <ele>548</ele>
        <time>2013-03-21T16:00:19Z</time>
      </trkpt>
      <trkpt lat="44.35003" lon="2.51186">
        <ele>548</ele>
        <time>2013-03-21T16:00:25Z</time>
      </trkpt>
      <trkpt lat="44.35007" lon="2.51199">
        <ele>548</ele>
        <time>2013-03-21T16:00:31Z</time>
      </trkpt>
      <trkpt lat="44.35013" lon="2.51209">
        <ele>547</ele>
        <time>2013-03-21T16:00:39Z</time>
      </trkpt>
      <trkpt lat="44.35024" lon="2.51212">
        <ele>547</ele>
        <time>2013-03-21T16:00:46Z</time>
      </trkpt>
      <trkpt lat="44.35033" lon="2.51217">
        <ele>547</ele>
        <time>2013-03-21T16:00:49Z</time>
      </trkpt>
      <trkpt lat="44.35042" lon="2.51223">
        <ele>546</ele>
        <time>2013-03-21T16:00:51Z</time>
      </trkpt>
      <trkpt lat="44.35052" lon="2.5123">
        <ele>546</ele>
        <time>2013-03-21T16:00:53Z</time>
      </trkpt>
      <trkpt lat="44.35061" lon="2.51235">
        <ele>545</ele>
        <time>2013-03-21T16:00:55Z</time>
      </trkpt>
      <trkpt lat="44.3507" lon="2.51242">
        <ele>545</ele>
        <time>2013-03-21T16:00:57Z</time>
      </trkpt>
      <trkpt lat="44.3508" lon="2.51249">
        <ele>545</ele>
        <time>2013-03-21T16:00:59Z</time>
      </trkpt>
      <trkpt lat="44.35105" lon="2.51272">
        <ele>544</ele>
        <time>2013-03-21T16:01:06Z</time>
      </trkpt>
      <trkpt lat="44.35122" lon="2.51296">
        <ele>544</ele>
        <time>2013-03-21T16:01:14Z</time>
      </trkpt>
      <trkpt lat="44.35126" lon="2.5131">
        <ele>545</ele>
        <time>2013-03-21T16:01:17Z</time>
      </trkpt>
      <trkpt lat="44.3513" lon="2.51324">
        <ele>545</ele>
        <time>2013-03-21T16:01:20Z</time>
      </trkpt>
      <trkpt lat="44.35134" lon="2.51337">
        <ele>546</ele>
        <time>2013-03-21T16:01:23Z</time>
      </trkpt>
      <trkpt lat="44.3515" lon="2.51372">
        <ele>546</ele>
        <time>2013-03-21T16:01:32Z</time>
      </trkpt>
      <trkpt lat="44.35169" lon="2.51403">
        <ele>546</ele>
        <time>2013-03-21T16:01:41Z</time>
      </trkpt>
      <trkpt lat="44.35177" lon="2.51406">
        <ele>545</ele>
        <time>2013-03-21T16:01:43Z</time>
      </trkpt>
      <trkpt lat="44.35186" lon="2.51413">
        <ele>546</ele>
        <time>2013-03-21T16:01:45Z</time>
      </trkpt>
      <trkpt lat="44.35193" lon="2.51421">
        <ele>546</ele>
        <time>2013-03-21T16:01:47Z</time>
      </trkpt>
      <trkpt lat="44.352" lon="2.51433">
        <ele>546</ele>
        <time>2013-03-21T16:01:50Z</time>
      </trkpt>
      <trkpt lat="44.35201" lon="2.51447">
        <ele>545</ele>
        <time>2013-03-21T16:01:53Z</time>
      </trkpt>
      <trkpt lat="44.35201" lon="2.51461">
        <ele>545</ele>
        <time>2013-03-21T16:01:56Z</time>
      </trkpt>
      <trkpt lat="44.352" lon="2.51477">
        <ele>546</ele>
        <time>2013-03-21T16:02:00Z</time>
      </trkpt>
      <trkpt lat="44.35193" lon="2.51488">
        <ele>546</ele>
        <time>2013-03-21T16:02:04Z</time>
      </trkpt>
      <trkpt lat="44.35185" lon="2.51495">
        <ele>546</ele>
        <time>2013-03-21T16:02:08Z</time>
      </trkpt>
      <trkpt lat="44.35175" lon="2.51501">
        <ele>546</ele>
        <time>2013-03-21T16:02:12Z</time>
      </trkpt>
      <trkpt lat="44.35165" lon="2.51505">
        <ele>547</ele>
        <time>2013-03-21T16:02:14Z</time>
      </trkpt>
      <trkpt lat="44.35156" lon="2.51515">
        <ele>549</ele>
        <time>2013-03-21T16:02:18Z</time>
      </trkpt>
      <trkpt lat="44.35149" lon="2.51524">
        <ele>551</ele>
        <time>2013-03-21T16:02:20Z</time>
      </trkpt>
      <trkpt lat="44.35139" lon="2.51531">
        <ele>551</ele>
        <time>2013-03-21T16:02:22Z</time>
      </trkpt>
      <trkpt lat="44.35127" lon="2.5154">
        <ele>554</ele>
        <time>2013-03-21T16:02:25Z</time>
      </trkpt>
      <trkpt lat="44.35117" lon="2.51549">
        <ele>555</ele>
        <time>2013-03-21T16:02:28Z</time>
      </trkpt>
      <trkpt lat="44.35108" lon="2.5156">
        <ele>556</ele>
        <time>2013-03-21T16:02:31Z</time>
      </trkpt>
      <trkpt lat="44.35098" lon="2.51565">
        <ele>558</ele>
        <time>2013-03-21T16:02:35Z</time>
      </trkpt>
      <trkpt lat="44.35089" lon="2.51567">
        <ele>559</ele>
        <time>2013-03-21T16:02:39Z</time>
      </trkpt>
      <trkpt lat="44.3508" lon="2.51566">
        <ele>561</ele>
        <time>2013-03-21T16:02:42Z</time>
      </trkpt>
      <trkpt lat="44.35068" lon="2.51567">
        <ele>562</ele>
        <time>2013-03-21T16:02:45Z</time>
      </trkpt>
      <trkpt lat="44.35056" lon="2.51564">
        <ele>563</ele>
        <time>2013-03-21T16:02:48Z</time>
      </trkpt>
      <trkpt lat="44.35044" lon="2.51566">
        <ele>565</ele>
        <time>2013-03-21T16:02:50Z</time>
      </trkpt>
      <trkpt lat="44.35034" lon="2.51575">
        <ele>567</ele>
        <time>2013-03-21T16:02:52Z</time>
      </trkpt>
      <trkpt lat="44.3503" lon="2.51582">
        <ele>570</ele>
        <time>2013-03-21T16:02:54Z</time>
      </trkpt>
      <trkpt lat="44.35027" lon="2.51589">
        <ele>572</ele>
        <time>2013-03-21T16:02:56Z</time>
      </trkpt>
      <trkpt lat="44.35023" lon="2.51594">
        <ele>573</ele>
        <time>2013-03-21T16:02:58Z</time>
      </trkpt>
      <trkpt lat="44.35019" lon="2.516">
        <ele>575</ele>
        <time>2013-03-21T16:03:00Z</time>
      </trkpt>
      <trkpt lat="44.35016" lon="2.51608">
        <ele>576</ele>
        <time>2013-03-21T16:03:02Z</time>
      </trkpt>
      <trkpt lat="44.3501" lon="2.51615">
        <ele>576</ele>
        <time>2013-03-21T16:03:04Z</time>
      </trkpt>
      <trkpt lat="44.35004" lon="2.51621">
        <ele>577</ele>
        <time>2013-03-21T16:03:06Z</time>
      </trkpt>
      <trkpt lat="44.34999" lon="2.51624">
        <ele>577</ele>
        <time>2013-03-21T16:03:08Z</time>
      </trkpt>
      <trkpt lat="44.34992" lon="2.51628">
        <ele>578</ele>
        <time>2013-03-21T16:03:10Z</time>
      </trkpt>
      <trkpt lat="44.34985" lon="2.51632">
        <ele>578</ele>
        <time>2013-03-21T16:03:12Z</time>
      </trkpt>
      <trkpt lat="44.34979" lon="2.51634">
        <ele>579</ele>
        <time>2013-03-21T16:03:14Z</time>
      </trkpt>
      <trkpt lat="44.3497" lon="2.51638">
        <ele>580</ele>
        <time>2013-03-21T16:03:17Z</time>
      </trkpt>
      <trkpt lat="44.3496" lon="2.51645">
        <ele>583</ele>
        <time>2013-03-21T16:03:21Z</time>
      </trkpt>
      <trkpt lat="44.3495" lon="2.51648">
        <ele>584</ele>
        <time>2013-03-21T16:03:24Z</time>
      </trkpt>
      <trkpt lat="44.3494" lon="2.51649">
        <ele>585</ele>
        <time>2013-03-21T16:03:27Z</time>
      </trkpt>
      <trkpt lat="44.34931" lon="2.51649">
        <ele>586</ele>
        <time>2013-03-21T16:03:30Z</time>
      </trkpt>
      <trkpt lat="44.34922" lon="2.51648">
        <ele>586</ele>
        <time>2013-03-21T16:03:33Z</time>
      </trkpt>
      <trkpt lat="44.34912" lon="2.51648">
        <ele>586</ele>
        <time>2013-03-21T16:03:36Z</time>
      </trkpt>
      <trkpt lat="44.34902" lon="2.51645">
        <ele>587</ele>
        <time>2013-03-21T16:03:39Z</time>
      </trkpt>
      <trkpt lat="44.34893" lon="2.51644">
        <ele>588</ele>
        <time>2013-03-21T16:03:42Z</time>
      </trkpt>
      <trkpt lat="44.34883" lon="2.51643">
        <ele>589</ele>
        <time>2013-03-21T16:03:45Z</time>
      </trkpt>
      <trkpt lat="44.34872" lon="2.51639">
        <ele>591</ele>
        <time>2013-03-21T16:03:49Z</time>
      </trkpt>
      <trkpt lat="44.34861" lon="2.5164">
        <ele>591</ele>
        <time>2013-03-21T16:03:52Z</time>
      </trkpt>
      <trkpt lat="44.34849" lon="2.51639">
        <ele>592</ele>
        <time>2013-03-21T16:03:55Z</time>
      </trkpt>
      <trkpt lat="44.34839" lon="2.5164">
        <ele>592</ele>
        <time>2013-03-21T16:03:58Z</time>
      </trkpt>
      <trkpt lat="44.34828" lon="2.5164">
        <ele>593</ele>
        <time>2013-03-21T16:04:01Z</time>
      </trkpt>
      <trkpt lat="44.34817" lon="2.51642">
        <ele>593</ele>
        <time>2013-03-21T16:04:04Z</time>
      </trkpt>
      <trkpt lat="44.34807" lon="2.51641">
        <ele>594</ele>
        <time>2013-03-21T16:04:07Z</time>
      </trkpt>
      <trkpt lat="44.34795" lon="2.51639">
        <ele>594</ele>
        <time>2013-03-21T16:04:10Z</time>
      </trkpt>
      <trkpt lat="44.34784" lon="2.51637">
        <ele>596</ele>
        <time>2013-03-21T16:04:13Z</time>
      </trkpt>
      <trkpt lat="44.34773" lon="2.51637">
        <ele>597</ele>
        <time>2013-03-21T16:04:16Z</time>
      </trkpt>
      <trkpt lat="44.34763" lon="2.51636">
        <ele>598</ele>
        <time>2013-03-21T16:04:19Z</time>
      </trkpt>
      <trkpt lat="44.34751" lon="2.51636">
        <ele>599</ele>
        <time>2013-03-21T16:04:22Z</time>
      </trkpt>
      <trkpt lat="44.34738" lon="2.51633">
        <ele>599</ele>
        <time>2013-03-21T16:04:25Z</time>
      </trkpt>
      <trkpt lat="44.34727" lon="2.51629">
        <ele>598</ele>
        <time>2013-03-21T16:04:28Z</time>
      </trkpt>
      <trkpt lat="44.34716" lon="2.51622">
        <ele>598</ele>
        <time>2013-03-21T16:04:31Z</time>
      </trkpt>
      <trkpt lat="44.34704" lon="2.51623">
        <ele>598</ele>
        <time>2013-03-21T16:04:34Z</time>
      </trkpt>
      <trkpt lat="44.34692" lon="2.51624">
        <ele>597</ele>
        <time>2013-03-21T16:04:37Z</time>
      </trkpt>
      <trkpt lat="44.34682" lon="2.51626">
        <ele>598</ele>
        <time>2013-03-21T16:04:40Z</time>
      </trkpt>
      <trkpt lat="44.34673" lon="2.51625">
        <ele>599</ele>
        <time>2013-03-21T16:04:43Z</time>
      </trkpt>
      <trkpt lat="44.34662" lon="2.51623">
        <ele>600</ele>
        <time>2013-03-21T16:04:46Z</time>
      </trkpt>
      <trkpt lat="44.34653" lon="2.51622">
        <ele>601</ele>
        <time>2013-03-21T16:04:49Z</time>
      </trkpt>
      <trkpt lat="44.34643" lon="2.51622">
        <ele>602</ele>
        <time>2013-03-21T16:04:52Z</time>
      </trkpt>
      <trkpt lat="44.34633" lon="2.51626">
        <ele>601</ele>
        <time>2013-03-21T16:04:55Z</time>
      </trkpt>
      <trkpt lat="44.34624" lon="2.51631">
        <ele>601</ele>
        <time>2013-03-21T16:04:58Z</time>
      </trkpt>
      <trkpt lat="44.34615" lon="2.5164">
        <ele>600</ele>
        <time>2013-03-21T16:05:02Z</time>
      </trkpt>
      <trkpt lat="44.34603" lon="2.51647">
        <ele>598</ele>
        <time>2013-03-21T16:05:06Z</time>
      </trkpt>
      <trkpt lat="44.34592" lon="2.51653">
        <ele>599</ele>
        <time>2013-03-21T16:05:09Z</time>
      </trkpt>
      <trkpt lat="44.34582" lon="2.5166">
        <ele>599</ele>
        <time>2013-03-21T16:05:12Z</time>
      </trkpt>
      <trkpt lat="44.34573" lon="2.51664">
        <ele>599</ele>
        <time>2013-03-21T16:05:15Z</time>
      </trkpt>
      <trkpt lat="44.34563" lon="2.51667">
        <ele>600</ele>
        <time>2013-03-21T16:05:18Z</time>
      </trkpt>
      <trkpt lat="44.34553" lon="2.51663">
        <ele>601</ele>
        <time>2013-03-21T16:05:21Z</time>
      </trkpt>
      <trkpt lat="44.34543" lon="2.51664">
        <ele>601</ele>
        <time>2013-03-21T16:05:25Z</time>
      </trkpt>
      <trkpt lat="44.34536" lon="2.51673">
        <ele>601</ele>
        <time>2013-03-21T16:05:28Z</time>
      </trkpt>
      <trkpt lat="44.34527" lon="2.51684">
        <ele>602</ele>
        <time>2013-03-21T16:05:31Z</time>
      </trkpt>
      <trkpt lat="44.34519" lon="2.51694">
        <ele>603</ele>
        <time>2013-03-21T16:05:34Z</time>
      </trkpt>
      <trkpt lat="44.34512" lon="2.51705">
        <ele>603</ele>
        <time>2013-03-21T16:05:37Z</time>
      </trkpt>
      <trkpt lat="44.34505" lon="2.51716">
        <ele>603</ele>
        <time>2013-03-21T16:05:40Z</time>
      </trkpt>
      <trkpt lat="44.34498" lon="2.51728">
        <ele>602</ele>
        <time>2013-03-21T16:05:43Z</time>
      </trkpt>
      <trkpt lat="44.34491" lon="2.5174">
        <ele>603</ele>
        <time>2013-03-21T16:05:46Z</time>
      </trkpt>
      <trkpt lat="44.34484" lon="2.51753">
        <ele>603</ele>
        <time>2013-03-21T16:05:49Z</time>
      </trkpt>
      <trkpt lat="44.34478" lon="2.51766">
        <ele>603</ele>
        <time>2013-03-21T16:05:53Z</time>
      </trkpt>
      <trkpt lat="44.34471" lon="2.51776">
        <ele>604</ele>
        <time>2013-03-21T16:05:56Z</time>
      </trkpt>
      <trkpt lat="44.34462" lon="2.51786">
        <ele>603</ele>
        <time>2013-03-21T16:05:59Z</time>
      </trkpt>
      <trkpt lat="44.34455" lon="2.51794">
        <ele>603</ele>
        <time>2013-03-21T16:06:02Z</time>
      </trkpt>
      <trkpt lat="44.34446" lon="2.51805">
        <ele>603</ele>
        <time>2013-03-21T16:06:06Z</time>
      </trkpt>
      <trkpt lat="44.34437" lon="2.5181">
        <ele>603</ele>
        <time>2013-03-21T16:06:09Z</time>
      </trkpt>
      <trkpt lat="44.34427" lon="2.51814">
        <ele>604</ele>
        <time>2013-03-21T16:06:12Z</time>
      </trkpt>
      <trkpt lat="44.34418" lon="2.51824">
        <ele>604</ele>
        <time>2013-03-21T16:06:16Z</time>
      </trkpt>
      <trkpt lat="44.34413" lon="2.51836">
        <ele>604</ele>
        <time>2013-03-21T16:06:19Z</time>
      </trkpt>
      <trkpt lat="44.34408" lon="2.51849">
        <ele>604</ele>
        <time>2013-03-21T16:06:22Z</time>
      </trkpt>
      <trkpt lat="44.34409" lon="2.51862">
        <ele>603</ele>
        <time>2013-03-21T16:06:25Z</time>
      </trkpt>
      <trkpt lat="44.34412" lon="2.51878">
        <ele>603</ele>
        <time>2013-03-21T16:06:29Z</time>
      </trkpt>
      <trkpt lat="44.34413" lon="2.51892">
        <ele>603</ele>
        <time>2013-03-21T16:06:32Z</time>
      </trkpt>
      <trkpt lat="44.34414" lon="2.51905">
        <ele>603</ele>
        <time>2013-03-21T16:06:35Z</time>
      </trkpt>
      <trkpt lat="44.34414" lon="2.5192">
        <ele>604</ele>
        <time>2013-03-21T16:06:38Z</time>
      </trkpt>
      <trkpt lat="44.34416" lon="2.51936">
        <ele>605</ele>
        <time>2013-03-21T16:06:41Z</time>
      </trkpt>
      <trkpt lat="44.3442" lon="2.51951">
        <ele>606</ele>
        <time>2013-03-21T16:06:44Z</time>
      </trkpt>
      <trkpt lat="44.34424" lon="2.51967">
        <ele>607</ele>
        <time>2013-03-21T16:06:47Z</time>
      </trkpt>
      <trkpt lat="44.34427" lon="2.51981">
        <ele>608</ele>
        <time>2013-03-21T16:06:50Z</time>
      </trkpt>
      <trkpt lat="44.34429" lon="2.51994">
        <ele>609</ele>
        <time>2013-03-21T16:06:53Z</time>
      </trkpt>
      <trkpt lat="44.34431" lon="2.52009">
        <ele>610</ele>
        <time>2013-03-21T16:06:56Z</time>
      </trkpt>
      <trkpt lat="44.3443" lon="2.52023">
        <ele>610</ele>
        <time>2013-03-21T16:06:59Z</time>
      </trkpt>
      <trkpt lat="44.34424" lon="2.52035">
        <ele>611</ele>
        <time>2013-03-21T16:07:03Z</time>
      </trkpt>
      <trkpt lat="44.34416" lon="2.52042">
        <ele>611</ele>
        <time>2013-03-21T16:07:06Z</time>
      </trkpt>
      <trkpt lat="44.34413" lon="2.52054">
        <ele>611</ele>
        <time>2013-03-21T16:07:09Z</time>
      </trkpt>
      <trkpt lat="44.3441" lon="2.5207">
        <ele>610</ele>
        <time>2013-03-21T16:07:13Z</time>
      </trkpt>
      <trkpt lat="44.34407" lon="2.52083">
        <ele>610</ele>
        <time>2013-03-21T16:07:16Z</time>
      </trkpt>
      <trkpt lat="44.34409" lon="2.52098">
        <ele>610</ele>
        <time>2013-03-21T16:07:20Z</time>
      </trkpt>
      <trkpt lat="44.34411" lon="2.52116">
        <ele>611</ele>
        <time>2013-03-21T16:07:24Z</time>
      </trkpt>
      <trkpt lat="44.34412" lon="2.52129">
        <ele>612</ele>
        <time>2013-03-21T16:07:27Z</time>
      </trkpt>
      <trkpt lat="44.34413" lon="2.52142">
        <ele>614</ele>
        <time>2013-03-21T16:07:30Z</time>
      </trkpt>
      <trkpt lat="44.34415" lon="2.52157">
        <ele>614</ele>
        <time>2013-03-21T16:07:33Z</time>
      </trkpt>
      <trkpt lat="44.34416" lon="2.52172">
        <ele>614</ele>
        <time>2013-03-21T16:07:36Z</time>
      </trkpt>
      <trkpt lat="44.34417" lon="2.52187">
        <ele>614</ele>
        <time>2013-03-21T16:07:39Z</time>
      </trkpt>
      <trkpt lat="44.34418" lon="2.52201">
        <ele>613</ele>
        <time>2013-03-21T16:07:42Z</time>
      </trkpt>
      <trkpt lat="44.34421" lon="2.52214">
        <ele>613</ele>
        <time>2013-03-21T16:07:45Z</time>
      </trkpt>
      <trkpt lat="44.34423" lon="2.5223">
        <ele>612</ele>
        <time>2013-03-21T16:07:48Z</time>
      </trkpt>
      <trkpt lat="44.34425" lon="2.52247">
        <ele>611</ele>
        <time>2013-03-21T16:07:51Z</time>
      </trkpt>
      <trkpt lat="44.34424" lon="2.52261">
        <ele>611</ele>
        <time>2013-03-21T16:07:54Z</time>
      </trkpt>
      <trkpt lat="44.34424" lon="2.52275">
        <ele>610</ele>
        <time>2013-03-21T16:07:57Z</time>
      </trkpt>
      <trkpt lat="44.34422" lon="2.52289">
        <ele>608</ele>
        <time>2013-03-21T16:08:00Z</time>
      </trkpt>
      <trkpt lat="44.34419" lon="2.52305">
        <ele>607</ele>
        <time>2013-03-21T16:08:03Z</time>
      </trkpt>
      <trkpt lat="44.34418" lon="2.52317">
        <ele>606</ele>
        <time>2013-03-21T16:08:06Z</time>
      </trkpt>
      <trkpt lat="44.34416" lon="2.52331">
        <ele>605</ele>
        <time>2013-03-21T16:08:09Z</time>
      </trkpt>
      <trkpt lat="44.34413" lon="2.52344">
        <ele>603</ele>
        <time>2013-03-21T16:08:12Z</time>
      </trkpt>
      <trkpt lat="44.34412" lon="2.5236">
        <ele>602</ele>
        <time>2013-03-21T16:08:16Z</time>
      </trkpt>
      <trkpt lat="44.34412" lon="2.52373">
        <ele>602</ele>
        <time>2013-03-21T16:08:19Z</time>
      </trkpt>
      <trkpt lat="44.3441" lon="2.52389">
        <ele>602</ele>
        <time>2013-03-21T16:08:23Z</time>
      </trkpt>
      <trkpt lat="44.34409" lon="2.52406">
        <ele>602</ele>
        <time>2013-03-21T16:08:27Z</time>
      </trkpt>
      <trkpt lat="44.34406" lon="2.52418">
        <ele>602</ele>
        <time>2013-03-21T16:08:30Z</time>
      </trkpt>
      <trkpt lat="44.34406" lon="2.52432">
        <ele>602</ele>
        <time>2013-03-21T16:08:34Z</time>
      </trkpt>
      <trkpt lat="44.34404" lon="2.52444">
        <ele>601</ele>
        <time>2013-03-21T16:08:41Z</time>
      </trkpt>
      <trkpt lat="44.34403" lon="2.52459">
        <ele>600</ele>
        <time>2013-03-21T16:08:48Z</time>
      </trkpt>
      <trkpt lat="44.344" lon="2.52471">
        <ele>599</ele>
        <time>2013-03-21T16:08:54Z</time>
      </trkpt>
      <trkpt lat="44.34394" lon="2.52481">
        <ele>599</ele>
        <time>2013-03-21T16:08:59Z</time>
      </trkpt>
      <trkpt lat="44.34388" lon="2.52492">
        <ele>599</ele>
        <time>2013-03-21T16:09:03Z</time>
      </trkpt>
      <trkpt lat="44.34382" lon="2.52503">
        <ele>600</ele>
        <time>2013-03-21T16:09:06Z</time>
      </trkpt>
      <trkpt lat="44.34376" lon="2.52515">
        <ele>601</ele>
        <time>2013-03-21T16:09:09Z</time>
      </trkpt>
      <trkpt lat="44.34371" lon="2.5253">
        <ele>603</ele>
        <time>2013-03-21T16:09:12Z</time>
      </trkpt>
      <trkpt lat="44.34366" lon="2.52546">
        <ele>604</ele>
        <time>2013-03-21T16:09:15Z</time>
      </trkpt>
      <trkpt lat="44.34359" lon="2.52558">
        <ele>605</ele>
        <time>2013-03-21T16:09:18Z</time>
      </trkpt>
      <trkpt lat="44.34355" lon="2.52569">
        <ele>605</ele>
        <time>2013-03-21T16:09:21Z</time>
      </trkpt>
      <trkpt lat="44.3435" lon="2.52582">
        <ele>606</ele>
        <time>2013-03-21T16:09:24Z</time>
      </trkpt>
      <trkpt lat="44.34347" lon="2.52594">
        <ele>606</ele>
        <time>2013-03-21T16:09:27Z</time>
      </trkpt>
      <trkpt lat="44.34344" lon="2.52609">
        <ele>606</ele>
        <time>2013-03-21T16:09:31Z</time>
      </trkpt>
      <trkpt lat="44.34343" lon="2.52624">
        <ele>606</ele>
        <time>2013-03-21T16:09:35Z</time>
      </trkpt>
      <trkpt lat="44.34342" lon="2.52637">
        <ele>607</ele>
        <time>2013-03-21T16:09:38Z</time>
      </trkpt>
      <trkpt lat="44.34338" lon="2.5265">
        <ele>606</ele>
        <time>2013-03-21T16:09:41Z</time>
      </trkpt>
      <trkpt lat="44.34337" lon="2.52664">
        <ele>607</ele>
        <time>2013-03-21T16:09:44Z</time>
      </trkpt>
      <trkpt lat="44.34335" lon="2.5268">
        <ele>606</ele>
        <time>2013-03-21T16:09:47Z</time>
      </trkpt>
      <trkpt lat="44.34335" lon="2.52696">
        <ele>606</ele>
        <time>2013-03-21T16:09:50Z</time>
      </trkpt>
      <trkpt lat="44.34331" lon="2.52708">
        <ele>606</ele>
        <time>2013-03-21T16:09:53Z</time>
      </trkpt>
      <trkpt lat="44.34329" lon="2.52723">
        <ele>607</ele>
        <time>2013-03-21T16:09:57Z</time>
      </trkpt>
      <trkpt lat="44.34325" lon="2.52735">
        <ele>607</ele>
        <time>2013-03-21T16:10:00Z</time>
      </trkpt>
      <trkpt lat="44.34322" lon="2.52748">
        <ele>607</ele>
        <time>2013-03-21T16:10:03Z</time>
      </trkpt>
      <trkpt lat="44.34319" lon="2.52761">
        <ele>606</ele>
        <time>2013-03-21T16:10:06Z</time>
      </trkpt>
      <trkpt lat="44.34314" lon="2.52778">
        <ele>605</ele>
        <time>2013-03-21T16:10:10Z</time>
      </trkpt>
      <trkpt lat="44.3431" lon="2.52791">
        <ele>606</ele>
        <time>2013-03-21T16:10:13Z</time>
      </trkpt>
      <trkpt lat="44.34306" lon="2.52803">
        <ele>606</ele>
        <time>2013-03-21T16:10:16Z</time>
      </trkpt>
      <trkpt lat="44.34302" lon="2.52817">
        <ele>606</ele>
        <time>2013-03-21T16:10:19Z</time>
      </trkpt>
      <trkpt lat="44.34296" lon="2.52828">
        <ele>607</ele>
        <time>2013-03-21T16:10:22Z</time>
      </trkpt>
      <trkpt lat="44.34285" lon="2.52834">
        <ele>608</ele>
        <time>2013-03-21T16:10:26Z</time>
      </trkpt>
      <trkpt lat="44.34276" lon="2.5284">
        <ele>608</ele>
        <time>2013-03-21T16:10:29Z</time>
      </trkpt>
      <trkpt lat="44.34266" lon="2.52848">
        <ele>608</ele>
        <time>2013-03-21T16:10:32Z</time>
      </trkpt>
      <trkpt lat="44.34258" lon="2.52859">
        <ele>607</ele>
        <time>2013-03-21T16:10:35Z</time>
      </trkpt>
      <trkpt lat="44.34248" lon="2.52869">
        <ele>606</ele>
        <time>2013-03-21T16:10:38Z</time>
      </trkpt>
      <trkpt lat="44.3424" lon="2.52878">
        <ele>606</ele>
        <time>2013-03-21T16:10:41Z</time>
      </trkpt>
      <trkpt lat="44.34232" lon="2.52889">
        <ele>606</ele>
        <time>2013-03-21T16:10:45Z</time>
      </trkpt>
      <trkpt lat="44.34224" lon="2.52899">
        <ele>606</ele>
        <time>2013-03-21T16:10:49Z</time>
      </trkpt>
      <trkpt lat="44.34216" lon="2.52908">
        <ele>605</ele>
        <time>2013-03-21T16:10:52Z</time>
      </trkpt>
      <trkpt lat="44.34209" lon="2.52919">
        <ele>605</ele>
        <time>2013-03-21T16:10:55Z</time>
      </trkpt>
      <trkpt lat="44.34203" lon="2.52931">
        <ele>606</ele>
        <time>2013-03-21T16:10:59Z</time>
      </trkpt>
      <trkpt lat="44.34198" lon="2.52946">
        <ele>607</ele>
        <time>2013-03-21T16:11:03Z</time>
      </trkpt>
      <trkpt lat="44.34191" lon="2.52959">
        <ele>607</ele>
        <time>2013-03-21T16:11:06Z</time>
      </trkpt>
      <trkpt lat="44.34187" lon="2.52972">
        <ele>607</ele>
        <time>2013-03-21T16:11:10Z</time>
      </trkpt>
      <trkpt lat="44.34178" lon="2.52979">
        <ele>607</ele>
        <time>2013-03-21T16:11:15Z</time>
      </trkpt>
      <trkpt lat="44.3417" lon="2.5297">
        <ele>605</ele>
        <time>2013-03-21T16:11:21Z</time>
      </trkpt>
      <trkpt lat="44.34165" lon="2.52958">
        <ele>604</ele>
        <time>2013-03-21T16:11:26Z</time>
      </trkpt>
      <trkpt lat="44.34155" lon="2.5295">
        <ele>602</ele>
        <time>2013-03-21T16:11:33Z</time>
      </trkpt>
      <trkpt lat="44.34145" lon="2.52948">
        <ele>600</ele>
        <time>2013-03-21T16:11:40Z</time>
      </trkpt>
      <trkpt lat="44.34136" lon="2.52952">
        <ele>601</ele>
        <time>2013-03-21T16:11:46Z</time>
      </trkpt>
      <trkpt lat="44.34127" lon="2.5296">
        <ele>602</ele>
        <time>2013-03-21T16:11:52Z</time>
      </trkpt>
      <trkpt lat="44.34118" lon="2.52965">
        <ele>601</ele>
        <time>2013-03-21T16:11:58Z</time>
      </trkpt>
      <trkpt lat="44.34108" lon="2.52969">
        <ele>599</ele>
        <time>2013-03-21T16:12:04Z</time>
      </trkpt>
      <trkpt lat="44.34098" lon="2.52971">
        <ele>598</ele>
        <time>2013-03-21T16:12:11Z</time>
      </trkpt>
      <trkpt lat="44.34088" lon="2.52972">
        <ele>596</ele>
        <time>2013-03-21T16:12:17Z</time>
      </trkpt>
      <trkpt lat="44.34079" lon="2.52971">
        <ele>595</ele>
        <time>2013-03-21T16:12:24Z</time>
      </trkpt>
      <trkpt lat="44.3407" lon="2.52966">
        <ele>594</ele>
        <time>2013-03-21T16:12:30Z</time>
      </trkpt>
      <trkpt lat="44.34064" lon="2.52967">
        <ele>592</ele>
        <time>2013-03-21T16:12:55Z</time>
      </trkpt>
      <trkpt lat="44.34055" lon="2.5296">
        <ele>593</ele>
        <time>2013-03-21T16:13:21Z</time>
      </trkpt>
      <trkpt lat="44.34046" lon="2.52961">
        <ele>593</ele>
        <time>2013-03-21T16:13:24Z</time>
      </trkpt>
      <trkpt lat="44.34036" lon="2.52966">
        <ele>593</ele>
        <time>2013-03-21T16:13:27Z</time>
      </trkpt>
      <trkpt lat="44.34027" lon="2.52972">
        <ele>593</ele>
        <time>2013-03-21T16:13:30Z</time>
      </trkpt>
      <trkpt lat="44.34018" lon="2.52979">
        <ele>592</ele>
        <time>2013-03-21T16:13:33Z</time>
      </trkpt>
      <trkpt lat="44.34009" lon="2.52986">
        <ele>592</ele>
        <time>2013-03-21T16:13:36Z</time>
      </trkpt>
      <trkpt lat="44.34001" lon="2.52994">
        <ele>591</ele>
        <time>2013-03-21T16:13:39Z</time>
      </trkpt>
      <trkpt lat="44.33993" lon="2.53002">
        <ele>590</ele>
        <time>2013-03-21T16:13:42Z</time>
      </trkpt>
      <trkpt lat="44.33985" lon="2.53011">
        <ele>589</ele>
        <time>2013-03-21T16:13:45Z</time>
      </trkpt>
      <trkpt lat="44.33975" lon="2.5302">
        <ele>588</ele>
        <time>2013-03-21T16:13:49Z</time>
      </trkpt>
      <trkpt lat="44.33967" lon="2.53027">
        <ele>588</ele>
        <time>2013-03-21T16:13:52Z</time>
      </trkpt>
      <trkpt lat="44.33957" lon="2.53034">
        <ele>587</ele>
        <time>2013-03-21T16:13:55Z</time>
      </trkpt>
      <trkpt lat="44.33949" lon="2.53042">
        <ele>585</ele>
        <time>2013-03-21T16:13:58Z</time>
      </trkpt>
      <trkpt lat="44.33939" lon="2.53052">
        <ele>583</ele>
        <time>2013-03-21T16:14:02Z</time>
      </trkpt>
      <trkpt lat="44.33931" lon="2.53059">
        <ele>581</ele>
        <time>2013-03-21T16:14:05Z</time>
      </trkpt>
      <trkpt lat="44.33921" lon="2.53059">
        <ele>578</ele>
        <time>2013-03-21T16:14:10Z</time>
      </trkpt>
      <trkpt lat="44.33926" lon="2.53046">
        <ele>575</ele>
        <time>2013-03-21T16:14:14Z</time>
      </trkpt>
      <trkpt lat="44.33933" lon="2.53037">
        <ele>574</ele>
        <time>2013-03-21T16:14:16Z</time>
      </trkpt>
      <trkpt lat="44.3394" lon="2.53023">
        <ele>574</ele>
        <time>2013-03-21T16:14:19Z</time>
      </trkpt>
      <trkpt lat="44.33944" lon="2.53012">
        <ele>573</ele>
        <time>2013-03-21T16:14:21Z</time>
      </trkpt>
      <trkpt lat="44.33949" lon="2.53001">
        <ele>573</ele>
        <time>2013-03-21T16:14:23Z</time>
      </trkpt>
      <trkpt lat="44.33955" lon="2.52991">
        <ele>572</ele>
        <time>2013-03-21T16:14:25Z</time>
      </trkpt>
      <trkpt lat="44.33961" lon="2.52979">
        <ele>572</ele>
        <time>2013-03-21T16:14:27Z</time>
      </trkpt>
      <trkpt lat="44.33965" lon="2.52967">
        <ele>572</ele>
        <time>2013-03-21T16:14:29Z</time>
      </trkpt>
      <trkpt lat="44.33971" lon="2.52955">
        <ele>572</ele>
        <time>2013-03-21T16:14:32Z</time>
      </trkpt>
      <trkpt lat="44.33978" lon="2.52942">
        <ele>572</ele>
        <time>2013-03-21T16:14:35Z</time>
      </trkpt>
      <trkpt lat="44.33984" lon="2.52928">
        <ele>571</ele>
        <time>2013-03-21T16:14:38Z</time>
      </trkpt>
      <trkpt lat="44.3399" lon="2.52912">
        <ele>570</ele>
        <time>2013-03-21T16:14:41Z</time>
      </trkpt>
      <trkpt lat="44.33994" lon="2.52899">
        <ele>569</ele>
        <time>2013-03-21T16:14:44Z</time>
      </trkpt>
      <trkpt lat="44.3399" lon="2.52885">
        <ele>568</ele>
        <time>2013-03-21T16:14:48Z</time>
      </trkpt>
      <trkpt lat="44.33983" lon="2.52893">
        <ele>567</ele>
        <time>2013-03-21T16:14:52Z</time>
      </trkpt>
      <trkpt lat="44.33975" lon="2.52904">
        <ele>566</ele>
        <time>2013-03-21T16:14:55Z</time>
      </trkpt>
      <trkpt lat="44.33966" lon="2.52915">
        <ele>565</ele>
        <time>2013-03-21T16:14:58Z</time>
      </trkpt>
      <trkpt lat="44.33958" lon="2.52926">
        <ele>563</ele>
        <time>2013-03-21T16:15:01Z</time>
      </trkpt>
      <trkpt lat="44.3395" lon="2.52936">
        <ele>562</ele>
        <time>2013-03-21T16:15:04Z</time>
      </trkpt>
      <trkpt lat="44.3394" lon="2.52943">
        <ele>559</ele>
        <time>2013-03-21T16:15:08Z</time>
      </trkpt>
      <trkpt lat="44.33934" lon="2.52932">
        <ele>558</ele>
        <time>2013-03-21T16:15:14Z</time>
      </trkpt>
      <trkpt lat="44.33938" lon="2.52917">
        <ele>557</ele>
        <time>2013-03-21T16:15:17Z</time>
      </trkpt>
      <trkpt lat="44.33943" lon="2.52904">
        <ele>556</ele>
        <time>2013-03-21T16:15:19Z</time>
      </trkpt>
      <trkpt lat="44.33948" lon="2.52887">
        <ele>555</ele>
        <time>2013-03-21T16:15:22Z</time>
      </trkpt>
      <trkpt lat="44.33954" lon="2.52873">
        <ele>555</ele>
        <time>2013-03-21T16:15:25Z</time>
      </trkpt>
      <trkpt lat="44.33961" lon="2.52862">
        <ele>554</ele>
        <time>2013-03-21T16:15:28Z</time>
      </trkpt>
      <trkpt lat="44.33969" lon="2.52852">
        <ele>554</ele>
        <time>2013-03-21T16:15:31Z</time>
      </trkpt>
      <trkpt lat="44.33979" lon="2.5284">
        <ele>552</ele>
        <time>2013-03-21T16:15:34Z</time>
      </trkpt>
      <trkpt lat="44.33987" lon="2.52833">
        <ele>551</ele>
        <time>2013-03-21T16:15:36Z</time>
      </trkpt>
      <trkpt lat="44.33997" lon="2.52821">
        <ele>551</ele>
        <time>2013-03-21T16:15:39Z</time>
      </trkpt>
      <trkpt lat="44.34007" lon="2.52808">
        <ele>551</ele>
        <time>2013-03-21T16:15:42Z</time>
      </trkpt>
      <trkpt lat="44.34016" lon="2.52799">
        <ele>551</ele>
        <time>2013-03-21T16:15:45Z</time>
      </trkpt>
      <trkpt lat="44.34023" lon="2.52788">
        <ele>550</ele>
        <time>2013-03-21T16:15:48Z</time>
      </trkpt>
      <trkpt lat="44.34029" lon="2.52777">
        <ele>549</ele>
        <time>2013-03-21T16:15:51Z</time>
      </trkpt>
      <trkpt lat="44.34036" lon="2.52766">
        <ele>548</ele>
        <time>2013-03-21T16:15:54Z</time>
      </trkpt>
      <trkpt lat="44.34043" lon="2.52758">
        <ele>547</ele>
        <time>2013-03-21T16:15:57Z</time>
      </trkpt>
      <trkpt lat="44.3405" lon="2.52746">
        <ele>545</ele>
        <time>2013-03-21T16:16:01Z</time>
      </trkpt>
      <trkpt lat="44.3406" lon="2.52733">
        <ele>544</ele>
        <time>2013-03-21T16:16:04Z</time>
      </trkpt>
      <trkpt lat="44.34067" lon="2.52719">
        <ele>542</ele>
        <time>2013-03-21T16:16:07Z</time>
      </trkpt>
      <trkpt lat="44.34072" lon="2.52705">
        <ele>542</ele>
        <time>2013-03-21T16:16:10Z</time>
      </trkpt>
      <trkpt lat="44.34076" lon="2.52693">
        <ele>541</ele>
        <time>2013-03-21T16:16:12Z</time>
      </trkpt>
      <trkpt lat="44.34084" lon="2.52678">
        <ele>539</ele>
        <time>2013-03-21T16:16:15Z</time>
      </trkpt>
      <trkpt lat="44.34089" lon="2.52666">
        <ele>538</ele>
        <time>2013-03-21T16:16:18Z</time>
      </trkpt>
      <trkpt lat="44.34095" lon="2.52655">
        <ele>537</ele>
        <time>2013-03-21T16:16:21Z</time>
      </trkpt>
      <trkpt lat="44.34101" lon="2.52644">
        <ele>537</ele>
        <time>2013-03-21T16:16:24Z</time>
      </trkpt>
      <trkpt lat="44.34109" lon="2.52632">
        <ele>536</ele>
        <time>2013-03-21T16:16:28Z</time>
      </trkpt>
      <trkpt lat="44.34118" lon="2.5262">
        <ele>536</ele>
        <time>2013-03-21T16:16:32Z</time>
      </trkpt>
      <trkpt lat="44.34125" lon="2.52611">
        <ele>536</ele>
        <time>2013-03-21T16:16:35Z</time>
      </trkpt>
      <trkpt lat="44.34129" lon="2.52599">
        <ele>536</ele>
        <time>2013-03-21T16:16:38Z</time>
      </trkpt>
      <trkpt lat="44.3413" lon="2.52584">
        <ele>537</ele>
        <time>2013-03-21T16:16:41Z</time>
      </trkpt>
      <trkpt lat="44.3413" lon="2.52571">
        <ele>537</ele>
        <time>2013-03-21T16:16:44Z</time>
      </trkpt>
      <trkpt lat="44.34132" lon="2.52556">
        <ele>538</ele>
        <time>2013-03-21T16:16:47Z</time>
      </trkpt>
      <trkpt lat="44.34135" lon="2.5254">
        <ele>538</ele>
        <time>2013-03-21T16:16:50Z</time>
      </trkpt>
      <trkpt lat="44.34139" lon="2.52526">
        <ele>537</ele>
        <time>2013-03-21T16:16:52Z</time>
      </trkpt>
      <trkpt lat="44.34144" lon="2.52509">
        <ele>534</ele>
        <time>2013-03-21T16:16:55Z</time>
      </trkpt>
      <trkpt lat="44.34149" lon="2.52493">
        <ele>532</ele>
        <time>2013-03-21T16:16:58Z</time>
      </trkpt>
      <trkpt lat="44.34156" lon="2.52479">
        <ele>530</ele>
        <time>2013-03-21T16:17:01Z</time>
      </trkpt>
      <trkpt lat="44.34158" lon="2.52467">
        <ele>527</ele>
        <time>2013-03-21T16:17:05Z</time>
      </trkpt>
      <trkpt lat="44.34164" lon="2.52456">
        <ele>526</ele>
        <time>2013-03-21T16:17:08Z</time>
      </trkpt>
      <trkpt lat="44.34171" lon="2.52446">
        <ele>524</ele>
        <time>2013-03-21T16:17:11Z</time>
      </trkpt>
      <trkpt lat="44.34179" lon="2.52433">
        <ele>521</ele>
        <time>2013-03-21T16:17:14Z</time>
      </trkpt>
      <trkpt lat="44.34186" lon="2.52418">
        <ele>519</ele>
        <time>2013-03-21T16:17:17Z</time>
      </trkpt>
      <trkpt lat="44.34194" lon="2.52405">
        <ele>517</ele>
        <time>2013-03-21T16:17:20Z</time>
      </trkpt>
      <trkpt lat="44.34199" lon="2.52393">
        <ele>516</ele>
        <time>2013-03-21T16:17:23Z</time>
      </trkpt>
      <trkpt lat="44.34205" lon="2.52383">
        <ele>514</ele>
        <time>2013-03-21T16:17:26Z</time>
      </trkpt>
      <trkpt lat="44.34209" lon="2.52371">
        <ele>514</ele>
        <time>2013-03-21T16:17:29Z</time>
      </trkpt>
      <trkpt lat="44.34211" lon="2.52356">
        <ele>513</ele>
        <time>2013-03-21T16:17:32Z</time>
      </trkpt>
      <trkpt lat="44.34213" lon="2.52341">
        <ele>511</ele>
        <time>2013-03-21T16:17:35Z</time>
      </trkpt>
      <trkpt lat="44.34214" lon="2.52325">
        <ele>511</ele>
        <time>2013-03-21T16:17:38Z</time>
      </trkpt>
      <trkpt lat="44.34212" lon="2.5231">
        <ele>512</ele>
        <time>2013-03-21T16:17:41Z</time>
      </trkpt>
      <trkpt lat="44.34211" lon="2.52296">
        <ele>513</ele>
        <time>2013-03-21T16:17:44Z</time>
      </trkpt>
      <trkpt lat="44.34209" lon="2.52284">
        <ele>514</ele>
        <time>2013-03-21T16:17:47Z</time>
      </trkpt>
      <trkpt lat="44.34209" lon="2.52271">
        <ele>515</ele>
        <time>2013-03-21T16:17:50Z</time>
      </trkpt>
      <trkpt lat="44.34206" lon="2.52255">
        <ele>517</ele>
        <time>2013-03-21T16:17:53Z</time>
      </trkpt>
      <trkpt lat="44.342" lon="2.5224">
        <ele>517</ele>
        <time>2013-03-21T16:17:56Z</time>
      </trkpt>
      <trkpt lat="44.34196" lon="2.52229">
        <ele>517</ele>
        <time>2013-03-21T16:17:59Z</time>
      </trkpt>
      <trkpt lat="44.34191" lon="2.52216">
        <ele>517</ele>
        <time>2013-03-21T16:18:02Z</time>
      </trkpt>
      <trkpt lat="44.34187" lon="2.52203">
        <ele>516</ele>
        <time>2013-03-21T16:18:05Z</time>
      </trkpt>
      <trkpt lat="44.34179" lon="2.52194">
        <ele>515</ele>
        <time>2013-03-21T16:18:09Z</time>
      </trkpt>
      <trkpt lat="44.34171" lon="2.52183">
        <ele>514</ele>
        <time>2013-03-21T16:18:11Z</time>
      </trkpt>
      <trkpt lat="44.34164" lon="2.52176">
        <ele>513</ele>
        <time>2013-03-21T16:18:14Z</time>
      </trkpt>
      <trkpt lat="44.34156" lon="2.52169">
        <ele>510</ele>
        <time>2013-03-21T16:18:17Z</time>
      </trkpt>
      <trkpt lat="44.34146" lon="2.5216">
        <ele>508</ele>
        <time>2013-03-21T16:18:21Z</time>
      </trkpt>
      <trkpt lat="44.34137" lon="2.52152">
        <ele>506</ele>
        <time>2013-03-21T16:18:25Z</time>
      </trkpt>
      <trkpt lat="44.34129" lon="2.52145">
        <ele>504</ele>
        <time>2013-03-21T16:18:29Z</time>
      </trkpt>
      <trkpt lat="44.34121" lon="2.52138">
        <ele>502</ele>
        <time>2013-03-21T16:18:33Z</time>
      </trkpt>
      <trkpt lat="44.34113" lon="2.52131">
        <ele>503</ele>
        <time>2013-03-21T16:18:37Z</time>
      </trkpt>
      <trkpt lat="44.341" lon="2.52134">
        <ele>505</ele>
        <time>2013-03-21T16:18:41Z</time>
      </trkpt>
      <trkpt lat="44.3409" lon="2.52136">
        <ele>507</ele>
        <time>2013-03-21T16:18:44Z</time>
      </trkpt>
      <trkpt lat="44.3408" lon="2.52135">
        <ele>508</ele>
        <time>2013-03-21T16:18:47Z</time>
      </trkpt>
      <trkpt lat="44.34067" lon="2.52138">
        <ele>509</ele>
        <time>2013-03-21T16:18:51Z</time>
      </trkpt>
      <trkpt lat="44.34059" lon="2.52146">
        <ele>509</ele>
        <time>2013-03-21T16:18:54Z</time>
      </trkpt>
      <trkpt lat="44.34056" lon="2.52158">
        <ele>507</ele>
        <time>2013-03-21T16:18:57Z</time>
      </trkpt>
      <trkpt lat="44.34054" lon="2.52171">
        <ele>506</ele>
        <time>2013-03-21T16:19:00Z</time>
      </trkpt>
      <trkpt lat="44.3405" lon="2.52186">
        <ele>504</ele>
        <time>2013-03-21T16:19:04Z</time>
      </trkpt>
      <trkpt lat="44.34049" lon="2.52202">
        <ele>503</ele>
        <time>2013-03-21T16:19:08Z</time>
      </trkpt>
      <trkpt lat="44.34052" lon="2.52216">
        <ele>502</ele>
        <time>2013-03-21T16:19:11Z</time>
      </trkpt>
      <trkpt lat="44.34056" lon="2.52231">
        <ele>501</ele>
        <time>2013-03-21T16:19:15Z</time>
      </trkpt>
      <trkpt lat="44.3406" lon="2.52242">
        <ele>501</ele>
        <time>2013-03-21T16:19:18Z</time>
      </trkpt>
      <trkpt lat="44.34063" lon="2.52255">
        <ele>500</ele>
        <time>2013-03-21T16:19:22Z</time>
      </trkpt>
      <trkpt lat="44.34056" lon="2.52265">
        <ele>500</ele>
        <time>2013-03-21T16:19:34Z</time>
      </trkpt>
      <trkpt lat="44.34047" lon="2.52268">
        <ele>500</ele>
        <time>2013-03-21T16:19:43Z</time>
      </trkpt>
      <trkpt lat="44.34037" lon="2.52268">
        <ele>499</ele>
        <time>2013-03-21T16:19:50Z</time>
      </trkpt>
      <trkpt lat="44.34027" lon="2.52273">
        <ele>501</ele>
        <time>2013-03-21T16:19:56Z</time>
      </trkpt>
      <trkpt lat="44.34018" lon="2.52279">
        <ele>503</ele>
        <time>2013-03-21T16:20:02Z</time>
      </trkpt>
      <trkpt lat="44.34009" lon="2.52284">
        <ele>507</ele>
        <time>2013-03-21T16:20:09Z</time>
      </trkpt>
      <trkpt lat="44.34" lon="2.52289">
        <ele>510</ele>
        <time>2013-03-21T16:20:17Z</time>
      </trkpt>
      <trkpt lat="44.33991" lon="2.52291">
        <ele>512</ele>
        <time>2013-03-21T16:20:25Z</time>
      </trkpt>
      <trkpt lat="44.33982" lon="2.52294">
        <ele>512</ele>
        <time>2013-03-21T16:20:33Z</time>
      </trkpt>
      <trkpt lat="44.33973" lon="2.523">
        <ele>513</ele>
        <time>2013-03-21T16:20:41Z</time>
      </trkpt>
      <trkpt lat="44.33964" lon="2.52305">
        <ele>513</ele>
        <time>2013-03-21T16:20:47Z</time>
      </trkpt>
      <trkpt lat="44.33957" lon="2.5231">
        <ele>512</ele>
        <time>2013-03-21T16:20:54Z</time>
      </trkpt>
      <trkpt lat="44.33946" lon="2.52315">
        <ele>510</ele>
        <time>2013-03-21T16:21:02Z</time>
      </trkpt>
      <trkpt lat="44.33936" lon="2.52319">
        <ele>508</ele>
        <time>2013-03-21T16:21:13Z</time>
      </trkpt>
      <trkpt lat="44.33927" lon="2.52324">
        <ele>510</ele>
        <time>2013-03-21T16:21:20Z</time>
      </trkpt>
      <trkpt lat="44.33922" lon="2.52327">
        <ele>512</ele>
        <time>2013-03-21T16:21:24Z</time>
      </trkpt>
      <trkpt lat="44.33917" lon="2.52328">
        <ele>514</ele>
        <time>2013-03-21T16:21:27Z</time>
      </trkpt>
      <trkpt lat="44.33907" lon="2.5233">
        <ele>515</ele>
        <time>2013-03-21T16:21:33Z</time>
      </trkpt>
      <trkpt lat="44.339" lon="2.52333">
        <ele>517</ele>
        <time>2013-03-21T16:21:38Z</time>
      </trkpt>
      <trkpt lat="44.33891" lon="2.52337">
        <ele>518</ele>
        <time>2013-03-21T16:21:45Z</time>
      </trkpt>
      <trkpt lat="44.33882" lon="2.52341">
        <ele>517</ele>
        <time>2013-03-21T16:21:51Z</time>
      </trkpt>
      <trkpt lat="44.33873" lon="2.52347">
        <ele>516</ele>
        <time>2013-03-21T16:21:57Z</time>
      </trkpt>
      <trkpt lat="44.33869" lon="2.52351">
        <ele>517</ele>
        <time>2013-03-21T16:22:00Z</time>
      </trkpt>
      <trkpt lat="44.33862" lon="2.52362">
        <ele>517</ele>
        <time>2013-03-21T16:22:08Z</time>
      </trkpt>
      <trkpt lat="44.33855" lon="2.52371">
        <ele>515</ele>
        <time>2013-03-21T16:22:15Z</time>
      </trkpt>
      <trkpt lat="44.33844" lon="2.52374">
        <ele>516</ele>
        <time>2013-03-21T16:22:22Z</time>
      </trkpt>
      <trkpt lat="44.33835" lon="2.52374">
        <ele>515</ele>
        <time>2013-03-21T16:22:29Z</time>
      </trkpt>
      <trkpt lat="44.33825" lon="2.52371">
        <ele>523</ele>
        <time>2013-03-21T16:22:52Z</time>
      </trkpt>
      <trkpt lat="44.33814" lon="2.52371">
        <ele>525</ele>
        <time>2013-03-21T16:22:58Z</time>
      </trkpt>
      <trkpt lat="44.33804" lon="2.52372">
        <ele>526</ele>
        <time>2013-03-21T16:23:04Z</time>
      </trkpt>
      <trkpt lat="44.33794" lon="2.52369">
        <ele>526</ele>
        <time>2013-03-21T16:23:11Z</time>
      </trkpt>
      <trkpt lat="44.33784" lon="2.52367">
        <ele>527</ele>
        <time>2013-03-21T16:23:17Z</time>
      </trkpt>
      <trkpt lat="44.33774" lon="2.52366">
        <ele>529</ele>
        <time>2013-03-21T16:23:23Z</time>
      </trkpt>
      <trkpt lat="44.33764" lon="2.52363">
        <ele>531</ele>
        <time>2013-03-21T16:23:30Z</time>
      </trkpt>
      <trkpt lat="44.33754" lon="2.52361">
        <ele>532</ele>
        <time>2013-03-21T16:23:38Z</time>
      </trkpt>
      <trkpt lat="44.33745" lon="2.52359">
        <ele>532</ele>
        <time>2013-03-21T16:23:45Z</time>
      </trkpt>
      <trkpt lat="44.3374" lon="2.52357">
        <ele>532</ele>
        <time>2013-03-21T16:23:49Z</time>
      </trkpt>
      <trkpt lat="44.33731" lon="2.52356">
        <ele>530</ele>
        <time>2013-03-21T16:23:56Z</time>
      </trkpt>
      <trkpt lat="44.33726" lon="2.52357">
        <ele>529</ele>
        <time>2013-03-21T16:24:00Z</time>
      </trkpt>
      <trkpt lat="44.33718" lon="2.52356">
        <ele>528</ele>
        <time>2013-03-21T16:24:06Z</time>
      </trkpt>
      <trkpt lat="44.33708" lon="2.52356">
        <ele>528</ele>
        <time>2013-03-21T16:24:13Z</time>
      </trkpt>
      <trkpt lat="44.33698" lon="2.52356">
        <ele>528</ele>
        <time>2013-03-21T16:24:19Z</time>
      </trkpt>
      <trkpt lat="44.33689" lon="2.52353">
        <ele>530</ele>
        <time>2013-03-21T16:24:25Z</time>
      </trkpt>
      <trkpt lat="44.33684" lon="2.52352">
        <ele>530</ele>
        <time>2013-03-21T16:24:28Z</time>
      </trkpt>
      <trkpt lat="44.33674" lon="2.5235">
        <ele>531</ele>
        <time>2013-03-21T16:24:34Z</time>
      </trkpt>
      <trkpt lat="44.33666" lon="2.52349">
        <ele>532</ele>
        <time>2013-03-21T16:24:39Z</time>
      </trkpt>
      <trkpt lat="44.33656" lon="2.52348">
        <ele>533</ele>
        <time>2013-03-21T16:24:45Z</time>
      </trkpt>
      <trkpt lat="44.33647" lon="2.52347">
        <ele>535</ele>
        <time>2013-03-21T16:24:52Z</time>
      </trkpt>
      <trkpt lat="44.33638" lon="2.52345">
        <ele>536</ele>
        <time>2013-03-21T16:25:00Z</time>
      </trkpt>
      <trkpt lat="44.33629" lon="2.52346">
        <ele>537</ele>
        <time>2013-03-21T16:25:07Z</time>
      </trkpt>
      <trkpt lat="44.33616" lon="2.52345">
        <ele>539</ele>
        <time>2013-03-21T16:25:25Z</time>
      </trkpt>
      <trkpt lat="44.33608" lon="2.52341">
        <ele>539</ele>
        <time>2013-03-21T16:25:29Z</time>
      </trkpt>
      <trkpt lat="44.33598" lon="2.52336">
        <ele>538</ele>
        <time>2013-03-21T16:25:35Z</time>
      </trkpt>
      <trkpt lat="44.33588" lon="2.52333">
        <ele>540</ele>
        <time>2013-03-21T16:25:42Z</time>
      </trkpt>
      <trkpt lat="44.3358" lon="2.52329">
        <ele>543</ele>
        <time>2013-03-21T16:25:48Z</time>
      </trkpt>
      <trkpt lat="44.3357" lon="2.52323">
        <ele>544</ele>
        <time>2013-03-21T16:25:56Z</time>
      </trkpt>
      <trkpt lat="44.33561" lon="2.52315">
        <ele>546</ele>
        <time>2013-03-21T16:26:04Z</time>
      </trkpt>
      <trkpt lat="44.33552" lon="2.52305">
        <ele>547</ele>
        <time>2013-03-21T16:26:12Z</time>
      </trkpt>
      <trkpt lat="44.33544" lon="2.52295">
        <ele>549</ele>
        <time>2013-03-21T16:26:22Z</time>
      </trkpt>
      <trkpt lat="44.33538" lon="2.52286">
        <ele>551</ele>
        <time>2013-03-21T16:26:29Z</time>
      </trkpt>
      <trkpt lat="44.33532" lon="2.52276">
        <ele>554</ele>
        <time>2013-03-21T16:26:35Z</time>
      </trkpt>
      <trkpt lat="44.33525" lon="2.52267">
        <ele>556</ele>
        <time>2013-03-21T16:26:39Z</time>
      </trkpt>
      <trkpt lat="44.33516" lon="2.52257">
        <ele>556</ele>
        <time>2013-03-21T16:26:45Z</time>
      </trkpt>
      <trkpt lat="44.33505" lon="2.52246">
        <ele>557</ele>
        <time>2013-03-21T16:27:04Z</time>
      </trkpt>
      <trkpt lat="44.33496" lon="2.52239">
        <ele>558</ele>
        <time>2013-03-21T16:27:16Z</time>
      </trkpt>
      <trkpt lat="44.33489" lon="2.52228">
        <ele>559</ele>
        <time>2013-03-21T16:27:24Z</time>
      </trkpt>
      <trkpt lat="44.33484" lon="2.52217">
        <ele>561</ele>
        <time>2013-03-21T16:27:30Z</time>
      </trkpt>
      <trkpt lat="44.33477" lon="2.52208">
        <ele>566</ele>
        <time>2013-03-21T16:27:37Z</time>
      </trkpt>
      <trkpt lat="44.33469" lon="2.52201">
        <ele>567</ele>
        <time>2013-03-21T16:27:44Z</time>
      </trkpt>
      <trkpt lat="44.3346" lon="2.52201">
        <ele>568</ele>
        <time>2013-03-21T16:27:49Z</time>
      </trkpt>
      <trkpt lat="44.33454" lon="2.52201">
        <ele>568</ele>
        <time>2013-03-21T16:27:52Z</time>
      </trkpt>
      <trkpt lat="44.33449" lon="2.522">
        <ele>569</ele>
        <time>2013-03-21T16:27:55Z</time>
      </trkpt>
      <trkpt lat="44.33444" lon="2.52198">
        <ele>570</ele>
        <time>2013-03-21T16:27:59Z</time>
      </trkpt>
      <trkpt lat="44.3344" lon="2.52196">
        <ele>572</ele>
        <time>2013-03-21T16:28:04Z</time>
      </trkpt>
      <trkpt lat="44.33434" lon="2.52193">
        <ele>574</ele>
        <time>2013-03-21T16:28:09Z</time>
      </trkpt>
      <trkpt lat="44.33429" lon="2.52191">
        <ele>577</ele>
        <time>2013-03-21T16:28:13Z</time>
      </trkpt>
      <trkpt lat="44.33423" lon="2.52188">
        <ele>577</ele>
        <time>2013-03-21T16:28:17Z</time>
      </trkpt>
      <trkpt lat="44.33419" lon="2.52185">
        <ele>576</ele>
        <time>2013-03-21T16:28:21Z</time>
      </trkpt>
      <trkpt lat="44.33413" lon="2.52181">
        <ele>575</ele>
        <time>2013-03-21T16:28:26Z</time>
      </trkpt>
      <trkpt lat="44.33409" lon="2.52177">
        <ele>574</ele>
        <time>2013-03-21T16:28:30Z</time>
      </trkpt>
      <trkpt lat="44.33405" lon="2.52175">
        <ele>574</ele>
        <time>2013-03-21T16:28:36Z</time>
      </trkpt>
      <trkpt lat="44.334" lon="2.52171">
        <ele>575</ele>
        <time>2013-03-21T16:28:40Z</time>
      </trkpt>
      <trkpt lat="44.33396" lon="2.52169">
        <ele>578</ele>
        <time>2013-03-21T16:28:48Z</time>
      </trkpt>
      <trkpt lat="44.33389" lon="2.5216">
        <ele>580</ele>
        <time>2013-03-21T16:28:58Z</time>
      </trkpt>
      <trkpt lat="44.33382" lon="2.52151">
        <ele>582</ele>
        <time>2013-03-21T16:29:09Z</time>
      </trkpt>
      <trkpt lat="44.33375" lon="2.52139">
        <ele>584</ele>
        <time>2013-03-21T16:29:16Z</time>
      </trkpt>
      <trkpt lat="44.33368" lon="2.52129">
        <ele>584</ele>
        <time>2013-03-21T16:29:24Z</time>
      </trkpt>
      <trkpt lat="44.33361" lon="2.52122">
        <ele>583</ele>
        <time>2013-03-21T16:29:30Z</time>
      </trkpt>
      <trkpt lat="44.33357" lon="2.52118">
        <ele>584</ele>
        <time>2013-03-21T16:29:32Z</time>
      </trkpt>
      <trkpt lat="44.33353" lon="2.52113">
        <ele>584</ele>
        <time>2013-03-21T16:29:35Z</time>
      </trkpt>
      <trkpt lat="44.33346" lon="2.52104">
        <ele>585</ele>
        <time>2013-03-21T16:29:41Z</time>
      </trkpt>
      <trkpt lat="44.33337" lon="2.52089">
        <ele>594</ele>
        <time>2013-03-21T16:30:09Z</time>
      </trkpt>
      <trkpt lat="44.33333" lon="2.52084">
        <ele>593</ele>
        <time>2013-03-21T16:30:12Z</time>
      </trkpt>
      <trkpt lat="44.33325" lon="2.52076">
        <ele>594</ele>
        <time>2013-03-21T16:30:20Z</time>
      </trkpt>
      <trkpt lat="44.33318" lon="2.52068">
        <ele>595</ele>
        <time>2013-03-21T16:30:27Z</time>
      </trkpt>
      <trkpt lat="44.33311" lon="2.5206">
        <ele>596</ele>
        <time>2013-03-21T16:30:33Z</time>
      </trkpt>
      <trkpt lat="44.33307" lon="2.52056">
        <ele>596</ele>
        <time>2013-03-21T16:30:37Z</time>
      </trkpt>
      <trkpt lat="44.33303" lon="2.52052">
        <ele>597</ele>
        <time>2013-03-21T16:30:42Z</time>
      </trkpt>
      <trkpt lat="44.33298" lon="2.52048">
        <ele>597</ele>
        <time>2013-03-21T16:30:46Z</time>
      </trkpt>
      <trkpt lat="44.33291" lon="2.5204">
        <ele>597</ele>
        <time>2013-03-21T16:30:53Z</time>
      </trkpt>
      <trkpt lat="44.33282" lon="2.52034">
        <ele>597</ele>
        <time>2013-03-21T16:31:00Z</time>
      </trkpt>
      <trkpt lat="44.33273" lon="2.52027">
        <ele>599</ele>
        <time>2013-03-21T16:31:07Z</time>
      </trkpt>
      <trkpt lat="44.33265" lon="2.52017">
        <ele>601</ele>
        <time>2013-03-21T16:31:15Z</time>
      </trkpt>
      <trkpt lat="44.33258" lon="2.52009">
        <ele>602</ele>
        <time>2013-03-21T16:31:22Z</time>
      </trkpt>
      <trkpt lat="44.33251" lon="2.52">
        <ele>602</ele>
        <time>2013-03-21T16:31:27Z</time>
      </trkpt>
      <trkpt lat="44.33244" lon="2.51989">
        <ele>601</ele>
        <time>2013-03-21T16:31:34Z</time>
      </trkpt>
      <trkpt lat="44.33237" lon="2.51982">
        <ele>601</ele>
        <time>2013-03-21T16:31:42Z</time>
      </trkpt>
      <trkpt lat="44.33227" lon="2.51974">
        <ele>601</ele>
        <time>2013-03-21T16:31:48Z</time>
      </trkpt>
      <trkpt lat="44.3322" lon="2.51966">
        <ele>604</ele>
        <time>2013-03-21T16:31:55Z</time>
      </trkpt>
      <trkpt lat="44.33214" lon="2.51954">
        <ele>606</ele>
        <time>2013-03-21T16:32:05Z</time>
      </trkpt>
      <trkpt lat="44.33209" lon="2.51943">
        <ele>607</ele>
        <time>2013-03-21T16:32:12Z</time>
      </trkpt>
      <trkpt lat="44.33204" lon="2.51932">
        <ele>609</ele>
        <time>2013-03-21T16:32:20Z</time>
      </trkpt>
      <trkpt lat="44.33198" lon="2.51923">
        <ele>610</ele>
        <time>2013-03-21T16:32:27Z</time>
      </trkpt>
      <trkpt lat="44.33191" lon="2.51912">
        <ele>614</ele>
        <time>2013-03-21T16:32:36Z</time>
      </trkpt>
      <trkpt lat="44.33187" lon="2.51901">
        <ele>616</ele>
        <time>2013-03-21T16:32:42Z</time>
      </trkpt>
      <trkpt lat="44.3318" lon="2.51892">
        <ele>619</ele>
        <time>2013-03-21T16:32:49Z</time>
      </trkpt>
      <trkpt lat="44.33172" lon="2.51882">
        <ele>621</ele>
        <time>2013-03-21T16:32:55Z</time>
      </trkpt>
      <trkpt lat="44.33169" lon="2.51868">
        <ele>621</ele>
        <time>2013-03-21T16:33:02Z</time>
      </trkpt>
      <trkpt lat="44.33177" lon="2.5183">
        <ele>621</ele>
        <time>2013-03-21T16:33:15Z</time>
      </trkpt>
      <trkpt lat="44.3318" lon="2.51799">
        <ele>619</ele>
        <time>2013-03-21T16:33:22Z</time>
      </trkpt>
      <trkpt lat="44.33182" lon="2.51785">
        <ele>618</ele>
        <time>2013-03-21T16:33:25Z</time>
      </trkpt>
      <trkpt lat="44.33184" lon="2.51771">
        <ele>618</ele>
        <time>2013-03-21T16:33:28Z</time>
      </trkpt>
      <trkpt lat="44.33188" lon="2.51756">
        <ele>619</ele>
        <time>2013-03-21T16:33:31Z</time>
      </trkpt>
      <trkpt lat="44.33192" lon="2.5174">
        <ele>621</ele>
        <time>2013-03-21T16:33:34Z</time>
      </trkpt>
      <trkpt lat="44.33195" lon="2.51724">
        <ele>622</ele>
        <time>2013-03-21T16:33:37Z</time>
      </trkpt>
      <trkpt lat="44.33198" lon="2.5171">
        <ele>625</ele>
        <time>2013-03-21T16:33:40Z</time>
      </trkpt>
      <trkpt lat="44.332" lon="2.51697">
        <ele>626</ele>
        <time>2013-03-21T16:33:43Z</time>
      </trkpt>
      <trkpt lat="44.33202" lon="2.51685">
        <ele>626</ele>
        <time>2013-03-21T16:33:46Z</time>
      </trkpt>
      <trkpt lat="44.33203" lon="2.51669">
        <ele>626</ele>
        <time>2013-03-21T16:33:49Z</time>
      </trkpt>
      <trkpt lat="44.33205" lon="2.51653">
        <ele>626</ele>
        <time>2013-03-21T16:33:52Z</time>
      </trkpt>
      <trkpt lat="44.33206" lon="2.51637">
        <ele>625</ele>
        <time>2013-03-21T16:33:55Z</time>
      </trkpt>
      <trkpt lat="44.33208" lon="2.5162">
        <ele>624</ele>
        <time>2013-03-21T16:33:58Z</time>
      </trkpt>
      <trkpt lat="44.33209" lon="2.51604">
        <ele>624</ele>
        <time>2013-03-21T16:34:01Z</time>
      </trkpt>
      <trkpt lat="44.3321" lon="2.51587">
        <ele>624</ele>
        <time>2013-03-21T16:34:04Z</time>
      </trkpt>
      <trkpt lat="44.33213" lon="2.5157">
        <ele>624</ele>
        <time>2013-03-21T16:34:07Z</time>
      </trkpt>
      <trkpt lat="44.33215" lon="2.51558">
        <ele>624</ele>
        <time>2013-03-21T16:34:09Z</time>
      </trkpt>
      <trkpt lat="44.33218" lon="2.51541">
        <ele>625</ele>
        <time>2013-03-21T16:34:12Z</time>
      </trkpt>
      <trkpt lat="44.3322" lon="2.51528">
        <ele>625</ele>
        <time>2013-03-21T16:34:14Z</time>
      </trkpt>
      <trkpt lat="44.33219" lon="2.51516">
        <ele>625</ele>
        <time>2013-03-21T16:34:17Z</time>
      </trkpt>
      <trkpt lat="44.33219" lon="2.51501">
        <ele>626</ele>
        <time>2013-03-21T16:34:21Z</time>
      </trkpt>
      <trkpt lat="44.33213" lon="2.51489">
        <ele>626</ele>
        <time>2013-03-21T16:34:25Z</time>
      </trkpt>
      <trkpt lat="44.33204" lon="2.51476">
        <ele>625</ele>
        <time>2013-03-21T16:34:29Z</time>
      </trkpt>
      <trkpt lat="44.33194" lon="2.51471">
        <ele>624</ele>
        <time>2013-03-21T16:34:32Z</time>
      </trkpt>
      <trkpt lat="44.33181" lon="2.51474">
        <ele>623</ele>
        <time>2013-03-21T16:34:36Z</time>
      </trkpt>
      <trkpt lat="44.33169" lon="2.51477">
        <ele>621</ele>
        <time>2013-03-21T16:34:39Z</time>
      </trkpt>
      <trkpt lat="44.33155" lon="2.51481">
        <ele>620</ele>
        <time>2013-03-21T16:34:42Z</time>
      </trkpt>
      <trkpt lat="44.33145" lon="2.51484">
        <ele>619</ele>
        <time>2013-03-21T16:34:44Z</time>
      </trkpt>
      <trkpt lat="44.33135" lon="2.51488">
        <ele>618</ele>
        <time>2013-03-21T16:34:46Z</time>
      </trkpt>
      <trkpt lat="44.33124" lon="2.51493">
        <ele>618</ele>
        <time>2013-03-21T16:34:48Z</time>
      </trkpt>
      <trkpt lat="44.33112" lon="2.51496">
        <ele>619</ele>
        <time>2013-03-21T16:34:51Z</time>
      </trkpt>
      <trkpt lat="44.33102" lon="2.51498">
        <ele>619</ele>
        <time>2013-03-21T16:34:54Z</time>
      </trkpt>
      <trkpt lat="44.33093" lon="2.51501">
        <ele>620</ele>
        <time>2013-03-21T16:34:57Z</time>
      </trkpt>
      <trkpt lat="44.33081" lon="2.51502">
        <ele>621</ele>
        <time>2013-03-21T16:35:01Z</time>
      </trkpt>
      <trkpt lat="44.33071" lon="2.51498">
        <ele>622</ele>
        <time>2013-03-21T16:35:04Z</time>
      </trkpt>
      <trkpt lat="44.33063" lon="2.51489">
        <ele>624</ele>
        <time>2013-03-21T16:35:07Z</time>
      </trkpt>
      <trkpt lat="44.33054" lon="2.51481">
        <ele>626</ele>
        <time>2013-03-21T16:35:10Z</time>
      </trkpt>
      <trkpt lat="44.33046" lon="2.51472">
        <ele>628</ele>
        <time>2013-03-21T16:35:13Z</time>
      </trkpt>
      <trkpt lat="44.33037" lon="2.51461">
        <ele>629</ele>
        <time>2013-03-21T16:35:16Z</time>
      </trkpt>
      <trkpt lat="44.33029" lon="2.51452">
        <ele>630</ele>
        <time>2013-03-21T16:35:19Z</time>
      </trkpt>
      <trkpt lat="44.33019" lon="2.51444">
        <ele>631</ele>
        <time>2013-03-21T16:35:22Z</time>
      </trkpt>
      <trkpt lat="44.3301" lon="2.51438">
        <ele>632</ele>
        <time>2013-03-21T16:35:25Z</time>
      </trkpt>
      <trkpt lat="44.33" lon="2.51432">
        <ele>633</ele>
        <time>2013-03-21T16:35:28Z</time>
      </trkpt>
      <trkpt lat="44.32988" lon="2.51429">
        <ele>633</ele>
        <time>2013-03-21T16:35:31Z</time>
      </trkpt>
      <trkpt lat="44.32978" lon="2.51424">
        <ele>633</ele>
        <time>2013-03-21T16:35:34Z</time>
      </trkpt>
      <trkpt lat="44.32965" lon="2.51423">
        <ele>633</ele>
        <time>2013-03-21T16:35:38Z</time>
      </trkpt>
      <trkpt lat="44.32954" lon="2.5142">
        <ele>633</ele>
        <time>2013-03-21T16:35:42Z</time>
      </trkpt>
      <trkpt lat="44.32944" lon="2.51416">
        <ele>633</ele>
        <time>2013-03-21T16:35:45Z</time>
      </trkpt>
      <trkpt lat="44.32934" lon="2.51413">
        <ele>633</ele>
        <time>2013-03-21T16:35:48Z</time>
      </trkpt>
      <trkpt lat="44.32923" lon="2.51408">
        <ele>634</ele>
        <time>2013-03-21T16:35:52Z</time>
      </trkpt>
      <trkpt lat="44.32912" lon="2.51404">
        <ele>635</ele>
        <time>2013-03-21T16:35:55Z</time>
      </trkpt>
      <trkpt lat="44.32901" lon="2.51401">
        <ele>635</ele>
        <time>2013-03-21T16:35:58Z</time>
      </trkpt>
      <trkpt lat="44.3289" lon="2.51399">
        <ele>635</ele>
        <time>2013-03-21T16:36:01Z</time>
      </trkpt>
      <trkpt lat="44.3288" lon="2.51395">
        <ele>636</ele>
        <time>2013-03-21T16:36:04Z</time>
      </trkpt>
      <trkpt lat="44.3287" lon="2.51391">
        <ele>637</ele>
        <time>2013-03-21T16:36:07Z</time>
      </trkpt>
      <trkpt lat="44.32861" lon="2.51385">
        <ele>637</ele>
        <time>2013-03-21T16:36:09Z</time>
      </trkpt>
      <trkpt lat="44.32854" lon="2.51378">
        <ele>638</ele>
        <time>2013-03-21T16:36:11Z</time>
      </trkpt>
      <trkpt lat="44.32845" lon="2.51372">
        <ele>639</ele>
        <time>2013-03-21T16:36:14Z</time>
      </trkpt>
      <trkpt lat="44.32832" lon="2.51368">
        <ele>640</ele>
        <time>2013-03-21T16:36:17Z</time>
      </trkpt>
      <trkpt lat="44.32823" lon="2.51362">
        <ele>641</ele>
        <time>2013-03-21T16:36:20Z</time>
      </trkpt>
      <trkpt lat="44.32814" lon="2.51356">
        <ele>641</ele>
        <time>2013-03-21T16:36:24Z</time>
      </trkpt>
      <trkpt lat="44.32807" lon="2.51347">
        <ele>641</ele>
        <time>2013-03-21T16:36:27Z</time>
      </trkpt>
      <trkpt lat="44.32797" lon="2.51342">
        <ele>638</ele>
        <time>2013-03-21T16:36:31Z</time>
      </trkpt>
      <trkpt lat="44.32787" lon="2.51341">
        <ele>636</ele>
        <time>2013-03-21T16:36:34Z</time>
      </trkpt>
      <trkpt lat="44.32778" lon="2.51339">
        <ele>633</ele>
        <time>2013-03-21T16:36:37Z</time>
      </trkpt>
      <trkpt lat="44.32767" lon="2.51339">
        <ele>630</ele>
        <time>2013-03-21T16:36:41Z</time>
      </trkpt>
      <trkpt lat="44.32755" lon="2.51339">
        <ele>628</ele>
        <time>2013-03-21T16:36:45Z</time>
      </trkpt>
      <trkpt lat="44.32744" lon="2.51342">
        <ele>627</ele>
        <time>2013-03-21T16:36:48Z</time>
      </trkpt>
      <trkpt lat="44.32734" lon="2.51347">
        <ele>626</ele>
        <time>2013-03-21T16:36:51Z</time>
      </trkpt>
      <trkpt lat="44.32723" lon="2.51352">
        <ele>626</ele>
        <time>2013-03-21T16:36:54Z</time>
      </trkpt>
      <trkpt lat="44.32711" lon="2.51347">
        <ele>627</ele>
        <time>2013-03-21T16:36:58Z</time>
      </trkpt>
      <trkpt lat="44.32703" lon="2.51338">
        <ele>629</ele>
        <time>2013-03-21T16:37:02Z</time>
      </trkpt>
      <trkpt lat="44.32695" lon="2.51325">
        <ele>630</ele>
        <time>2013-03-21T16:37:06Z</time>
      </trkpt>
      <trkpt lat="44.3269" lon="2.51313">
        <ele>630</ele>
        <time>2013-03-21T16:37:09Z</time>
      </trkpt>
      <trkpt lat="44.32686" lon="2.51299">
        <ele>632</ele>
        <time>2013-03-21T16:37:12Z</time>
      </trkpt>
      <trkpt lat="44.32682" lon="2.51285">
        <ele>633</ele>
        <time>2013-03-21T16:37:15Z</time>
      </trkpt>
      <trkpt lat="44.32677" lon="2.51267">
        <ele>635</ele>
        <time>2013-03-21T16:37:18Z</time>
      </trkpt>
      <trkpt lat="44.32672" lon="2.51254">
        <ele>635</ele>
        <time>2013-03-21T16:37:21Z</time>
      </trkpt>
      <trkpt lat="44.32667" lon="2.51241">
        <ele>635</ele>
        <time>2013-03-21T16:37:24Z</time>
      </trkpt>
      <trkpt lat="44.32662" lon="2.51228">
        <ele>633</ele>
        <time>2013-03-21T16:37:28Z</time>
      </trkpt>
      <trkpt lat="44.3266" lon="2.51216">
        <ele>631</ele>
        <time>2013-03-21T16:37:31Z</time>
      </trkpt>
      <trkpt lat="44.32653" lon="2.51203">
        <ele>629</ele>
        <time>2013-03-21T16:37:34Z</time>
      </trkpt>
      <trkpt lat="44.32647" lon="2.51193">
        <ele>628</ele>
        <time>2013-03-21T16:37:37Z</time>
      </trkpt>
      <trkpt lat="44.32642" lon="2.5118">
        <ele>626</ele>
        <time>2013-03-21T16:37:41Z</time>
      </trkpt>
      <trkpt lat="44.3264" lon="2.51168">
        <ele>624</ele>
        <time>2013-03-21T16:37:45Z</time>
      </trkpt>
      <trkpt lat="44.3264" lon="2.51152">
        <ele>623</ele>
        <time>2013-03-21T16:37:49Z</time>
      </trkpt>
      <trkpt lat="44.32636" lon="2.51138">
        <ele>623</ele>
        <time>2013-03-21T16:37:52Z</time>
      </trkpt>
      <trkpt lat="44.32631" lon="2.51127">
        <ele>623</ele>
        <time>2013-03-21T16:37:55Z</time>
      </trkpt>
      <trkpt lat="44.32625" lon="2.51113">
        <ele>622</ele>
        <time>2013-03-21T16:37:58Z</time>
      </trkpt>
      <trkpt lat="44.32621" lon="2.511">
        <ele>622</ele>
        <time>2013-03-21T16:38:01Z</time>
      </trkpt>
      <trkpt lat="44.32617" lon="2.51085">
        <ele>622</ele>
        <time>2013-03-21T16:38:04Z</time>
      </trkpt>
      <trkpt lat="44.32613" lon="2.51072">
        <ele>623</ele>
        <time>2013-03-21T16:38:07Z</time>
      </trkpt>
      <trkpt lat="44.32606" lon="2.5106">
        <ele>623</ele>
        <time>2013-03-21T16:38:10Z</time>
      </trkpt>
      <trkpt lat="44.32598" lon="2.51049">
        <ele>623</ele>
        <time>2013-03-21T16:38:13Z</time>
      </trkpt>
      <trkpt lat="44.32589" lon="2.51041">
        <ele>623</ele>
        <time>2013-03-21T16:38:16Z</time>
      </trkpt>
      <trkpt lat="44.3258" lon="2.51034">
        <ele>622</ele>
        <time>2013-03-21T16:38:19Z</time>
      </trkpt>
      <trkpt lat="44.32572" lon="2.51024">
        <ele>622</ele>
        <time>2013-03-21T16:38:23Z</time>
      </trkpt>
      <trkpt lat="44.3256" lon="2.51018">
        <ele>623</ele>
        <time>2013-03-21T16:38:27Z</time>
      </trkpt>
      <trkpt lat="44.32551" lon="2.51015">
        <ele>625</ele>
        <time>2013-03-21T16:38:30Z</time>
      </trkpt>
      <trkpt lat="44.32542" lon="2.51007">
        <ele>627</ele>
        <time>2013-03-21T16:38:34Z</time>
      </trkpt>
      <trkpt lat="44.32534" lon="2.51001">
        <ele>629</ele>
        <time>2013-03-21T16:38:37Z</time>
      </trkpt>
      <trkpt lat="44.32526" lon="2.50994">
        <ele>630</ele>
        <time>2013-03-21T16:38:40Z</time>
      </trkpt>
      <trkpt lat="44.32517" lon="2.50987">
        <ele>632</ele>
        <time>2013-03-21T16:38:44Z</time>
      </trkpt>
      <trkpt lat="44.32508" lon="2.5098">
        <ele>633</ele>
        <time>2013-03-21T16:38:48Z</time>
      </trkpt>
      <trkpt lat="44.325" lon="2.50971">
        <ele>633</ele>
        <time>2013-03-21T16:38:52Z</time>
      </trkpt>
      <trkpt lat="44.32491" lon="2.5096">
        <ele>633</ele>
        <time>2013-03-21T16:38:56Z</time>
      </trkpt>
      <trkpt lat="44.3249" lon="2.50947">
        <ele>634</ele>
        <time>2013-03-21T16:39:00Z</time>
      </trkpt>
      <trkpt lat="44.32495" lon="2.50934">
        <ele>636</ele>
        <time>2013-03-21T16:39:04Z</time>
      </trkpt>
      <trkpt lat="44.32498" lon="2.50919">
        <ele>638</ele>
        <time>2013-03-21T16:39:08Z</time>
      </trkpt>
      <trkpt lat="44.32502" lon="2.50904">
        <ele>639</ele>
        <time>2013-03-21T16:39:12Z</time>
      </trkpt>
      <trkpt lat="44.32507" lon="2.50892">
        <ele>640</ele>
        <time>2013-03-21T16:39:15Z</time>
      </trkpt>
      <trkpt lat="44.3251" lon="2.5088">
        <ele>641</ele>
        <time>2013-03-21T16:39:18Z</time>
      </trkpt>
      <trkpt lat="44.32513" lon="2.50871">
        <ele>642</ele>
        <time>2013-03-21T16:39:20Z</time>
      </trkpt>
      <trkpt lat="44.32517" lon="2.50863">
        <ele>642</ele>
        <time>2013-03-21T16:39:22Z</time>
      </trkpt>
      <trkpt lat="44.3252" lon="2.50857">
        <ele>642</ele>
        <time>2013-03-21T16:39:24Z</time>
      </trkpt>
      <trkpt lat="44.32524" lon="2.5085">
        <ele>643</ele>
        <time>2013-03-21T16:39:26Z</time>
      </trkpt>
      <trkpt lat="44.32528" lon="2.50843">
        <ele>644</ele>
        <time>2013-03-21T16:39:28Z</time>
      </trkpt>
      <trkpt lat="44.32532" lon="2.50836">
        <ele>645</ele>
        <time>2013-03-21T16:39:30Z</time>
      </trkpt>
      <trkpt lat="44.32535" lon="2.50829">
        <ele>645</ele>
        <time>2013-03-21T16:39:32Z</time>
      </trkpt>
      <trkpt lat="44.32539" lon="2.50822">
        <ele>646</ele>
        <time>2013-03-21T16:39:34Z</time>
      </trkpt>
      <trkpt lat="44.32542" lon="2.50814">
        <ele>647</ele>
        <time>2013-03-21T16:39:36Z</time>
      </trkpt>
      <trkpt lat="44.32545" lon="2.50806">
        <ele>647</ele>
        <time>2013-03-21T16:39:38Z</time>
      </trkpt>
      <trkpt lat="44.3255" lon="2.50795">
        <ele>648</ele>
        <time>2013-03-21T16:39:41Z</time>
      </trkpt>
      <trkpt lat="44.32552" lon="2.50787">
        <ele>648</ele>
        <time>2013-03-21T16:39:43Z</time>
      </trkpt>
      <trkpt lat="44.32555" lon="2.50779">
        <ele>649</ele>
        <time>2013-03-21T16:39:45Z</time>
      </trkpt>
      <trkpt lat="44.32559" lon="2.50772">
        <ele>649</ele>
        <time>2013-03-21T16:39:48Z</time>
      </trkpt>
      <trkpt lat="44.32563" lon="2.50765">
        <ele>650</ele>
        <time>2013-03-21T16:39:51Z</time>
      </trkpt>
      <trkpt lat="44.32567" lon="2.50759">
        <ele>650</ele>
        <time>2013-03-21T16:39:52Z</time>
      </trkpt>
      <trkpt lat="44.32571" lon="2.50755">
        <ele>650</ele>
        <time>2013-03-21T16:39:54Z</time>
      </trkpt>
      <trkpt lat="44.32576" lon="2.5075">
        <ele>650</ele>
        <time>2013-03-21T16:39:57Z</time>
      </trkpt>
      <trkpt lat="44.3258" lon="2.50746">
        <ele>650</ele>
        <time>2013-03-21T16:39:58Z</time>
      </trkpt>
      <trkpt lat="44.32585" lon="2.50741">
        <ele>650</ele>
        <time>2013-03-21T16:40:00Z</time>
      </trkpt>
      <trkpt lat="44.32589" lon="2.50735">
        <ele>651</ele>
        <time>2013-03-21T16:40:02Z</time>
      </trkpt>
      <trkpt lat="44.32593" lon="2.50729">
        <ele>651</ele>
        <time>2013-03-21T16:40:04Z</time>
      </trkpt>
      <trkpt lat="44.32597" lon="2.50723">
        <ele>652</ele>
        <time>2013-03-21T16:40:06Z</time>
      </trkpt>
      <trkpt lat="44.32601" lon="2.50717">
        <ele>653</ele>
        <time>2013-03-21T16:40:08Z</time>
      </trkpt>
      <trkpt lat="44.32605" lon="2.50711">
        <ele>653</ele>
        <time>2013-03-21T16:40:10Z</time>
      </trkpt>
      <trkpt lat="44.32609" lon="2.50705">
        <ele>654</ele>
        <time>2013-03-21T16:40:12Z</time>
      </trkpt>
      <trkpt lat="44.32613" lon="2.50699">
        <ele>655</ele>
        <time>2013-03-21T16:40:14Z</time>
      </trkpt>
      <trkpt lat="44.32616" lon="2.50694">
        <ele>656</ele>
        <time>2013-03-21T16:40:16Z</time>
      </trkpt>
      <trkpt lat="44.3262" lon="2.50689">
        <ele>657</ele>
        <time>2013-03-21T16:40:18Z</time>
      </trkpt>
      <trkpt lat="44.32624" lon="2.50684">
        <ele>657</ele>
        <time>2013-03-21T16:40:20Z</time>
      </trkpt>
      <trkpt lat="44.32633" lon="2.50675">
        <ele>657</ele>
        <time>2013-03-21T16:40:24Z</time>
      </trkpt>
      <trkpt lat="44.32641" lon="2.50664">
        <ele>656</ele>
        <time>2013-03-21T16:40:28Z</time>
      </trkpt>
      <trkpt lat="44.32648" lon="2.50655">
        <ele>656</ele>
        <time>2013-03-21T16:40:31Z</time>
      </trkpt>
      <trkpt lat="44.32655" lon="2.50646">
        <ele>656</ele>
        <time>2013-03-21T16:40:34Z</time>
      </trkpt>
      <trkpt lat="44.32662" lon="2.50635">
        <ele>656</ele>
        <time>2013-03-21T16:40:38Z</time>
      </trkpt>
      <trkpt lat="44.32662" lon="2.50619">
        <ele>656</ele>
        <time>2013-03-21T16:40:43Z</time>
      </trkpt>
      <trkpt lat="44.3266" lon="2.50606">
        <ele>656</ele>
        <time>2013-03-21T16:40:46Z</time>
      </trkpt>
      <trkpt lat="44.32656" lon="2.50593">
        <ele>655</ele>
        <time>2013-03-21T16:40:49Z</time>
      </trkpt>
      <trkpt lat="44.32652" lon="2.5058">
        <ele>654</ele>
        <time>2013-03-21T16:40:52Z</time>
      </trkpt>
      <trkpt lat="44.32648" lon="2.50566">
        <ele>653</ele>
        <time>2013-03-21T16:40:55Z</time>
      </trkpt>
      <trkpt lat="44.32645" lon="2.50552">
        <ele>652</ele>
        <time>2013-03-21T16:40:58Z</time>
      </trkpt>
      <trkpt lat="44.32642" lon="2.50534">
        <ele>653</ele>
        <time>2013-03-21T16:41:01Z</time>
      </trkpt>
      <trkpt lat="44.32639" lon="2.50521">
        <ele>653</ele>
        <time>2013-03-21T16:41:03Z</time>
      </trkpt>
      <trkpt lat="44.32636" lon="2.50507">
        <ele>652</ele>
        <time>2013-03-21T16:41:05Z</time>
      </trkpt>
      <trkpt lat="44.32632" lon="2.50492">
        <ele>652</ele>
        <time>2013-03-21T16:41:08Z</time>
      </trkpt>
      <trkpt lat="44.32628" lon="2.50474">
        <ele>650</ele>
        <time>2013-03-21T16:41:24Z</time>
      </trkpt>
      <trkpt lat="44.32623" lon="2.50459">
        <ele>650</ele>
        <time>2013-03-21T16:41:28Z</time>
      </trkpt>
      <trkpt lat="44.32619" lon="2.50447">
        <ele>650</ele>
        <time>2013-03-21T16:41:31Z</time>
      </trkpt>
      <trkpt lat="44.32616" lon="2.50435">
        <ele>648</ele>
        <time>2013-03-21T16:41:34Z</time>
      </trkpt>
      <trkpt lat="44.32613" lon="2.50422">
        <ele>646</ele>
        <time>2013-03-21T16:41:37Z</time>
      </trkpt>
      <trkpt lat="44.32609" lon="2.50409">
        <ele>644</ele>
        <time>2013-03-21T16:41:40Z</time>
      </trkpt>
      <trkpt lat="44.32606" lon="2.50395">
        <ele>641</ele>
        <time>2013-03-21T16:41:43Z</time>
      </trkpt>
      <trkpt lat="44.32602" lon="2.50383">
        <ele>640</ele>
        <time>2013-03-21T16:41:46Z</time>
      </trkpt>
      <trkpt lat="44.32598" lon="2.50369">
        <ele>639</ele>
        <time>2013-03-21T16:41:49Z</time>
      </trkpt>
      <trkpt lat="44.32595" lon="2.50353">
        <ele>639</ele>
        <time>2013-03-21T16:41:52Z</time>
      </trkpt>
      <trkpt lat="44.32593" lon="2.50339">
        <ele>639</ele>
        <time>2013-03-21T16:41:55Z</time>
      </trkpt>
      <trkpt lat="44.32593" lon="2.50325">
        <ele>638</ele>
        <time>2013-03-21T16:41:58Z</time>
      </trkpt>
      <trkpt lat="44.32598" lon="2.50313">
        <ele>637</ele>
        <time>2013-03-21T16:42:01Z</time>
      </trkpt>
      <trkpt lat="44.32604" lon="2.50304">
        <ele>637</ele>
        <time>2013-03-21T16:42:04Z</time>
      </trkpt>
      <trkpt lat="44.32616" lon="2.50296">
        <ele>637</ele>
        <time>2013-03-21T16:42:07Z</time>
      </trkpt>
      <trkpt lat="44.32624" lon="2.50291">
        <ele>637</ele>
        <time>2013-03-21T16:42:09Z</time>
      </trkpt>
      <trkpt lat="44.32636" lon="2.50283">
        <ele>636</ele>
        <time>2013-03-21T16:42:12Z</time>
      </trkpt>
      <trkpt lat="44.32646" lon="2.50279">
        <ele>635</ele>
        <time>2013-03-21T16:42:14Z</time>
      </trkpt>
      <trkpt lat="44.32655" lon="2.50271">
        <ele>633</ele>
        <time>2013-03-21T16:42:17Z</time>
      </trkpt>
      <trkpt lat="44.3266" lon="2.50268">
        <ele>632</ele>
        <time>2013-03-21T16:42:19Z</time>
      </trkpt>
      <trkpt lat="44.32664" lon="2.50265">
        <ele>632</ele>
        <time>2013-03-21T16:42:21Z</time>
      </trkpt>
      <trkpt lat="44.32669" lon="2.50261">
        <ele>631</ele>
        <time>2013-03-21T16:42:23Z</time>
      </trkpt>
      <trkpt lat="44.32677" lon="2.50257">
        <ele>631</ele>
        <time>2013-03-21T16:42:25Z</time>
      </trkpt>
      <trkpt lat="44.32684" lon="2.50255">
        <ele>631</ele>
        <time>2013-03-21T16:42:27Z</time>
      </trkpt>
      <trkpt lat="44.32694" lon="2.50252">
        <ele>631</ele>
        <time>2013-03-21T16:42:30Z</time>
      </trkpt>
      <trkpt lat="44.32703" lon="2.50246">
        <ele>631</ele>
        <time>2013-03-21T16:42:33Z</time>
      </trkpt>
      <trkpt lat="44.32712" lon="2.50239">
        <ele>631</ele>
        <time>2013-03-21T16:42:36Z</time>
      </trkpt>
      <trkpt lat="44.32723" lon="2.50233">
        <ele>629</ele>
        <time>2013-03-21T16:42:41Z</time>
      </trkpt>
      <trkpt lat="44.32734" lon="2.50228">
        <ele>628</ele>
        <time>2013-03-21T16:42:45Z</time>
      </trkpt>
      <trkpt lat="44.32742" lon="2.50224">
        <ele>627</ele>
        <time>2013-03-21T16:42:48Z</time>
      </trkpt>
      <trkpt lat="44.32755" lon="2.50224">
        <ele>626</ele>
        <time>2013-03-21T16:42:52Z</time>
      </trkpt>
      <trkpt lat="44.32766" lon="2.50223">
        <ele>625</ele>
        <time>2013-03-21T16:42:55Z</time>
      </trkpt>
      <trkpt lat="44.32777" lon="2.50221">
        <ele>624</ele>
        <time>2013-03-21T16:42:58Z</time>
      </trkpt>
      <trkpt lat="44.32787" lon="2.50219">
        <ele>622</ele>
        <time>2013-03-21T16:43:01Z</time>
      </trkpt>
      <trkpt lat="44.328" lon="2.5022">
        <ele>620</ele>
        <time>2013-03-21T16:43:04Z</time>
      </trkpt>
      <trkpt lat="44.32812" lon="2.50222">
        <ele>618</ele>
        <time>2013-03-21T16:43:07Z</time>
      </trkpt>
      <trkpt lat="44.32822" lon="2.50225">
        <ele>618</ele>
        <time>2013-03-21T16:43:09Z</time>
      </trkpt>
      <trkpt lat="44.32831" lon="2.50226">
        <ele>617</ele>
        <time>2013-03-21T16:43:12Z</time>
      </trkpt>
      <trkpt lat="44.32841" lon="2.50227">
        <ele>618</ele>
        <time>2013-03-21T16:43:15Z</time>
      </trkpt>
      <trkpt lat="44.32853" lon="2.50228">
        <ele>618</ele>
        <time>2013-03-21T16:43:18Z</time>
      </trkpt>
      <trkpt lat="44.32862" lon="2.50227">
        <ele>618</ele>
        <time>2013-03-21T16:43:20Z</time>
      </trkpt>
      <trkpt lat="44.32874" lon="2.50224">
        <ele>620</ele>
        <time>2013-03-21T16:43:23Z</time>
      </trkpt>
      <trkpt lat="44.32885" lon="2.50218">
        <ele>622</ele>
        <time>2013-03-21T16:43:26Z</time>
      </trkpt>
      <trkpt lat="44.32894" lon="2.5021">
        <ele>623</ele>
        <time>2013-03-21T16:43:29Z</time>
      </trkpt>
      <trkpt lat="44.32902" lon="2.50199">
        <ele>623</ele>
        <time>2013-03-21T16:43:32Z</time>
      </trkpt>
      <trkpt lat="44.32907" lon="2.50186">
        <ele>623</ele>
        <time>2013-03-21T16:43:36Z</time>
      </trkpt>
      <trkpt lat="44.32915" lon="2.50175">
        <ele>623</ele>
        <time>2013-03-21T16:43:39Z</time>
      </trkpt>
      <trkpt lat="44.32923" lon="2.50166">
        <ele>622</ele>
        <time>2013-03-21T16:43:42Z</time>
      </trkpt>
      <trkpt lat="44.32931" lon="2.50155">
        <ele>621</ele>
        <time>2013-03-21T16:43:45Z</time>
      </trkpt>
      <trkpt lat="44.32941" lon="2.50145">
        <ele>621</ele>
        <time>2013-03-21T16:43:48Z</time>
      </trkpt>
      <trkpt lat="44.32952" lon="2.50138">
        <ele>621</ele>
        <time>2013-03-21T16:43:51Z</time>
      </trkpt>
      <trkpt lat="44.32962" lon="2.50132">
        <ele>620</ele>
        <time>2013-03-21T16:43:54Z</time>
      </trkpt>
      <trkpt lat="44.32973" lon="2.50126">
        <ele>620</ele>
        <time>2013-03-21T16:43:57Z</time>
      </trkpt>
      <trkpt lat="44.32985" lon="2.50118">
        <ele>619</ele>
        <time>2013-03-21T16:44:00Z</time>
      </trkpt>
      <trkpt lat="44.32994" lon="2.50106">
        <ele>618</ele>
        <time>2013-03-21T16:44:03Z</time>
      </trkpt>
      <trkpt lat="44.33002" lon="2.50093">
        <ele>617</ele>
        <time>2013-03-21T16:44:06Z</time>
      </trkpt>
      <trkpt lat="44.33009" lon="2.5008">
        <ele>617</ele>
        <time>2013-03-21T16:44:09Z</time>
      </trkpt>
      <trkpt lat="44.33016" lon="2.50067">
        <ele>616</ele>
        <time>2013-03-21T16:44:12Z</time>
      </trkpt>
      <trkpt lat="44.33022" lon="2.50058">
        <ele>615</ele>
        <time>2013-03-21T16:44:15Z</time>
      </trkpt>
      <trkpt lat="44.33031" lon="2.50047">
        <ele>613</ele>
        <time>2013-03-21T16:44:19Z</time>
      </trkpt>
      <trkpt lat="44.33039" lon="2.50031">
        <ele>611</ele>
        <time>2013-03-21T16:44:22Z</time>
      </trkpt>
      <trkpt lat="44.33046" lon="2.50019">
        <ele>611</ele>
        <time>2013-03-21T16:44:24Z</time>
      </trkpt>
      <trkpt lat="44.33052" lon="2.50006">
        <ele>609</ele>
        <time>2013-03-21T16:44:26Z</time>
      </trkpt>
      <trkpt lat="44.33059" lon="2.49993">
        <ele>607</ele>
        <time>2013-03-21T16:44:30Z</time>
      </trkpt>
      <trkpt lat="44.33065" lon="2.49984">
        <ele>605</ele>
        <time>2013-03-21T16:44:33Z</time>
      </trkpt>
      <trkpt lat="44.33074" lon="2.49976">
        <ele>602</ele>
        <time>2013-03-21T16:44:37Z</time>
      </trkpt>
      <trkpt lat="44.33076" lon="2.49962">
        <ele>598</ele>
        <time>2013-03-21T16:44:44Z</time>
      </trkpt>
      <trkpt lat="44.33076" lon="2.49949">
        <ele>596</ele>
        <time>2013-03-21T16:44:46Z</time>
      </trkpt>
      <trkpt lat="44.3307" lon="2.49939">
        <ele>587</ele>
        <time>2013-03-21T16:45:23Z</time>
      </trkpt>
      <trkpt lat="44.3306" lon="2.49937">
        <ele>586</ele>
        <time>2013-03-21T16:45:28Z</time>
      </trkpt>
      <trkpt lat="44.33051" lon="2.49939">
        <ele>585</ele>
        <time>2013-03-21T16:45:33Z</time>
      </trkpt>
      <trkpt lat="44.33041" lon="2.49939">
        <ele>584</ele>
        <time>2013-03-21T16:45:39Z</time>
      </trkpt>
      <trkpt lat="44.33036" lon="2.49939">
        <ele>583</ele>
        <time>2013-03-21T16:45:42Z</time>
      </trkpt>
      <trkpt lat="44.3303" lon="2.49939">
        <ele>581</ele>
        <time>2013-03-21T16:45:45Z</time>
      </trkpt>
      <trkpt lat="44.3302" lon="2.49938">
        <ele>581</ele>
        <time>2013-03-21T16:45:51Z</time>
      </trkpt>
      <trkpt lat="44.33011" lon="2.49937">
        <ele>581</ele>
        <time>2013-03-21T16:45:56Z</time>
      </trkpt>
      <trkpt lat="44.33008" lon="2.49923">
        <ele>582</ele>
        <time>2013-03-21T16:46:04Z</time>
      </trkpt>
      <trkpt lat="44.33012" lon="2.49912">
        <ele>582</ele>
        <time>2013-03-21T16:46:10Z</time>
      </trkpt>
      <trkpt lat="44.33018" lon="2.499">
        <ele>580</ele>
        <time>2013-03-21T16:46:16Z</time>
      </trkpt>
      <trkpt lat="44.33026" lon="2.4989">
        <ele>581</ele>
        <time>2013-03-21T16:46:22Z</time>
      </trkpt>
      <trkpt lat="44.33029" lon="2.49882">
        <ele>581</ele>
        <time>2013-03-21T16:46:26Z</time>
      </trkpt>
      <trkpt lat="44.33031" lon="2.49876">
        <ele>580</ele>
        <time>2013-03-21T16:46:29Z</time>
      </trkpt>
      <trkpt lat="44.33034" lon="2.49871">
        <ele>580</ele>
        <time>2013-03-21T16:46:33Z</time>
      </trkpt>
      <trkpt lat="44.33039" lon="2.4986">
        <ele>579</ele>
        <time>2013-03-21T16:46:41Z</time>
      </trkpt>
      <trkpt lat="44.33044" lon="2.49848">
        <ele>578</ele>
        <time>2013-03-21T16:46:50Z</time>
      </trkpt>
      <trkpt lat="44.33048" lon="2.49834">
        <ele>575</ele>
        <time>2013-03-21T16:46:58Z</time>
      </trkpt>
      <trkpt lat="44.33055" lon="2.49825">
        <ele>574</ele>
        <time>2013-03-21T16:47:03Z</time>
      </trkpt>
      <trkpt lat="44.33059" lon="2.49812">
        <ele>570</ele>
        <time>2013-03-21T16:47:10Z</time>
      </trkpt>
      <trkpt lat="44.33068" lon="2.49801">
        <ele>568</ele>
        <time>2013-03-21T16:47:16Z</time>
      </trkpt>
      <trkpt lat="44.3307" lon="2.49789">
        <ele>566</ele>
        <time>2013-03-21T16:47:23Z</time>
      </trkpt>
      <trkpt lat="44.33076" lon="2.49777">
        <ele>564</ele>
        <time>2013-03-21T16:47:29Z</time>
      </trkpt>
      <trkpt lat="44.33085" lon="2.49768">
        <ele>563</ele>
        <time>2013-03-21T16:47:43Z</time>
      </trkpt>
      <trkpt lat="44.33093" lon="2.49762">
        <ele>564</ele>
        <time>2013-03-21T16:47:48Z</time>
      </trkpt>
      <trkpt lat="44.331" lon="2.49752">
        <ele>563</ele>
        <time>2013-03-21T16:47:54Z</time>
      </trkpt>
      <trkpt lat="44.33108" lon="2.49748">
        <ele>563</ele>
        <time>2013-03-21T16:48:00Z</time>
      </trkpt>
      <trkpt lat="44.33117" lon="2.49742">
        <ele>563</ele>
        <time>2013-03-21T16:48:08Z</time>
      </trkpt>
      <trkpt lat="44.33113" lon="2.49728">
        <ele>562</ele>
        <time>2013-03-21T16:48:16Z</time>
      </trkpt>
      <trkpt lat="44.33102" lon="2.49729">
        <ele>560</ele>
        <time>2013-03-21T16:48:24Z</time>
      </trkpt>
      <trkpt lat="44.33093" lon="2.49729">
        <ele>557</ele>
        <time>2013-03-21T16:48:32Z</time>
      </trkpt>
      <trkpt lat="44.33083" lon="2.49732">
        <ele>556</ele>
        <time>2013-03-21T16:48:39Z</time>
      </trkpt>
      <trkpt lat="44.33073" lon="2.49735">
        <ele>558</ele>
        <time>2013-03-21T16:48:45Z</time>
      </trkpt>
      <trkpt lat="44.33064" lon="2.49741">
        <ele>558</ele>
        <time>2013-03-21T16:48:51Z</time>
      </trkpt>
      <trkpt lat="44.33054" lon="2.49745">
        <ele>556</ele>
        <time>2013-03-21T16:48:58Z</time>
      </trkpt>
      <trkpt lat="44.33023" lon="2.49754">
        <ele>541</ele>
        <time>2013-03-21T16:49:20Z</time>
      </trkpt>
      <trkpt lat="44.33013" lon="2.49756">
        <ele>541</ele>
        <time>2013-03-21T16:49:26Z</time>
      </trkpt>
      <trkpt lat="44.33005" lon="2.49763">
        <ele>540</ele>
        <time>2013-03-21T16:49:32Z</time>
      </trkpt>
      <trkpt lat="44.32994" lon="2.49769">
        <ele>539</ele>
        <time>2013-03-21T16:49:38Z</time>
      </trkpt>
      <trkpt lat="44.32986" lon="2.49774">
        <ele>536</ele>
        <time>2013-03-21T16:49:43Z</time>
      </trkpt>
      <trkpt lat="44.32977" lon="2.49769">
        <ele>535</ele>
        <time>2013-03-21T16:49:49Z</time>
      </trkpt>
      <trkpt lat="44.32981" lon="2.49752">
        <ele>535</ele>
        <time>2013-03-21T16:50:00Z</time>
      </trkpt>
      <trkpt lat="44.32988" lon="2.49743">
        <ele>535</ele>
        <time>2013-03-21T16:50:05Z</time>
      </trkpt>
      <trkpt lat="44.32994" lon="2.49733">
        <ele>536</ele>
        <time>2013-03-21T16:50:12Z</time>
      </trkpt>
      <trkpt lat="44.32999" lon="2.49722">
        <ele>538</ele>
        <time>2013-03-21T16:50:18Z</time>
      </trkpt>
      <trkpt lat="44.33006" lon="2.49715">
        <ele>539</ele>
        <time>2013-03-21T16:50:25Z</time>
      </trkpt>
      <trkpt lat="44.33014" lon="2.49706">
        <ele>540</ele>
        <time>2013-03-21T16:50:30Z</time>
      </trkpt>
      <trkpt lat="44.33021" lon="2.49694">
        <ele>541</ele>
        <time>2013-03-21T16:50:39Z</time>
      </trkpt>
      <trkpt lat="44.33029" lon="2.49685">
        <ele>541</ele>
        <time>2013-03-21T16:50:45Z</time>
      </trkpt>
      <trkpt lat="44.33036" lon="2.49677">
        <ele>538</ele>
        <time>2013-03-21T16:50:51Z</time>
      </trkpt>
      <trkpt lat="44.33042" lon="2.49678">
        <ele>535</ele>
        <time>2013-03-21T16:51:14Z</time>
      </trkpt>
      <trkpt lat="44.33044" lon="2.49662">
        <ele>532</ele>
        <time>2013-03-21T16:51:22Z</time>
      </trkpt>
      <trkpt lat="44.33045" lon="2.49659">
        <ele>533</ele>
        <time>2013-03-21T16:52:09Z</time>
      </trkpt>
      <trkpt lat="44.33052" lon="2.49647">
        <ele>533</ele>
        <time>2013-03-21T16:52:15Z</time>
      </trkpt>
      <trkpt lat="44.33056" lon="2.49633">
        <ele>534</ele>
        <time>2013-03-21T16:52:21Z</time>
      </trkpt>
      <trkpt lat="44.3306" lon="2.49621">
        <ele>534</ele>
        <time>2013-03-21T16:52:26Z</time>
      </trkpt>
      <trkpt lat="44.33064" lon="2.49607">
        <ele>535</ele>
        <time>2013-03-21T16:52:31Z</time>
      </trkpt>
      <trkpt lat="44.33067" lon="2.49595">
        <ele>536</ele>
        <time>2013-03-21T16:52:38Z</time>
      </trkpt>
      <trkpt lat="44.3307" lon="2.49578">
        <ele>538</ele>
        <time>2013-03-21T16:52:46Z</time>
      </trkpt>
      <trkpt lat="44.33075" lon="2.49567">
        <ele>539</ele>
        <time>2013-03-21T16:52:52Z</time>
      </trkpt>
      <trkpt lat="44.33085" lon="2.49555">
        <ele>539</ele>
        <time>2013-03-21T16:53:00Z</time>
      </trkpt>
      <trkpt lat="44.33089" lon="2.49541">
        <ele>535</ele>
        <time>2013-03-21T16:53:07Z</time>
      </trkpt>
      <trkpt lat="44.33088" lon="2.49528">
        <ele>528</ele>
        <time>2013-03-21T16:53:18Z</time>
      </trkpt>
      <trkpt lat="44.33092" lon="2.49514">
        <ele>524</ele>
        <time>2013-03-21T16:53:27Z</time>
      </trkpt>
      <trkpt lat="44.331" lon="2.49505">
        <ele>521</ele>
        <time>2013-03-21T16:53:34Z</time>
      </trkpt>
      <trkpt lat="44.33148" lon="2.49472">
        <ele>501</ele>
        <time>2013-03-21T16:54:05Z</time>
      </trkpt>
      <trkpt lat="44.33158" lon="2.49461">
        <ele>499</ele>
        <time>2013-03-21T16:54:14Z</time>
      </trkpt>
      <trkpt lat="44.33166" lon="2.49455">
        <ele>499</ele>
        <time>2013-03-21T16:54:21Z</time>
      </trkpt>
      <trkpt lat="44.33175" lon="2.49451">
        <ele>503</ele>
        <time>2013-03-21T16:54:28Z</time>
      </trkpt>
      <trkpt lat="44.33184" lon="2.49448">
        <ele>507</ele>
        <time>2013-03-21T16:54:35Z</time>
      </trkpt>
      <trkpt lat="44.33194" lon="2.49444">
        <ele>507</ele>
        <time>2013-03-21T16:54:39Z</time>
      </trkpt>
      <trkpt lat="44.33205" lon="2.49442">
        <ele>505</ele>
        <time>2013-03-21T16:54:44Z</time>
      </trkpt>
      <trkpt lat="44.33209" lon="2.4943">
        <ele>501</ele>
        <time>2013-03-21T16:54:50Z</time>
      </trkpt>
      <trkpt lat="44.33203" lon="2.4942">
        <ele>498</ele>
        <time>2013-03-21T16:54:56Z</time>
      </trkpt>
      <trkpt lat="44.33197" lon="2.49411">
        <ele>496</ele>
        <time>2013-03-21T16:55:03Z</time>
      </trkpt>
      <trkpt lat="44.33191" lon="2.49401">
        <ele>493</ele>
        <time>2013-03-21T16:55:11Z</time>
      </trkpt>
      <trkpt lat="44.33183" lon="2.49392">
        <ele>500</ele>
        <time>2013-03-21T16:55:19Z</time>
      </trkpt>
      <trkpt lat="44.33163" lon="2.49365">
        <ele>508</ele>
        <time>2013-03-21T16:55:37Z</time>
      </trkpt>
      <trkpt lat="44.33157" lon="2.49351">
        <ele>510</ele>
        <time>2013-03-21T16:55:44Z</time>
      </trkpt>
      <trkpt lat="44.33154" lon="2.49334">
        <ele>513</ele>
        <time>2013-03-21T16:55:49Z</time>
      </trkpt>
      <trkpt lat="44.33148" lon="2.49343">
        <ele>510</ele>
        <time>2013-03-21T16:56:06Z</time>
      </trkpt>
      <trkpt lat="44.33146" lon="2.49349">
        <ele>505</ele>
        <time>2013-03-21T16:56:17Z</time>
      </trkpt>
      <trkpt lat="44.33153" lon="2.49368">
        <ele>505</ele>
        <time>2013-03-21T16:57:26Z</time>
      </trkpt>
      <trkpt lat="44.33158" lon="2.49379">
        <ele>506</ele>
        <time>2013-03-21T16:57:29Z</time>
      </trkpt>
      <trkpt lat="44.33171" lon="2.4941">
        <ele>507</ele>
        <time>2013-03-21T16:57:52Z</time>
      </trkpt>
      <trkpt lat="44.33182" lon="2.49417">
        <ele>508</ele>
        <time>2013-03-21T16:57:55Z</time>
      </trkpt>
      <trkpt lat="44.33194" lon="2.49425">
        <ele>508</ele>
        <time>2013-03-21T16:58:00Z</time>
      </trkpt>
      <trkpt lat="44.33204" lon="2.49432">
        <ele>507</ele>
        <time>2013-03-21T16:58:05Z</time>
      </trkpt>
      <trkpt lat="44.33213" lon="2.49437">
        <ele>505</ele>
        <time>2013-03-21T16:58:10Z</time>
      </trkpt>
      <trkpt lat="44.33219" lon="2.4944">
        <ele>502</ele>
        <time>2013-03-21T16:58:12Z</time>
      </trkpt>
      <trkpt lat="44.33223" lon="2.49443">
        <ele>500</ele>
        <time>2013-03-21T16:58:14Z</time>
      </trkpt>
      <trkpt lat="44.33228" lon="2.49445">
        <ele>498</ele>
        <time>2013-03-21T16:58:17Z</time>
      </trkpt>
      <trkpt lat="44.33233" lon="2.49447">
        <ele>497</ele>
        <time>2013-03-21T16:58:21Z</time>
      </trkpt>
      <trkpt lat="44.33241" lon="2.4945">
        <ele>497</ele>
        <time>2013-03-21T16:58:28Z</time>
      </trkpt>
      <trkpt lat="44.33251" lon="2.4945">
        <ele>496</ele>
        <time>2013-03-21T16:58:35Z</time>
      </trkpt>
      <trkpt lat="44.3326" lon="2.49454">
        <ele>495</ele>
        <time>2013-03-21T16:58:42Z</time>
      </trkpt>
      <trkpt lat="44.3327" lon="2.49457">
        <ele>492</ele>
        <time>2013-03-21T16:58:49Z</time>
      </trkpt>
      <trkpt lat="44.3328" lon="2.4946">
        <ele>492</ele>
        <time>2013-03-21T16:58:55Z</time>
      </trkpt>
      <trkpt lat="44.33293" lon="2.49458">
        <ele>492</ele>
        <time>2013-03-21T16:58:59Z</time>
      </trkpt>
      <trkpt lat="44.33302" lon="2.49456">
        <ele>491</ele>
        <time>2013-03-21T16:59:01Z</time>
      </trkpt>
      <trkpt lat="44.33315" lon="2.49453">
        <ele>490</ele>
        <time>2013-03-21T16:59:03Z</time>
      </trkpt>
      <trkpt lat="44.33326" lon="2.49453">
        <ele>489</ele>
        <time>2013-03-21T16:59:05Z</time>
      </trkpt>
      <trkpt lat="44.33337" lon="2.49452">
        <ele>488</ele>
        <time>2013-03-21T16:59:07Z</time>
      </trkpt>
      <trkpt lat="44.33347" lon="2.49449">
        <ele>488</ele>
        <time>2013-03-21T16:59:09Z</time>
      </trkpt>
      <trkpt lat="44.33355" lon="2.49445">
        <ele>489</ele>
        <time>2013-03-21T16:59:11Z</time>
      </trkpt>
      <trkpt lat="44.33365" lon="2.49438">
        <ele>489</ele>
        <time>2013-03-21T16:59:14Z</time>
      </trkpt>
      <trkpt lat="44.33374" lon="2.49433">
        <ele>489</ele>
        <time>2013-03-21T16:59:18Z</time>
      </trkpt>
      <trkpt lat="44.33383" lon="2.49426">
        <ele>488</ele>
        <time>2013-03-21T16:59:23Z</time>
      </trkpt>
      <trkpt lat="44.33391" lon="2.49418">
        <ele>488</ele>
        <time>2013-03-21T16:59:26Z</time>
      </trkpt>
      <trkpt lat="44.334" lon="2.49411">
        <ele>487</ele>
        <time>2013-03-21T16:59:29Z</time>
      </trkpt>
      <trkpt lat="44.33412" lon="2.49405">
        <ele>487</ele>
        <time>2013-03-21T16:59:32Z</time>
      </trkpt>
      <trkpt lat="44.33421" lon="2.49402">
        <ele>487</ele>
        <time>2013-03-21T16:59:35Z</time>
      </trkpt>
      <trkpt lat="44.33433" lon="2.494">
        <ele>486</ele>
        <time>2013-03-21T16:59:38Z</time>
      </trkpt>
      <trkpt lat="44.33443" lon="2.49395">
        <ele>488</ele>
        <time>2013-03-21T16:59:41Z</time>
      </trkpt>
      <trkpt lat="44.33453" lon="2.49391">
        <ele>489</ele>
        <time>2013-03-21T16:59:44Z</time>
      </trkpt>
      <trkpt lat="44.33464" lon="2.49388">
        <ele>489</ele>
        <time>2013-03-21T16:59:47Z</time>
      </trkpt>
      <trkpt lat="44.33473" lon="2.49387">
        <ele>488</ele>
        <time>2013-03-21T16:59:49Z</time>
      </trkpt>
      <trkpt lat="44.33482" lon="2.49386">
        <ele>487</ele>
        <time>2013-03-21T16:59:51Z</time>
      </trkpt>
      <trkpt lat="44.33493" lon="2.49381">
        <ele>486</ele>
        <time>2013-03-21T16:59:54Z</time>
      </trkpt>
      <trkpt lat="44.33504" lon="2.49377">
        <ele>486</ele>
        <time>2013-03-21T16:59:57Z</time>
      </trkpt>
      <trkpt lat="44.33513" lon="2.49372">
        <ele>485</ele>
        <time>2013-03-21T17:00:00Z</time>
      </trkpt>
      <trkpt lat="44.33522" lon="2.49368">
        <ele>485</ele>
        <time>2013-03-21T17:00:03Z</time>
      </trkpt>
      <trkpt lat="44.33532" lon="2.49363">
        <ele>484</ele>
        <time>2013-03-21T17:00:07Z</time>
      </trkpt>
      <trkpt lat="44.33542" lon="2.49359">
        <ele>485</ele>
        <time>2013-03-21T17:00:11Z</time>
      </trkpt>
      <trkpt lat="44.33552" lon="2.49356">
        <ele>487</ele>
        <time>2013-03-21T17:00:15Z</time>
      </trkpt>
      <trkpt lat="44.33579" lon="2.49342">
        <ele>488</ele>
        <time>2013-03-21T17:00:24Z</time>
      </trkpt>
      <trkpt lat="44.33607" lon="2.4932">
        <ele>489</ele>
        <time>2013-03-21T17:00:32Z</time>
      </trkpt>
      <trkpt lat="44.33618" lon="2.49308">
        <ele>488</ele>
        <time>2013-03-21T17:00:34Z</time>
      </trkpt>
      <trkpt lat="44.33643" lon="2.4928">
        <ele>489</ele>
        <time>2013-03-21T17:00:40Z</time>
      </trkpt>
      <trkpt lat="44.33656" lon="2.49273">
        <ele>489</ele>
        <time>2013-03-21T17:00:42Z</time>
      </trkpt>
      <trkpt lat="44.3367" lon="2.49267">
        <ele>489</ele>
        <time>2013-03-21T17:00:44Z</time>
      </trkpt>
      <trkpt lat="44.33682" lon="2.49261">
        <ele>489</ele>
        <time>2013-03-21T17:00:46Z</time>
      </trkpt>
      <trkpt lat="44.33691" lon="2.49256">
        <ele>489</ele>
        <time>2013-03-21T17:00:48Z</time>
      </trkpt>
      <trkpt lat="44.33701" lon="2.49251">
        <ele>488</ele>
        <time>2013-03-21T17:00:50Z</time>
      </trkpt>
      <trkpt lat="44.3371" lon="2.49247">
        <ele>487</ele>
        <time>2013-03-21T17:00:52Z</time>
      </trkpt>
      <trkpt lat="44.33722" lon="2.49242">
        <ele>486</ele>
        <time>2013-03-21T17:00:56Z</time>
      </trkpt>
      <trkpt lat="44.33731" lon="2.49232">
        <ele>485</ele>
        <time>2013-03-21T17:00:58Z</time>
      </trkpt>
      <trkpt lat="44.33732" lon="2.49219">
        <ele>484</ele>
        <time>2013-03-21T17:01:01Z</time>
      </trkpt>
      <trkpt lat="44.33727" lon="2.49205">
        <ele>482</ele>
        <time>2013-03-21T17:01:04Z</time>
      </trkpt>
      <trkpt lat="44.33724" lon="2.49192">
        <ele>480</ele>
        <time>2013-03-21T17:01:06Z</time>
      </trkpt>
      <trkpt lat="44.33719" lon="2.4918">
        <ele>479</ele>
        <time>2013-03-21T17:01:08Z</time>
      </trkpt>
      <trkpt lat="44.33715" lon="2.49168">
        <ele>478</ele>
        <time>2013-03-21T17:01:10Z</time>
      </trkpt>
      <trkpt lat="44.33709" lon="2.49152">
        <ele>477</ele>
        <time>2013-03-21T17:01:13Z</time>
      </trkpt>
      <trkpt lat="44.33703" lon="2.49138">
        <ele>476</ele>
        <time>2013-03-21T17:01:16Z</time>
      </trkpt>
      <trkpt lat="44.33696" lon="2.49126">
        <ele>475</ele>
        <time>2013-03-21T17:01:19Z</time>
      </trkpt>
      <trkpt lat="44.33689" lon="2.49114">
        <ele>476</ele>
        <time>2013-03-21T17:01:22Z</time>
      </trkpt>
      <trkpt lat="44.33683" lon="2.49101">
        <ele>477</ele>
        <time>2013-03-21T17:01:26Z</time>
      </trkpt>
      <trkpt lat="44.33673" lon="2.49105">
        <ele>478</ele>
        <time>2013-03-21T17:01:32Z</time>
      </trkpt>
      <trkpt lat="44.33664" lon="2.49118">
        <ele>478</ele>
        <time>2013-03-21T17:01:35Z</time>
      </trkpt>
      <trkpt lat="44.33654" lon="2.49127">
        <ele>478</ele>
        <time>2013-03-21T17:01:38Z</time>
      </trkpt>
      <trkpt lat="44.33645" lon="2.49135">
        <ele>478</ele>
        <time>2013-03-21T17:01:41Z</time>
      </trkpt>
      <trkpt lat="44.33636" lon="2.49143">
        <ele>478</ele>
        <time>2013-03-21T17:01:44Z</time>
      </trkpt>
      <trkpt lat="44.33627" lon="2.49144">
        <ele>478</ele>
        <time>2013-03-21T17:01:47Z</time>
      </trkpt>
      <trkpt lat="44.33615" lon="2.49144">
        <ele>478</ele>
        <time>2013-03-21T17:01:50Z</time>
      </trkpt>
      <trkpt lat="44.33603" lon="2.49144">
        <ele>478</ele>
        <time>2013-03-21T17:01:53Z</time>
      </trkpt>
      <trkpt lat="44.33594" lon="2.49146">
        <ele>478</ele>
        <time>2013-03-21T17:01:56Z</time>
      </trkpt>
      <trkpt lat="44.33584" lon="2.49149">
        <ele>479</ele>
        <time>2013-03-21T17:02:00Z</time>
      </trkpt>
      <trkpt lat="44.33574" lon="2.49154">
        <ele>480</ele>
        <time>2013-03-21T17:02:04Z</time>
      </trkpt>
      <trkpt lat="44.33563" lon="2.49156">
        <ele>481</ele>
        <time>2013-03-21T17:02:09Z</time>
      </trkpt>
      <trkpt lat="44.33553" lon="2.49158">
        <ele>481</ele>
        <time>2013-03-21T17:02:12Z</time>
      </trkpt>
      <trkpt lat="44.33541" lon="2.4916">
        <ele>481</ele>
        <time>2013-03-21T17:02:15Z</time>
      </trkpt>
      <trkpt lat="44.33532" lon="2.49168">
        <ele>482</ele>
        <time>2013-03-21T17:02:18Z</time>
      </trkpt>
      <trkpt lat="44.33523" lon="2.49176">
        <ele>483</ele>
        <time>2013-03-21T17:02:20Z</time>
      </trkpt>
      <trkpt lat="44.33514" lon="2.49184">
        <ele>484</ele>
        <time>2013-03-21T17:02:23Z</time>
      </trkpt>
      <trkpt lat="44.33502" lon="2.49191">
        <ele>485</ele>
        <time>2013-03-21T17:02:26Z</time>
      </trkpt>
      <trkpt lat="44.33493" lon="2.49196">
        <ele>486</ele>
        <time>2013-03-21T17:02:28Z</time>
      </trkpt>
      <trkpt lat="44.33482" lon="2.492">
        <ele>486</ele>
        <time>2013-03-21T17:02:31Z</time>
      </trkpt>
      <trkpt lat="44.33473" lon="2.49205">
        <ele>487</ele>
        <time>2013-03-21T17:02:34Z</time>
      </trkpt>
      <trkpt lat="44.33463" lon="2.49212">
        <ele>488</ele>
        <time>2013-03-21T17:02:38Z</time>
      </trkpt>
      <trkpt lat="44.33452" lon="2.49215">
        <ele>489</ele>
        <time>2013-03-21T17:02:42Z</time>
      </trkpt>
      <trkpt lat="44.33441" lon="2.49217">
        <ele>489</ele>
        <time>2013-03-21T17:02:46Z</time>
      </trkpt>
      <trkpt lat="44.33431" lon="2.49218">
        <ele>490</ele>
        <time>2013-03-21T17:02:49Z</time>
      </trkpt>
      <trkpt lat="44.33419" lon="2.49218">
        <ele>493</ele>
        <time>2013-03-21T17:02:52Z</time>
      </trkpt>
      <trkpt lat="44.33408" lon="2.49217">
        <ele>495</ele>
        <time>2013-03-21T17:02:55Z</time>
      </trkpt>
      <trkpt lat="44.33399" lon="2.49215">
        <ele>498</ele>
        <time>2013-03-21T17:02:58Z</time>
      </trkpt>
      <trkpt lat="44.33389" lon="2.49212">
        <ele>500</ele>
        <time>2013-03-21T17:03:01Z</time>
      </trkpt>
      <trkpt lat="44.33378" lon="2.49208">
        <ele>501</ele>
        <time>2013-03-21T17:03:05Z</time>
      </trkpt>
      <trkpt lat="44.33367" lon="2.49207">
        <ele>503</ele>
        <time>2013-03-21T17:03:08Z</time>
      </trkpt>
      <trkpt lat="44.33357" lon="2.49207">
        <ele>504</ele>
        <time>2013-03-21T17:03:11Z</time>
      </trkpt>
      <trkpt lat="44.33347" lon="2.49207">
        <ele>505</ele>
        <time>2013-03-21T17:03:14Z</time>
      </trkpt>
      <trkpt lat="44.33336" lon="2.49207">
        <ele>507</ele>
        <time>2013-03-21T17:03:18Z</time>
      </trkpt>
      <trkpt lat="44.33326" lon="2.49208">
        <ele>510</ele>
        <time>2013-03-21T17:03:21Z</time>
      </trkpt>
      <trkpt lat="44.33315" lon="2.49206">
        <ele>512</ele>
        <time>2013-03-21T17:03:25Z</time>
      </trkpt>
      <trkpt lat="44.33304" lon="2.49203">
        <ele>513</ele>
        <time>2013-03-21T17:03:28Z</time>
      </trkpt>
      <trkpt lat="44.33294" lon="2.49197">
        <ele>515</ele>
        <time>2013-03-21T17:03:32Z</time>
      </trkpt>
      <trkpt lat="44.33285" lon="2.49188">
        <ele>517</ele>
        <time>2013-03-21T17:03:36Z</time>
      </trkpt>
      <trkpt lat="44.33276" lon="2.49178">
        <ele>519</ele>
        <time>2013-03-21T17:03:39Z</time>
      </trkpt>
      <trkpt lat="44.33268" lon="2.49169">
        <ele>520</ele>
        <time>2013-03-21T17:03:42Z</time>
      </trkpt>
      <trkpt lat="44.33261" lon="2.49157">
        <ele>521</ele>
        <time>2013-03-21T17:03:46Z</time>
      </trkpt>
      <trkpt lat="44.33257" lon="2.49144">
        <ele>522</ele>
        <time>2013-03-21T17:03:50Z</time>
      </trkpt>
      <trkpt lat="44.33256" lon="2.49128">
        <ele>523</ele>
        <time>2013-03-21T17:03:54Z</time>
      </trkpt>
      <trkpt lat="44.33256" lon="2.49114">
        <ele>524</ele>
        <time>2013-03-21T17:03:57Z</time>
      </trkpt>
      <trkpt lat="44.33256" lon="2.49099">
        <ele>524</ele>
        <time>2013-03-21T17:04:00Z</time>
      </trkpt>
      <trkpt lat="44.33262" lon="2.49088">
        <ele>522</ele>
        <time>2013-03-21T17:04:08Z</time>
      </trkpt>
      <trkpt lat="44.33268" lon="2.49096">
        <ele>522</ele>
        <time>2013-03-21T17:04:14Z</time>
      </trkpt>
      <trkpt lat="44.33275" lon="2.49105">
        <ele>522</ele>
        <time>2013-03-21T17:04:18Z</time>
      </trkpt>
      <trkpt lat="44.33282" lon="2.49117">
        <ele>523</ele>
        <time>2013-03-21T17:04:23Z</time>
      </trkpt>
      <trkpt lat="44.33288" lon="2.49127">
        <ele>525</ele>
        <time>2013-03-21T17:04:29Z</time>
      </trkpt>
      <trkpt lat="44.33298" lon="2.49127">
        <ele>527</ele>
        <time>2013-03-21T17:04:37Z</time>
      </trkpt>
      <trkpt lat="44.33308" lon="2.49123">
        <ele>527</ele>
        <time>2013-03-21T17:04:44Z</time>
      </trkpt>
      <trkpt lat="44.33316" lon="2.49118">
        <ele>528</ele>
        <time>2013-03-21T17:04:50Z</time>
      </trkpt>
      <trkpt lat="44.33325" lon="2.49113">
        <ele>531</ele>
        <time>2013-03-21T17:04:57Z</time>
      </trkpt>
      <trkpt lat="44.33333" lon="2.49106">
        <ele>533</ele>
        <time>2013-03-21T17:05:03Z</time>
      </trkpt>
      <trkpt lat="44.33341" lon="2.49097">
        <ele>535</ele>
        <time>2013-03-21T17:05:10Z</time>
      </trkpt>
      <trkpt lat="44.33347" lon="2.49084">
        <ele>538</ele>
        <time>2013-03-21T17:05:19Z</time>
      </trkpt>
      <trkpt lat="44.33353" lon="2.49074">
        <ele>541</ele>
        <time>2013-03-21T17:05:25Z</time>
      </trkpt>
      <trkpt lat="44.33364" lon="2.49068">
        <ele>544</ele>
        <time>2013-03-21T17:05:38Z</time>
      </trkpt>
      <trkpt lat="44.33372" lon="2.49061">
        <ele>546</ele>
        <time>2013-03-21T17:05:45Z</time>
      </trkpt>
      <trkpt lat="44.33379" lon="2.49053">
        <ele>547</ele>
        <time>2013-03-21T17:05:53Z</time>
      </trkpt>
      <trkpt lat="44.33388" lon="2.49045">
        <ele>545</ele>
        <time>2013-03-21T17:06:03Z</time>
      </trkpt>
      <trkpt lat="44.33397" lon="2.4904">
        <ele>544</ele>
        <time>2013-03-21T17:06:11Z</time>
      </trkpt>
      <trkpt lat="44.33407" lon="2.49036">
        <ele>543</ele>
        <time>2013-03-21T17:06:17Z</time>
      </trkpt>
      <trkpt lat="44.33416" lon="2.49031">
        <ele>543</ele>
        <time>2013-03-21T17:06:22Z</time>
      </trkpt>
      <trkpt lat="44.33426" lon="2.49022">
        <ele>544</ele>
        <time>2013-03-21T17:06:33Z</time>
      </trkpt>
      <trkpt lat="44.33419" lon="2.49014">
        <ele>549</ele>
        <time>2013-03-21T17:06:46Z</time>
      </trkpt>
      <trkpt lat="44.33409" lon="2.49015">
        <ele>550</ele>
        <time>2013-03-21T17:06:52Z</time>
      </trkpt>
      <trkpt lat="44.33398" lon="2.49016">
        <ele>551</ele>
        <time>2013-03-21T17:06:59Z</time>
      </trkpt>
      <trkpt lat="44.33388" lon="2.49014">
        <ele>551</ele>
        <time>2013-03-21T17:07:06Z</time>
      </trkpt>
      <trkpt lat="44.33379" lon="2.49009">
        <ele>551</ele>
        <time>2013-03-21T17:07:12Z</time>
      </trkpt>
      <trkpt lat="44.33371" lon="2.49">
        <ele>552</ele>
        <time>2013-03-21T17:07:18Z</time>
      </trkpt>
      <trkpt lat="44.33366" lon="2.48989">
        <ele>553</ele>
        <time>2013-03-21T17:07:24Z</time>
      </trkpt>
      <trkpt lat="44.3336" lon="2.48978">
        <ele>555</ele>
        <time>2013-03-21T17:07:31Z</time>
      </trkpt>
      <trkpt lat="44.33357" lon="2.48966">
        <ele>556</ele>
        <time>2013-03-21T17:07:40Z</time>
      </trkpt>
      <trkpt lat="44.33354" lon="2.48953">
        <ele>555</ele>
        <time>2013-03-21T17:07:46Z</time>
      </trkpt>
      <trkpt lat="44.33354" lon="2.4894">
        <ele>554</ele>
        <time>2013-03-21T17:07:55Z</time>
      </trkpt>
      <trkpt lat="44.33357" lon="2.48927">
        <ele>554</ele>
        <time>2013-03-21T17:08:01Z</time>
      </trkpt>
      <trkpt lat="44.33358" lon="2.48912">
        <ele>554</ele>
        <time>2013-03-21T17:08:08Z</time>
      </trkpt>
      <trkpt lat="44.3336" lon="2.48897">
        <ele>553</ele>
        <time>2013-03-21T17:08:16Z</time>
      </trkpt>
      <trkpt lat="44.33358" lon="2.48884">
        <ele>554</ele>
        <time>2013-03-21T17:08:23Z</time>
      </trkpt>
      <trkpt lat="44.33357" lon="2.48871">
        <ele>555</ele>
        <time>2013-03-21T17:08:29Z</time>
      </trkpt>
      <trkpt lat="44.33362" lon="2.4886">
        <ele>557</ele>
        <time>2013-03-21T17:08:36Z</time>
      </trkpt>
      <trkpt lat="44.33369" lon="2.48851">
        <ele>559</ele>
        <time>2013-03-21T17:08:42Z</time>
      </trkpt>
      <trkpt lat="44.33376" lon="2.48841">
        <ele>560</ele>
        <time>2013-03-21T17:08:49Z</time>
      </trkpt>
      <trkpt lat="44.33383" lon="2.48829">
        <ele>559</ele>
        <time>2013-03-21T17:08:54Z</time>
      </trkpt>
      <trkpt lat="44.33389" lon="2.48818">
        <ele>560</ele>
        <time>2013-03-21T17:08:57Z</time>
      </trkpt>
      <trkpt lat="44.33395" lon="2.48807">
        <ele>560</ele>
        <time>2013-03-21T17:09:00Z</time>
      </trkpt>
      <trkpt lat="44.334" lon="2.48793">
        <ele>562</ele>
        <time>2013-03-21T17:09:03Z</time>
      </trkpt>
      <trkpt lat="44.33405" lon="2.48782">
        <ele>562</ele>
        <time>2013-03-21T17:09:05Z</time>
      </trkpt>
      <trkpt lat="44.33411" lon="2.48769">
        <ele>563</ele>
        <time>2013-03-21T17:09:07Z</time>
      </trkpt>
      <trkpt lat="44.33417" lon="2.48757">
        <ele>563</ele>
        <time>2013-03-21T17:09:09Z</time>
      </trkpt>
      <trkpt lat="44.33424" lon="2.48746">
        <ele>564</ele>
        <time>2013-03-21T17:09:11Z</time>
      </trkpt>
      <trkpt lat="44.33431" lon="2.48737">
        <ele>565</ele>
        <time>2013-03-21T17:09:13Z</time>
      </trkpt>
      <trkpt lat="44.33439" lon="2.48729">
        <ele>565</ele>
        <time>2013-03-21T17:09:15Z</time>
      </trkpt>
      <trkpt lat="44.33447" lon="2.48721">
        <ele>566</ele>
        <time>2013-03-21T17:09:17Z</time>
      </trkpt>
      <trkpt lat="44.33456" lon="2.48713">
        <ele>566</ele>
        <time>2013-03-21T17:09:19Z</time>
      </trkpt>
      <trkpt lat="44.33465" lon="2.48705">
        <ele>567</ele>
        <time>2013-03-21T17:09:21Z</time>
      </trkpt>
      <trkpt lat="44.33475" lon="2.48694">
        <ele>567</ele>
        <time>2013-03-21T17:09:23Z</time>
      </trkpt>
      <trkpt lat="44.33483" lon="2.48684">
        <ele>568</ele>
        <time>2013-03-21T17:09:25Z</time>
      </trkpt>
      <trkpt lat="44.33492" lon="2.48674">
        <ele>568</ele>
        <time>2013-03-21T17:09:27Z</time>
      </trkpt>
      <trkpt lat="44.33503" lon="2.48669">
        <ele>568</ele>
        <time>2013-03-21T17:09:29Z</time>
      </trkpt>
      <trkpt lat="44.33513" lon="2.48667">
        <ele>569</ele>
        <time>2013-03-21T17:09:31Z</time>
      </trkpt>
      <trkpt lat="44.33525" lon="2.48667">
        <ele>571</ele>
        <time>2013-03-21T17:09:33Z</time>
      </trkpt>
      <trkpt lat="44.33538" lon="2.48667">
        <ele>572</ele>
        <time>2013-03-21T17:09:35Z</time>
      </trkpt>
      <trkpt lat="44.33549" lon="2.48668">
        <ele>573</ele>
        <time>2013-03-21T17:09:37Z</time>
      </trkpt>
      <trkpt lat="44.33562" lon="2.48671">
        <ele>574</ele>
        <time>2013-03-21T17:09:39Z</time>
      </trkpt>
      <trkpt lat="44.33574" lon="2.48672">
        <ele>575</ele>
        <time>2013-03-21T17:09:41Z</time>
      </trkpt>
      <trkpt lat="44.33587" lon="2.4867">
        <ele>577</ele>
        <time>2013-03-21T17:09:43Z</time>
      </trkpt>
      <trkpt lat="44.33599" lon="2.48667">
        <ele>578</ele>
        <time>2013-03-21T17:09:45Z</time>
      </trkpt>
      <trkpt lat="44.33611" lon="2.48664">
        <ele>580</ele>
        <time>2013-03-21T17:09:47Z</time>
      </trkpt>
      <trkpt lat="44.33621" lon="2.4866">
        <ele>582</ele>
        <time>2013-03-21T17:09:49Z</time>
      </trkpt>
      <trkpt lat="44.33631" lon="2.48656">
        <ele>584</ele>
        <time>2013-03-21T17:09:51Z</time>
      </trkpt>
      <trkpt lat="44.33645" lon="2.48649">
        <ele>585</ele>
        <time>2013-03-21T17:09:54Z</time>
      </trkpt>
      <trkpt lat="44.33668" lon="2.48638">
        <ele>585</ele>
        <time>2013-03-21T17:09:58Z</time>
      </trkpt>
      <trkpt lat="44.33678" lon="2.48633">
        <ele>585</ele>
        <time>2013-03-21T17:10:00Z</time>
      </trkpt>
      <trkpt lat="44.33689" lon="2.48627">
        <ele>586</ele>
        <time>2013-03-21T17:10:02Z</time>
      </trkpt>
      <trkpt lat="44.33701" lon="2.48622">
        <ele>587</ele>
        <time>2013-03-21T17:10:04Z</time>
      </trkpt>
      <trkpt lat="44.33712" lon="2.48618">
        <ele>588</ele>
        <time>2013-03-21T17:10:06Z</time>
      </trkpt>
      <trkpt lat="44.33724" lon="2.48612">
        <ele>590</ele>
        <time>2013-03-21T17:10:09Z</time>
      </trkpt>
      <trkpt lat="44.33736" lon="2.48615">
        <ele>592</ele>
        <time>2013-03-21T17:10:12Z</time>
      </trkpt>
      <trkpt lat="44.33748" lon="2.48621">
        <ele>594</ele>
        <time>2013-03-21T17:10:15Z</time>
      </trkpt>
      <trkpt lat="44.33756" lon="2.48626">
        <ele>595</ele>
        <time>2013-03-21T17:10:17Z</time>
      </trkpt>
      <trkpt lat="44.33766" lon="2.48629">
        <ele>596</ele>
        <time>2013-03-21T17:10:19Z</time>
      </trkpt>
      <trkpt lat="44.33776" lon="2.48632">
        <ele>596</ele>
        <time>2013-03-21T17:10:21Z</time>
      </trkpt>
      <trkpt lat="44.33786" lon="2.48635">
        <ele>597</ele>
        <time>2013-03-21T17:10:23Z</time>
      </trkpt>
      <trkpt lat="44.33798" lon="2.48639">
        <ele>597</ele>
        <time>2013-03-21T17:10:25Z</time>
      </trkpt>
      <trkpt lat="44.33809" lon="2.48643">
        <ele>597</ele>
        <time>2013-03-21T17:10:27Z</time>
      </trkpt>
      <trkpt lat="44.3382" lon="2.48647">
        <ele>597</ele>
        <time>2013-03-21T17:10:29Z</time>
      </trkpt>
      <trkpt lat="44.3383" lon="2.48649">
        <ele>597</ele>
        <time>2013-03-21T17:10:31Z</time>
      </trkpt>
      <trkpt lat="44.33842" lon="2.48649">
        <ele>598</ele>
        <time>2013-03-21T17:10:34Z</time>
      </trkpt>
      <trkpt lat="44.33853" lon="2.48646">
        <ele>598</ele>
        <time>2013-03-21T17:10:37Z</time>
      </trkpt>
      <trkpt lat="44.33864" lon="2.48643">
        <ele>598</ele>
        <time>2013-03-21T17:10:40Z</time>
      </trkpt>
      <trkpt lat="44.33876" lon="2.4864">
        <ele>598</ele>
        <time>2013-03-21T17:10:43Z</time>
      </trkpt>
      <trkpt lat="44.33886" lon="2.4864">
        <ele>598</ele>
        <time>2013-03-21T17:10:47Z</time>
      </trkpt>
      <trkpt lat="44.33896" lon="2.4864">
        <ele>598</ele>
        <time>2013-03-21T17:10:51Z</time>
      </trkpt>
      <trkpt lat="44.33907" lon="2.48643">
        <ele>597</ele>
        <time>2013-03-21T17:10:54Z</time>
      </trkpt>
      <trkpt lat="44.33916" lon="2.48645">
        <ele>596</ele>
        <time>2013-03-21T17:10:57Z</time>
      </trkpt>
      <trkpt lat="44.33927" lon="2.48648">
        <ele>595</ele>
        <time>2013-03-21T17:11:01Z</time>
      </trkpt>
      <trkpt lat="44.33938" lon="2.48651">
        <ele>595</ele>
        <time>2013-03-21T17:11:05Z</time>
      </trkpt>
      <trkpt lat="44.33947" lon="2.48656">
        <ele>595</ele>
        <time>2013-03-21T17:11:08Z</time>
      </trkpt>
      <trkpt lat="44.33959" lon="2.48661">
        <ele>595</ele>
        <time>2013-03-21T17:11:12Z</time>
      </trkpt>
      <trkpt lat="44.33969" lon="2.48662">
        <ele>595</ele>
        <time>2013-03-21T17:11:16Z</time>
      </trkpt>
      <trkpt lat="44.33989" lon="2.48661">
        <ele>595</ele>
        <time>2013-03-21T17:11:23Z</time>
      </trkpt>
      <trkpt lat="44.33998" lon="2.4866">
        <ele>595</ele>
        <time>2013-03-21T17:11:26Z</time>
      </trkpt>
      <trkpt lat="44.34008" lon="2.48659">
        <ele>595</ele>
        <time>2013-03-21T17:11:29Z</time>
      </trkpt>
      <trkpt lat="44.34017" lon="2.4866">
        <ele>595</ele>
        <time>2013-03-21T17:11:32Z</time>
      </trkpt>
      <trkpt lat="44.34028" lon="2.48658">
        <ele>595</ele>
        <time>2013-03-21T17:11:36Z</time>
      </trkpt>
      <trkpt lat="44.34038" lon="2.48657">
        <ele>595</ele>
        <time>2013-03-21T17:11:40Z</time>
      </trkpt>
      <trkpt lat="44.3405" lon="2.48656">
        <ele>594</ele>
        <time>2013-03-21T17:11:45Z</time>
      </trkpt>
      <trkpt lat="44.3406" lon="2.48653">
        <ele>595</ele>
        <time>2013-03-21T17:11:50Z</time>
      </trkpt>
      <trkpt lat="44.3407" lon="2.48651">
        <ele>594</ele>
        <time>2013-03-21T17:11:54Z</time>
      </trkpt>
      <trkpt lat="44.34081" lon="2.48648">
        <ele>593</ele>
        <time>2013-03-21T17:11:58Z</time>
      </trkpt>
      <trkpt lat="44.34106" lon="2.48633">
        <ele>596</ele>
        <time>2013-03-21T17:12:18Z</time>
      </trkpt>
      <trkpt lat="44.34115" lon="2.48623">
        <ele>597</ele>
        <time>2013-03-21T17:12:26Z</time>
      </trkpt>
      <trkpt lat="44.34125" lon="2.48618">
        <ele>601</ele>
        <time>2013-03-21T17:12:32Z</time>
      </trkpt>
      <trkpt lat="44.34134" lon="2.48615">
        <ele>603</ele>
        <time>2013-03-21T17:12:34Z</time>
      </trkpt>
      <trkpt lat="44.34143" lon="2.48612">
        <ele>605</ele>
        <time>2013-03-21T17:12:37Z</time>
      </trkpt>
      <trkpt lat="44.34154" lon="2.4861">
        <ele>608</ele>
        <time>2013-03-21T17:12:42Z</time>
      </trkpt>
      <trkpt lat="44.34164" lon="2.48611">
        <ele>610</ele>
        <time>2013-03-21T17:12:47Z</time>
      </trkpt>
      <trkpt lat="44.34174" lon="2.48613">
        <ele>612</ele>
        <time>2013-03-21T17:12:52Z</time>
      </trkpt>
      <trkpt lat="44.34183" lon="2.48615">
        <ele>612</ele>
        <time>2013-03-21T17:12:57Z</time>
      </trkpt>
      <trkpt lat="44.34193" lon="2.48618">
        <ele>614</ele>
        <time>2013-03-21T17:13:03Z</time>
      </trkpt>
      <trkpt lat="44.34201" lon="2.48625">
        <ele>615</ele>
        <time>2013-03-21T17:13:09Z</time>
      </trkpt>
      <trkpt lat="44.3421" lon="2.48631">
        <ele>615</ele>
        <time>2013-03-21T17:13:15Z</time>
      </trkpt>
      <trkpt lat="44.34219" lon="2.48635">
        <ele>616</ele>
        <time>2013-03-21T17:13:21Z</time>
      </trkpt>
      <trkpt lat="44.34229" lon="2.48633">
        <ele>617</ele>
        <time>2013-03-21T17:13:27Z</time>
      </trkpt>
      <trkpt lat="44.34238" lon="2.48631">
        <ele>618</ele>
        <time>2013-03-21T17:13:34Z</time>
      </trkpt>
      <trkpt lat="44.34249" lon="2.4863">
        <ele>617</ele>
        <time>2013-03-21T17:13:41Z</time>
      </trkpt>
      <trkpt lat="44.34258" lon="2.48631">
        <ele>617</ele>
        <time>2013-03-21T17:13:47Z</time>
      </trkpt>
      <trkpt lat="44.34269" lon="2.48632">
        <ele>617</ele>
        <time>2013-03-21T17:13:53Z</time>
      </trkpt>
      <trkpt lat="44.34279" lon="2.48627">
        <ele>614</ele>
        <time>2013-03-21T17:14:01Z</time>
      </trkpt>
      <trkpt lat="44.34285" lon="2.48616">
        <ele>612</ele>
        <time>2013-03-21T17:14:07Z</time>
      </trkpt>
      <trkpt lat="44.34286" lon="2.48601">
        <ele>613</ele>
        <time>2013-03-21T17:14:11Z</time>
      </trkpt>
      <trkpt lat="44.34287" lon="2.48586">
        <ele>612</ele>
        <time>2013-03-21T17:14:15Z</time>
      </trkpt>
      <trkpt lat="44.34287" lon="2.48571">
        <ele>611</ele>
        <time>2013-03-21T17:14:19Z</time>
      </trkpt>
      <trkpt lat="44.34284" lon="2.48555">
        <ele>612</ele>
        <time>2013-03-21T17:14:23Z</time>
      </trkpt>
      <trkpt lat="44.34281" lon="2.48543">
        <ele>612</ele>
        <time>2013-03-21T17:14:26Z</time>
      </trkpt>
      <trkpt lat="44.34277" lon="2.48526">
        <ele>613</ele>
        <time>2013-03-21T17:14:30Z</time>
      </trkpt>
      <trkpt lat="44.34275" lon="2.48513">
        <ele>614</ele>
        <time>2013-03-21T17:14:33Z</time>
      </trkpt>
      <trkpt lat="44.34275" lon="2.48496">
        <ele>614</ele>
        <time>2013-03-21T17:14:37Z</time>
      </trkpt>
      <trkpt lat="44.34279" lon="2.48482">
        <ele>615</ele>
        <time>2013-03-21T17:14:41Z</time>
      </trkpt>
      <trkpt lat="44.34283" lon="2.48471">
        <ele>615</ele>
        <time>2013-03-21T17:14:45Z</time>
      </trkpt>
      <trkpt lat="44.34289" lon="2.48459">
        <ele>615</ele>
        <time>2013-03-21T17:14:50Z</time>
      </trkpt>
      <trkpt lat="44.34296" lon="2.48449">
        <ele>617</ele>
        <time>2013-03-21T17:14:55Z</time>
      </trkpt>
      <trkpt lat="44.34303" lon="2.48441">
        <ele>617</ele>
        <time>2013-03-21T17:14:58Z</time>
      </trkpt>
      <trkpt lat="44.3431" lon="2.48433">
        <ele>618</ele>
        <time>2013-03-21T17:15:02Z</time>
      </trkpt>
      <trkpt lat="44.3432" lon="2.48428">
        <ele>616</ele>
        <time>2013-03-21T17:15:05Z</time>
      </trkpt>
      <trkpt lat="44.3433" lon="2.48427">
        <ele>614</ele>
        <time>2013-03-21T17:15:08Z</time>
      </trkpt>
      <trkpt lat="44.34341" lon="2.48428">
        <ele>612</ele>
        <time>2013-03-21T17:15:12Z</time>
      </trkpt>
      <trkpt lat="44.34351" lon="2.48433">
        <ele>610</ele>
        <time>2013-03-21T17:15:16Z</time>
      </trkpt>
      <trkpt lat="44.34359" lon="2.48439">
        <ele>610</ele>
        <time>2013-03-21T17:15:18Z</time>
      </trkpt>
      <trkpt lat="44.34369" lon="2.48445">
        <ele>611</ele>
        <time>2013-03-21T17:15:21Z</time>
      </trkpt>
      <trkpt lat="44.34384" lon="2.48449">
        <ele>612</ele>
        <time>2013-03-21T17:15:25Z</time>
      </trkpt>
      <trkpt lat="44.34393" lon="2.48452">
        <ele>615</ele>
        <time>2013-03-21T17:15:28Z</time>
      </trkpt>
      <trkpt lat="44.34403" lon="2.48455">
        <ele>617</ele>
        <time>2013-03-21T17:15:31Z</time>
      </trkpt>
      <trkpt lat="44.34413" lon="2.48458">
        <ele>618</ele>
        <time>2013-03-21T17:15:34Z</time>
      </trkpt>
      <trkpt lat="44.34425" lon="2.4846">
        <ele>619</ele>
        <time>2013-03-21T17:15:37Z</time>
      </trkpt>
      <trkpt lat="44.34436" lon="2.4846">
        <ele>620</ele>
        <time>2013-03-21T17:15:40Z</time>
      </trkpt>
      <trkpt lat="44.34447" lon="2.48459">
        <ele>622</ele>
        <time>2013-03-21T17:15:44Z</time>
      </trkpt>
      <trkpt lat="44.34458" lon="2.48459">
        <ele>625</ele>
        <time>2013-03-21T17:15:47Z</time>
      </trkpt>
      <trkpt lat="44.34468" lon="2.48458">
        <ele>626</ele>
        <time>2013-03-21T17:15:49Z</time>
      </trkpt>
      <trkpt lat="44.34479" lon="2.48454">
        <ele>630</ele>
        <time>2013-03-21T17:15:53Z</time>
      </trkpt>
      <trkpt lat="44.34489" lon="2.48451">
        <ele>632</ele>
        <time>2013-03-21T17:15:56Z</time>
      </trkpt>
      <trkpt lat="44.345" lon="2.48447">
        <ele>634</ele>
        <time>2013-03-21T17:15:59Z</time>
      </trkpt>
      <trkpt lat="44.34512" lon="2.48441">
        <ele>635</ele>
        <time>2013-03-21T17:16:02Z</time>
      </trkpt>
      <trkpt lat="44.34524" lon="2.48435">
        <ele>637</ele>
        <time>2013-03-21T17:16:06Z</time>
      </trkpt>
      <trkpt lat="44.34533" lon="2.48429">
        <ele>638</ele>
        <time>2013-03-21T17:16:09Z</time>
      </trkpt>
      <trkpt lat="44.34541" lon="2.48422">
        <ele>639</ele>
        <time>2013-03-21T17:16:11Z</time>
      </trkpt>
      <trkpt lat="44.34549" lon="2.48413">
        <ele>639</ele>
        <time>2013-03-21T17:16:14Z</time>
      </trkpt>
      <trkpt lat="44.34558" lon="2.48405">
        <ele>639</ele>
        <time>2013-03-21T17:16:16Z</time>
      </trkpt>
      <trkpt lat="44.34566" lon="2.48394">
        <ele>639</ele>
        <time>2013-03-21T17:16:20Z</time>
      </trkpt>
      <trkpt lat="44.34575" lon="2.48382">
        <ele>639</ele>
        <time>2013-03-21T17:16:24Z</time>
      </trkpt>
      <trkpt lat="44.34583" lon="2.48374">
        <ele>639</ele>
        <time>2013-03-21T17:16:27Z</time>
      </trkpt>
      <trkpt lat="44.34592" lon="2.48364">
        <ele>639</ele>
        <time>2013-03-21T17:16:30Z</time>
      </trkpt>
      <trkpt lat="44.346" lon="2.48353">
        <ele>638</ele>
        <time>2013-03-21T17:16:33Z</time>
      </trkpt>
      <trkpt lat="44.34607" lon="2.48341">
        <ele>638</ele>
        <time>2013-03-21T17:16:36Z</time>
      </trkpt>
      <trkpt lat="44.34613" lon="2.48329">
        <ele>637</ele>
        <time>2013-03-21T17:16:39Z</time>
      </trkpt>
      <trkpt lat="44.34618" lon="2.48316">
        <ele>637</ele>
        <time>2013-03-21T17:16:43Z</time>
      </trkpt>
      <trkpt lat="44.34627" lon="2.4831">
        <ele>637</ele>
        <time>2013-03-21T17:16:48Z</time>
      </trkpt>
      <trkpt lat="44.34636" lon="2.48316">
        <ele>638</ele>
        <time>2013-03-21T17:16:52Z</time>
      </trkpt>
      <trkpt lat="44.3464" lon="2.4833">
        <ele>631</ele>
        <time>2013-03-21T17:17:11Z</time>
      </trkpt>
      <trkpt lat="44.3464" lon="2.4836">
        <ele>620</ele>
        <time>2013-03-21T17:17:26Z</time>
      </trkpt>
      <trkpt lat="44.34633" lon="2.48371">
        <ele>618</ele>
        <time>2013-03-21T17:17:29Z</time>
      </trkpt>
      <trkpt lat="44.34627" lon="2.48383">
        <ele>615</ele>
        <time>2013-03-21T17:17:34Z</time>
      </trkpt>
      <trkpt lat="44.34626" lon="2.48397">
        <ele>610</ele>
        <time>2013-03-21T17:17:40Z</time>
      </trkpt>
      <trkpt lat="44.34624" lon="2.48416">
        <ele>605</ele>
        <time>2013-03-21T17:17:52Z</time>
      </trkpt>
      <trkpt lat="44.34623" lon="2.4843">
        <ele>605</ele>
        <time>2013-03-21T17:17:59Z</time>
      </trkpt>
      <trkpt lat="44.34619" lon="2.4845">
        <ele>606</ele>
        <time>2013-03-21T17:18:09Z</time>
      </trkpt>
      <trkpt lat="44.34616" lon="2.48466">
        <ele>607</ele>
        <time>2013-03-21T17:18:18Z</time>
      </trkpt>
      <trkpt lat="44.34613" lon="2.4848">
        <ele>606</ele>
        <time>2013-03-21T17:18:22Z</time>
      </trkpt>
      <trkpt lat="44.34609" lon="2.48493">
        <ele>607</ele>
        <time>2013-03-21T17:18:29Z</time>
      </trkpt>
      <trkpt lat="44.34601" lon="2.48504">
        <ele>608</ele>
        <time>2013-03-21T17:18:34Z</time>
      </trkpt>
      <trkpt lat="44.34594" lon="2.48513">
        <ele>608</ele>
        <time>2013-03-21T17:18:39Z</time>
      </trkpt>
      <trkpt lat="44.34593" lon="2.48526">
        <ele>606</ele>
        <time>2013-03-21T17:18:48Z</time>
      </trkpt>
      <trkpt lat="44.346" lon="2.48528">
        <ele>600</ele>
        <time>2013-03-21T17:19:12Z</time>
      </trkpt>
      <trkpt lat="44.34607" lon="2.48519">
        <ele>600</ele>
        <time>2013-03-21T17:19:16Z</time>
      </trkpt>
      <trkpt lat="44.34615" lon="2.48515">
        <ele>600</ele>
        <time>2013-03-21T17:19:21Z</time>
      </trkpt>
      <trkpt lat="44.34625" lon="2.48514">
        <ele>601</ele>
        <time>2013-03-21T17:19:26Z</time>
      </trkpt>
      <trkpt lat="44.34635" lon="2.48509">
        <ele>604</ele>
        <time>2013-03-21T17:19:35Z</time>
      </trkpt>
      <trkpt lat="44.34642" lon="2.48493">
        <ele>605</ele>
        <time>2013-03-21T17:19:44Z</time>
      </trkpt>
      <trkpt lat="44.34649" lon="2.48488">
        <ele>603</ele>
        <time>2013-03-21T17:20:14Z</time>
      </trkpt>
      <trkpt lat="44.34652" lon="2.48504">
        <ele>602</ele>
        <time>2013-03-21T17:20:18Z</time>
      </trkpt>
      <trkpt lat="44.34647" lon="2.48517">
        <ele>601</ele>
        <time>2013-03-21T17:20:21Z</time>
      </trkpt>
      <trkpt lat="44.34619" lon="2.48579">
        <ele>579</ele>
        <time>2013-03-21T17:20:55Z</time>
      </trkpt>
      <trkpt lat="44.34616" lon="2.48591">
        <ele>577</ele>
        <time>2013-03-21T17:21:03Z</time>
      </trkpt>
      <trkpt lat="44.34622" lon="2.486">
        <ele>578</ele>
        <time>2013-03-21T17:21:19Z</time>
      </trkpt>
      <trkpt lat="44.34626" lon="2.48613">
        <ele>576</ele>
        <time>2013-03-21T17:21:34Z</time>
      </trkpt>
      <trkpt lat="44.34624" lon="2.48627">
        <ele>576</ele>
        <time>2013-03-21T17:21:40Z</time>
      </trkpt>
      <trkpt lat="44.34624" lon="2.48641">
        <ele>577</ele>
        <time>2013-03-21T17:21:45Z</time>
      </trkpt>
      <trkpt lat="44.34623" lon="2.48655">
        <ele>579</ele>
        <time>2013-03-21T17:21:53Z</time>
      </trkpt>
      <trkpt lat="44.34621" lon="2.48668">
        <ele>580</ele>
        <time>2013-03-21T17:21:58Z</time>
      </trkpt>
      <trkpt lat="44.34616" lon="2.48681">
        <ele>584</ele>
        <time>2013-03-21T17:22:09Z</time>
      </trkpt>
      <trkpt lat="44.3461" lon="2.48692">
        <ele>585</ele>
        <time>2013-03-21T17:22:13Z</time>
      </trkpt>
      <trkpt lat="44.34607" lon="2.48706">
        <ele>585</ele>
        <time>2013-03-21T17:22:24Z</time>
      </trkpt>
      <trkpt lat="44.34605" lon="2.48719">
        <ele>586</ele>
        <time>2013-03-21T17:22:32Z</time>
      </trkpt>
      <trkpt lat="44.34601" lon="2.48733">
        <ele>588</ele>
        <time>2013-03-21T17:22:41Z</time>
      </trkpt>
      <trkpt lat="44.34597" lon="2.48746">
        <ele>586</ele>
        <time>2013-03-21T17:22:50Z</time>
      </trkpt>
      <trkpt lat="44.34592" lon="2.48758">
        <ele>586</ele>
        <time>2013-03-21T17:22:56Z</time>
      </trkpt>
      <trkpt lat="44.34588" lon="2.4877">
        <ele>586</ele>
        <time>2013-03-21T17:23:04Z</time>
      </trkpt>
      <trkpt lat="44.34585" lon="2.48783">
        <ele>584</ele>
        <time>2013-03-21T17:23:13Z</time>
      </trkpt>
      <trkpt lat="44.34583" lon="2.48796">
        <ele>583</ele>
        <time>2013-03-21T17:23:18Z</time>
      </trkpt>
      <trkpt lat="44.34581" lon="2.48808">
        <ele>584</ele>
        <time>2013-03-21T17:23:24Z</time>
      </trkpt>
      <trkpt lat="44.34582" lon="2.48823">
        <ele>587</ele>
        <time>2013-03-21T17:23:35Z</time>
      </trkpt>
      <trkpt lat="44.34577" lon="2.48836">
        <ele>590</ele>
        <time>2013-03-21T17:23:42Z</time>
      </trkpt>
      <trkpt lat="44.34574" lon="2.48849">
        <ele>593</ele>
        <time>2013-03-21T17:23:49Z</time>
      </trkpt>
      <trkpt lat="44.34575" lon="2.48861">
        <ele>595</ele>
        <time>2013-03-21T17:23:58Z</time>
      </trkpt>
      <trkpt lat="44.34576" lon="2.48869">
        <ele>596</ele>
        <time>2013-03-21T17:24:10Z</time>
      </trkpt>
      <trkpt lat="44.34579" lon="2.48874">
        <ele>601</ele>
        <time>2013-03-21T17:24:22Z</time>
      </trkpt>
      <trkpt lat="44.34584" lon="2.48863">
        <ele>604</ele>
        <time>2013-03-21T17:24:35Z</time>
      </trkpt>
      <trkpt lat="44.34592" lon="2.48849">
        <ele>605</ele>
        <time>2013-03-21T17:24:48Z</time>
      </trkpt>
      <trkpt lat="44.346" lon="2.48838">
        <ele>607</ele>
        <time>2013-03-21T17:24:57Z</time>
      </trkpt>
      <trkpt lat="44.34607" lon="2.48829">
        <ele>606</ele>
        <time>2013-03-21T17:25:05Z</time>
      </trkpt>
      <trkpt lat="44.34612" lon="2.48819">
        <ele>607</ele>
        <time>2013-03-21T17:25:11Z</time>
      </trkpt>
      <trkpt lat="44.34618" lon="2.48808">
        <ele>608</ele>
        <time>2013-03-21T17:25:19Z</time>
      </trkpt>
      <trkpt lat="44.34625" lon="2.48801">
        <ele>608</ele>
        <time>2013-03-21T17:25:23Z</time>
      </trkpt>
      <trkpt lat="44.34632" lon="2.48794">
        <ele>611</ele>
        <time>2013-03-21T17:25:30Z</time>
      </trkpt>
      <trkpt lat="44.34636" lon="2.48788">
        <ele>613</ele>
        <time>2013-03-21T17:25:34Z</time>
      </trkpt>
      <trkpt lat="44.34639" lon="2.48784">
        <ele>614</ele>
        <time>2013-03-21T17:25:38Z</time>
      </trkpt>
      <trkpt lat="44.34643" lon="2.4878">
        <ele>614</ele>
        <time>2013-03-21T17:25:42Z</time>
      </trkpt>
      <trkpt lat="44.34647" lon="2.48775">
        <ele>615</ele>
        <time>2013-03-21T17:25:46Z</time>
      </trkpt>
      <trkpt lat="44.34651" lon="2.48771">
        <ele>615</ele>
        <time>2013-03-21T17:25:49Z</time>
      </trkpt>
      <trkpt lat="44.34656" lon="2.48767">
        <ele>617</ele>
        <time>2013-03-21T17:25:53Z</time>
      </trkpt>
      <trkpt lat="44.3466" lon="2.4876">
        <ele>618</ele>
        <time>2013-03-21T17:25:59Z</time>
      </trkpt>
      <trkpt lat="44.34665" lon="2.48756">
        <ele>619</ele>
        <time>2013-03-21T17:26:03Z</time>
      </trkpt>
      <trkpt lat="44.3467" lon="2.48752">
        <ele>619</ele>
        <time>2013-03-21T17:26:06Z</time>
      </trkpt>
      <trkpt lat="44.34674" lon="2.48748">
        <ele>619</ele>
        <time>2013-03-21T17:26:09Z</time>
      </trkpt>
      <trkpt lat="44.34678" lon="2.48744">
        <ele>619</ele>
        <time>2013-03-21T17:26:12Z</time>
      </trkpt>
      <trkpt lat="44.34682" lon="2.4874">
        <ele>619</ele>
        <time>2013-03-21T17:26:15Z</time>
      </trkpt>
      <trkpt lat="44.34686" lon="2.48734">
        <ele>619</ele>
        <time>2013-03-21T17:26:19Z</time>
      </trkpt>
      <trkpt lat="44.3469" lon="2.48729">
        <ele>620</ele>
        <time>2013-03-21T17:26:23Z</time>
      </trkpt>
      <trkpt lat="44.34694" lon="2.48723">
        <ele>621</ele>
        <time>2013-03-21T17:26:27Z</time>
      </trkpt>
      <trkpt lat="44.34697" lon="2.4872">
        <ele>622</ele>
        <time>2013-03-21T17:26:30Z</time>
      </trkpt>
      <trkpt lat="44.34703" lon="2.48718">
        <ele>622</ele>
        <time>2013-03-21T17:26:36Z</time>
      </trkpt>
      <trkpt lat="44.3471" lon="2.48717">
        <ele>622</ele>
        <time>2013-03-21T17:26:38Z</time>
      </trkpt>
      <trkpt lat="44.34716" lon="2.48714">
        <ele>623</ele>
        <time>2013-03-21T17:26:41Z</time>
      </trkpt>
      <trkpt lat="44.3472" lon="2.48712">
        <ele>623</ele>
        <time>2013-03-21T17:26:44Z</time>
      </trkpt>
      <trkpt lat="44.34724" lon="2.48708">
        <ele>624</ele>
        <time>2013-03-21T17:26:47Z</time>
      </trkpt>
      <trkpt lat="44.34729" lon="2.48705">
        <ele>625</ele>
        <time>2013-03-21T17:26:51Z</time>
      </trkpt>
      <trkpt lat="44.34735" lon="2.48701">
        <ele>625</ele>
        <time>2013-03-21T17:26:56Z</time>
      </trkpt>
      <trkpt lat="44.3474" lon="2.48699">
        <ele>625</ele>
        <time>2013-03-21T17:27:00Z</time>
      </trkpt>
      <trkpt lat="44.34745" lon="2.48699">
        <ele>624</ele>
        <time>2013-03-21T17:27:03Z</time>
      </trkpt>
      <trkpt lat="44.34751" lon="2.487">
        <ele>623</ele>
        <time>2013-03-21T17:27:06Z</time>
      </trkpt>
      <trkpt lat="44.34756" lon="2.487">
        <ele>623</ele>
        <time>2013-03-21T17:27:10Z</time>
      </trkpt>
      <trkpt lat="44.34762" lon="2.48703">
        <ele>623</ele>
        <time>2013-03-21T17:27:12Z</time>
      </trkpt>
      <trkpt lat="44.34768" lon="2.48705">
        <ele>623</ele>
        <time>2013-03-21T17:27:15Z</time>
      </trkpt>
      <trkpt lat="44.34772" lon="2.48707">
        <ele>623</ele>
        <time>2013-03-21T17:27:18Z</time>
      </trkpt>
      <trkpt lat="44.34777" lon="2.4871">
        <ele>624</ele>
        <time>2013-03-21T17:27:23Z</time>
      </trkpt>
      <trkpt lat="44.34782" lon="2.48712">
        <ele>624</ele>
        <time>2013-03-21T17:27:26Z</time>
      </trkpt>
      <trkpt lat="44.34787" lon="2.48715">
        <ele>625</ele>
        <time>2013-03-21T17:27:30Z</time>
      </trkpt>
      <trkpt lat="44.34791" lon="2.48718">
        <ele>625</ele>
        <time>2013-03-21T17:27:33Z</time>
      </trkpt>
      <trkpt lat="44.34795" lon="2.4872">
        <ele>624</ele>
        <time>2013-03-21T17:27:36Z</time>
      </trkpt>
      <trkpt lat="44.34801" lon="2.48724">
        <ele>624</ele>
        <time>2013-03-21T17:27:39Z</time>
      </trkpt>
      <trkpt lat="44.34809" lon="2.48728">
        <ele>622</ele>
        <time>2013-03-21T17:27:45Z</time>
      </trkpt>
      <trkpt lat="44.34819" lon="2.48732">
        <ele>622</ele>
        <time>2013-03-21T17:27:51Z</time>
      </trkpt>
      <trkpt lat="44.34828" lon="2.48737">
        <ele>621</ele>
        <time>2013-03-21T17:27:56Z</time>
      </trkpt>
      <trkpt lat="44.34834" lon="2.48738">
        <ele>621</ele>
        <time>2013-03-21T17:27:59Z</time>
      </trkpt>
      <trkpt lat="44.34843" lon="2.48745">
        <ele>620</ele>
        <time>2013-03-21T17:28:06Z</time>
      </trkpt>
      <trkpt lat="44.34853" lon="2.48752">
        <ele>620</ele>
        <time>2013-03-21T17:28:12Z</time>
      </trkpt>
      <trkpt lat="44.34862" lon="2.48757">
        <ele>621</ele>
        <time>2013-03-21T17:28:18Z</time>
      </trkpt>
      <trkpt lat="44.34868" lon="2.4876">
        <ele>621</ele>
        <time>2013-03-21T17:28:21Z</time>
      </trkpt>
      <trkpt lat="44.34874" lon="2.48763">
        <ele>620</ele>
        <time>2013-03-21T17:28:25Z</time>
      </trkpt>
      <trkpt lat="44.3488" lon="2.48774">
        <ele>619</ele>
        <time>2013-03-21T17:28:31Z</time>
      </trkpt>
      <trkpt lat="44.3488" lon="2.48781">
        <ele>618</ele>
        <time>2013-03-21T17:28:34Z</time>
      </trkpt>
      <trkpt lat="44.34877" lon="2.48793">
        <ele>616</ele>
        <time>2013-03-21T17:28:39Z</time>
      </trkpt>
      <trkpt lat="44.34869" lon="2.488">
        <ele>614</ele>
        <time>2013-03-21T17:28:45Z</time>
      </trkpt>
      <trkpt lat="44.34861" lon="2.48801">
        <ele>612</ele>
        <time>2013-03-21T17:28:50Z</time>
      </trkpt>
      <trkpt lat="44.34856" lon="2.48803">
        <ele>610</ele>
        <time>2013-03-21T17:28:53Z</time>
      </trkpt>
    </trkseg>
  </trk>
</gpx>